<?xml version='1.0' encoding='UTF-8'?>
<gpx version="1.1" creator="https://www.komoot.de" xmlns="http://www.topografix.com/GPX/1/1" xmlns:xsi="http://www.w3.org/2001/XMLSchema-instance" xsi:schemaLocation="http://www.topografix.com/GPX/1/1 http://www.topografix.com/GPX/1/1/gpx.xsd">
  <metadata>
    <name>50_550RibBrombRuehrb_jas</name>
    <author>
      <link href="https://www.komoot.de">
        <text>komoot</text>
        <type>text/html</type>
      </link>
    </author>
  </metadata>
  <trk>
    <name>50_550RibBrombRuehrb_jas</name>
    <trkseg>
      <trkpt lat="47.542696" lon="7.869257">
        <ele>337.369567</ele>
        <time>2021-08-16T19:34:55.752Z</time>
      </trkpt>
      <trkpt lat="47.542696" lon="7.869257">
        <ele>337.369567</ele>
        <time>2021-08-16T19:34:55.755Z</time>
      </trkpt>
      <trkpt lat="47.542722" lon="7.869201">
        <ele>337.369567</ele>
        <time>2021-08-16T19:34:56.400Z</time>
      </trkpt>
      <trkpt lat="47.543049" lon="7.868759">
        <ele>337.369567</ele>
        <time>2021-08-16T19:35:01.296Z</time>
      </trkpt>
      <trkpt lat="47.543105" lon="7.868711">
        <ele>337.369567</ele>
        <time>2021-08-16T19:35:02.032Z</time>
      </trkpt>
      <trkpt lat="47.543201" lon="7.868657">
        <ele>337.369567</ele>
        <time>2021-08-16T19:35:03.095Z</time>
      </trkpt>
      <trkpt lat="47.543657" lon="7.868359">
        <ele>337.038104</ele>
        <time>2021-08-16T19:35:08.652Z</time>
      </trkpt>
      <trkpt lat="47.543801" lon="7.868269">
        <ele>336.834955</ele>
        <time>2021-08-16T19:35:11.127Z</time>
      </trkpt>
      <trkpt lat="47.544214" lon="7.867988">
        <ele>336.244221</ele>
        <time>2021-08-16T19:35:18.618Z</time>
      </trkpt>
      <trkpt lat="47.544246" lon="7.867967">
        <ele>336.198729</ele>
        <time>2021-08-16T19:35:19.215Z</time>
      </trkpt>
      <trkpt lat="47.544410" lon="7.867825">
        <ele>335.951820</ele>
        <time>2021-08-16T19:35:22.471Z</time>
      </trkpt>
      <trkpt lat="47.544469" lon="7.867776">
        <ele>335.863902</ele>
        <time>2021-08-16T19:35:23.493Z</time>
      </trkpt>
      <trkpt lat="47.544568" lon="7.867693">
        <ele>335.716043</ele>
        <time>2021-08-16T19:35:25.422Z</time>
      </trkpt>
      <trkpt lat="47.545003" lon="7.867278">
        <ele>335.043525</ele>
        <time>2021-08-16T19:35:34.278Z</time>
      </trkpt>
      <trkpt lat="47.545160" lon="7.866985">
        <ele>335.207486</ele>
        <time>2021-08-16T19:35:38.935Z</time>
      </trkpt>
      <trkpt lat="47.545240" lon="7.866887">
        <ele>335.282474</ele>
        <time>2021-08-16T19:35:41.211Z</time>
      </trkpt>
      <trkpt lat="47.546096" lon="7.866147">
        <ele>335.998403</ele>
        <time>2021-08-16T19:36:06.292Z</time>
      </trkpt>
      <trkpt lat="47.546327" lon="7.865959">
        <ele>336.188793</ele>
        <time>2021-08-16T19:36:12.721Z</time>
      </trkpt>
      <trkpt lat="47.546510" lon="7.865766">
        <ele>336.330444</ele>
        <time>2021-08-16T19:36:19.135Z</time>
      </trkpt>
      <trkpt lat="47.546819" lon="7.865489">
        <ele>336.323776</ele>
        <time>2021-08-16T19:36:27.295Z</time>
      </trkpt>
      <trkpt lat="47.546889" lon="7.865225">
        <ele>336.320241</ele>
        <time>2021-08-16T19:36:31.078Z</time>
      </trkpt>
      <trkpt lat="47.546894" lon="7.864837">
        <ele>336.315405</ele>
        <time>2021-08-16T19:36:36.273Z</time>
      </trkpt>
      <trkpt lat="47.546885" lon="7.864500">
        <ele>336.311203</ele>
        <time>2021-08-16T19:36:41.932Z</time>
      </trkpt>
      <trkpt lat="47.546974" lon="7.864423">
        <ele>336.309300</ele>
        <time>2021-08-16T19:36:43.520Z</time>
      </trkpt>
      <trkpt lat="47.547320" lon="7.863864">
        <ele>336.299849</ele>
        <time>2021-08-16T19:36:53.468Z</time>
      </trkpt>
      <trkpt lat="47.547568" lon="7.863151">
        <ele>335.598153</ele>
        <time>2021-08-16T19:37:02.494Z</time>
      </trkpt>
      <trkpt lat="47.547930" lon="7.861711">
        <ele>333.902006</ele>
        <time>2021-08-16T19:37:18.918Z</time>
      </trkpt>
      <trkpt lat="47.548049" lon="7.860929">
        <ele>333.119462</ele>
        <time>2021-08-16T19:37:27.645Z</time>
      </trkpt>
      <trkpt lat="47.548334" lon="7.859801">
        <ele>332.190933</ele>
        <time>2021-08-16T19:37:41.166Z</time>
      </trkpt>
      <trkpt lat="47.548611" lon="7.858381">
        <ele>331.275660</ele>
        <time>2021-08-16T19:37:59.176Z</time>
      </trkpt>
      <trkpt lat="47.548686" lon="7.857973">
        <ele>331.241349</ele>
        <time>2021-08-16T19:38:04.581Z</time>
      </trkpt>
      <trkpt lat="47.548701" lon="7.857893">
        <ele>331.234612</ele>
        <time>2021-08-16T19:38:05.705Z</time>
      </trkpt>
      <trkpt lat="47.548743" lon="7.857692">
        <ele>331.217539</ele>
        <time>2021-08-16T19:38:08.486Z</time>
      </trkpt>
      <trkpt lat="47.548887" lon="7.857308">
        <ele>331.181895</ele>
        <time>2021-08-16T19:38:14.533Z</time>
      </trkpt>
      <trkpt lat="47.549362" lon="7.855774">
        <ele>330.899198</ele>
        <time>2021-08-16T19:38:38.642Z</time>
      </trkpt>
      <trkpt lat="47.549566" lon="7.855225">
        <ele>330.666958</ele>
        <time>2021-08-16T19:38:47.282Z</time>
      </trkpt>
      <trkpt lat="47.549883" lon="7.854434">
        <ele>330.326056</ele>
        <time>2021-08-16T19:38:58.764Z</time>
      </trkpt>
      <trkpt lat="47.550221" lon="7.853833">
        <ele>329.802708</ele>
        <time>2021-08-16T19:39:05.170Z</time>
      </trkpt>
      <trkpt lat="47.551516" lon="7.851950">
        <ele>324.984370</ele>
        <time>2021-08-16T19:39:23.996Z</time>
      </trkpt>
      <trkpt lat="47.551660" lon="7.851725">
        <ele>324.309916</ele>
        <time>2021-08-16T19:39:26.031Z</time>
      </trkpt>
      <trkpt lat="47.551830" lon="7.851603">
        <ele>323.701161</ele>
        <time>2021-08-16T19:39:27.953Z</time>
      </trkpt>
      <trkpt lat="47.551925" lon="7.851845">
        <ele>323.092218</ele>
        <time>2021-08-16T19:39:29.802Z</time>
      </trkpt>
      <trkpt lat="47.552042" lon="7.852007">
        <ele>322.576135</ele>
        <time>2021-08-16T19:39:31.450Z</time>
      </trkpt>
      <trkpt lat="47.552097" lon="7.852063">
        <ele>322.361064</ele>
        <time>2021-08-16T19:39:32.081Z</time>
      </trkpt>
      <trkpt lat="47.552272" lon="7.852167">
        <ele>321.753403</ele>
        <time>2021-08-16T19:39:33.988Z</time>
      </trkpt>
      <trkpt lat="47.552449" lon="7.852231">
        <ele>321.166232</ele>
        <time>2021-08-16T19:39:35.789Z</time>
      </trkpt>
      <trkpt lat="47.552678" lon="7.851709">
        <ele>319.812054</ele>
        <time>2021-08-16T19:39:40.100Z</time>
      </trkpt>
      <trkpt lat="47.552876" lon="7.851300">
        <ele>319.054237</ele>
        <time>2021-08-16T19:39:43.653Z</time>
      </trkpt>
      <trkpt lat="47.553283" lon="7.850634">
        <ele>317.843216</ele>
        <time>2021-08-16T19:39:50.323Z</time>
      </trkpt>
      <trkpt lat="47.553344" lon="7.850525">
        <ele>317.652358</ele>
        <time>2021-08-16T19:39:51.404Z</time>
      </trkpt>
      <trkpt lat="47.553380" lon="7.850453">
        <ele>317.531579</ele>
        <time>2021-08-16T19:39:52.107Z</time>
      </trkpt>
      <trkpt lat="47.553537" lon="7.849904">
        <ele>316.727901</ele>
        <time>2021-08-16T19:39:56.620Z</time>
      </trkpt>
      <trkpt lat="47.553605" lon="7.849629">
        <ele>316.333138</ele>
        <time>2021-08-16T19:39:58.879Z</time>
      </trkpt>
      <trkpt lat="47.553725" lon="7.849291">
        <ele>315.873776</ele>
        <time>2021-08-16T19:40:01.830Z</time>
      </trkpt>
      <trkpt lat="47.553828" lon="7.849071">
        <ele>315.616590</ele>
        <time>2021-08-16T19:40:03.959Z</time>
      </trkpt>
      <trkpt lat="47.554055" lon="7.848586">
        <ele>315.049668</ele>
        <time>2021-08-16T19:40:08.734Z</time>
      </trkpt>
      <trkpt lat="47.554209" lon="7.848300">
        <ele>314.698235</ele>
        <time>2021-08-16T19:40:11.686Z</time>
      </trkpt>
      <trkpt lat="47.554269" lon="7.848188">
        <ele>314.560884</ele>
        <time>2021-08-16T19:40:12.781Z</time>
      </trkpt>
      <trkpt lat="47.554351" lon="7.848049">
        <ele>314.383555</ele>
        <time>2021-08-16T19:40:14.231Z</time>
      </trkpt>
      <trkpt lat="47.554465" lon="7.847858">
        <ele>314.138642</ele>
        <time>2021-08-16T19:40:16.254Z</time>
      </trkpt>
      <trkpt lat="47.554618" lon="7.847626">
        <ele>313.827073</ele>
        <time>2021-08-16T19:40:18.759Z</time>
      </trkpt>
      <trkpt lat="47.554759" lon="7.847388">
        <ele>313.522886</ele>
        <time>2021-08-16T19:40:21.179Z</time>
      </trkpt>
      <trkpt lat="47.554759" lon="7.847388">
        <ele>313.522886</ele>
        <time>2021-08-16T19:40:21.184Z</time>
      </trkpt>
      <trkpt lat="47.554892" lon="7.847148">
        <ele>313.253210</ele>
        <time>2021-08-16T19:40:23.628Z</time>
      </trkpt>
      <trkpt lat="47.554995" lon="7.846915">
        <ele>313.019432</ele>
        <time>2021-08-16T19:40:25.788Z</time>
      </trkpt>
      <trkpt lat="47.555068" lon="7.846672">
        <ele>312.796186</ele>
        <time>2021-08-16T19:40:27.860Z</time>
      </trkpt>
      <trkpt lat="47.555199" lon="7.846687">
        <ele>312.632783</ele>
        <time>2021-08-16T19:40:29.342Z</time>
      </trkpt>
      <trkpt lat="47.555727" lon="7.846715">
        <ele>311.975720</ele>
        <time>2021-08-16T19:40:35.798Z</time>
      </trkpt>
      <trkpt lat="47.555855" lon="7.846815">
        <ele>311.795763</ele>
        <time>2021-08-16T19:40:37.463Z</time>
      </trkpt>
      <trkpt lat="47.555892" lon="7.846856">
        <ele>311.738305</ele>
        <time>2021-08-16T19:40:38.021Z</time>
      </trkpt>
      <trkpt lat="47.555966" lon="7.846932">
        <ele>311.626331</ele>
        <time>2021-08-16T19:40:39.164Z</time>
      </trkpt>
      <trkpt lat="47.555990" lon="7.846965">
        <ele>311.585613</ele>
        <time>2021-08-16T19:40:39.599Z</time>
      </trkpt>
      <trkpt lat="47.556060" lon="7.846859">
        <ele>311.461140</ele>
        <time>2021-08-16T19:40:40.798Z</time>
      </trkpt>
      <trkpt lat="47.556636" lon="7.845928">
        <ele>310.776032</ele>
        <time>2021-08-16T19:40:51.173Z</time>
      </trkpt>
      <trkpt lat="47.557134" lon="7.845095">
        <ele>310.272594</ele>
        <time>2021-08-16T19:41:01.015Z</time>
      </trkpt>
      <trkpt lat="47.557287" lon="7.845292">
        <ele>310.136721</ele>
        <time>2021-08-16T19:41:03.887Z</time>
      </trkpt>
      <trkpt lat="47.557134" lon="7.845095">
        <ele>310.007318</ele>
        <time>2021-08-16T19:41:06.635Z</time>
      </trkpt>
      <trkpt lat="47.557282" lon="7.844832">
        <ele>309.979628</ele>
        <time>2021-08-16T19:41:09.854Z</time>
      </trkpt>
      <trkpt lat="47.557560" lon="7.844433">
        <ele>309.933254</ele>
        <time>2021-08-16T19:41:15.120Z</time>
      </trkpt>
      <trkpt lat="47.557715" lon="7.843940">
        <ele>309.889275</ele>
        <time>2021-08-16T19:41:20.251Z</time>
      </trkpt>
      <trkpt lat="47.557759" lon="7.843839">
        <ele>309.879555</ele>
        <time>2021-08-16T19:41:21.461Z</time>
      </trkpt>
      <trkpt lat="47.557846" lon="7.843756">
        <ele>309.867156</ele>
        <time>2021-08-16T19:41:22.860Z</time>
      </trkpt>
      <trkpt lat="47.557967" lon="7.843683">
        <ele>309.851502</ele>
        <time>2021-08-16T19:41:24.940Z</time>
      </trkpt>
      <trkpt lat="47.558136" lon="7.843582">
        <ele>309.829668</ele>
        <time>2021-08-16T19:41:27.636Z</time>
      </trkpt>
      <trkpt lat="47.558405" lon="7.843371">
        <ele>309.793225</ele>
        <time>2021-08-16T19:41:32.503Z</time>
      </trkpt>
      <trkpt lat="47.558471" lon="7.843365">
        <ele>309.803432</ele>
        <time>2021-08-16T19:41:33.354Z</time>
      </trkpt>
      <trkpt lat="47.558555" lon="7.843392">
        <ele>309.816699</ele>
        <time>2021-08-16T19:41:34.634Z</time>
      </trkpt>
      <trkpt lat="47.558679" lon="7.843560">
        <ele>309.842633</ele>
        <time>2021-08-16T19:41:37.568Z</time>
      </trkpt>
      <trkpt lat="47.558884" lon="7.843836">
        <ele>309.885386</ele>
        <time>2021-08-16T19:41:41.918Z</time>
      </trkpt>
      <trkpt lat="47.559060" lon="7.844197">
        <ele>309.931776</ele>
        <time>2021-08-16T19:41:46.755Z</time>
      </trkpt>
      <trkpt lat="47.559109" lon="7.844229">
        <ele>309.940041</ele>
        <time>2021-08-16T19:41:47.803Z</time>
      </trkpt>
      <trkpt lat="47.559158" lon="7.844233">
        <ele>309.947616</ele>
        <time>2021-08-16T19:41:48.752Z</time>
      </trkpt>
      <trkpt lat="47.559583" lon="7.843813">
        <ele>310.026467</ele>
        <time>2021-08-16T19:41:56.739Z</time>
      </trkpt>
      <trkpt lat="47.559847" lon="7.843604">
        <ele>310.061293</ele>
        <time>2021-08-16T19:42:01.142Z</time>
      </trkpt>
      <trkpt lat="47.560139" lon="7.843433">
        <ele>309.807971</ele>
        <time>2021-08-16T19:42:05.373Z</time>
      </trkpt>
      <trkpt lat="47.560209" lon="7.843393">
        <ele>309.747439</ele>
        <time>2021-08-16T19:42:06.324Z</time>
      </trkpt>
      <trkpt lat="47.560338" lon="7.843341">
        <ele>309.639577</ele>
        <time>2021-08-16T19:42:07.990Z</time>
      </trkpt>
      <trkpt lat="47.560430" lon="7.843341">
        <ele>309.565349</ele>
        <time>2021-08-16T19:42:09.535Z</time>
      </trkpt>
      <trkpt lat="47.560515" lon="7.843379">
        <ele>309.493716</ele>
        <time>2021-08-16T19:42:10.568Z</time>
      </trkpt>
      <trkpt lat="47.560812" lon="7.843560">
        <ele>309.234616</ele>
        <time>2021-08-16T19:42:14.629Z</time>
      </trkpt>
      <trkpt lat="47.560934" lon="7.843550">
        <ele>309.136033</ele>
        <time>2021-08-16T19:42:16.151Z</time>
      </trkpt>
      <trkpt lat="47.561038" lon="7.843502">
        <ele>309.048147</ele>
        <time>2021-08-16T19:42:17.440Z</time>
      </trkpt>
      <trkpt lat="47.561434" lon="7.843181">
        <ele>308.683968</ele>
        <time>2021-08-16T19:42:22.885Z</time>
      </trkpt>
      <trkpt lat="47.561498" lon="7.843130">
        <ele>308.625339</ele>
        <time>2021-08-16T19:42:23.649Z</time>
      </trkpt>
      <trkpt lat="47.562179" lon="7.842500">
        <ele>307.589803</ele>
        <time>2021-08-16T19:42:32.913Z</time>
      </trkpt>
      <trkpt lat="47.562300" lon="7.842326">
        <ele>307.371600</ele>
        <time>2021-08-16T19:42:34.865Z</time>
      </trkpt>
      <trkpt lat="47.562385" lon="7.842183">
        <ele>307.205176</ele>
        <time>2021-08-16T19:42:36.282Z</time>
      </trkpt>
      <trkpt lat="47.562440" lon="7.842083">
        <ele>307.092512</ele>
        <time>2021-08-16T19:42:37.398Z</time>
      </trkpt>
      <trkpt lat="47.562574" lon="7.841873">
        <ele>306.840108</ele>
        <time>2021-08-16T19:42:39.794Z</time>
      </trkpt>
      <trkpt lat="47.562904" lon="7.841632">
        <ele>306.363984</ele>
        <time>2021-08-16T19:42:44.288Z</time>
      </trkpt>
      <trkpt lat="47.562965" lon="7.841597">
        <ele>306.281960</ele>
        <time>2021-08-16T19:42:45.081Z</time>
      </trkpt>
      <trkpt lat="47.563016" lon="7.841568">
        <ele>306.226107</ele>
        <time>2021-08-16T19:42:45.782Z</time>
      </trkpt>
      <trkpt lat="47.563300" lon="7.841391">
        <ele>305.911088</ele>
        <time>2021-08-16T19:42:49.521Z</time>
      </trkpt>
      <trkpt lat="47.563483" lon="7.841269">
        <ele>305.705913</ele>
        <time>2021-08-16T19:42:52.077Z</time>
      </trkpt>
      <trkpt lat="47.563659" lon="7.841150">
        <ele>305.508112</ele>
        <time>2021-08-16T19:42:54.408Z</time>
      </trkpt>
      <trkpt lat="47.563805" lon="7.841046">
        <ele>305.342480</ele>
        <time>2021-08-16T19:42:56.468Z</time>
      </trkpt>
      <trkpt lat="47.563941" lon="7.840948">
        <ele>305.187856</ele>
        <time>2021-08-16T19:42:58.324Z</time>
      </trkpt>
      <trkpt lat="47.563986" lon="7.840916">
        <ele>305.136821</ele>
        <time>2021-08-16T19:42:58.945Z</time>
      </trkpt>
      <trkpt lat="47.564094" lon="7.840838">
        <ele>305.013978</ele>
        <time>2021-08-16T19:43:00.413Z</time>
      </trkpt>
      <trkpt lat="47.564463" lon="7.840580">
        <ele>304.596801</ele>
        <time>2021-08-16T19:43:05.406Z</time>
      </trkpt>
      <trkpt lat="47.564534" lon="7.840532">
        <ele>304.517008</ele>
        <time>2021-08-16T19:43:06.313Z</time>
      </trkpt>
      <trkpt lat="47.564558" lon="7.840516">
        <ele>304.490100</ele>
        <time>2021-08-16T19:43:06.637Z</time>
      </trkpt>
      <trkpt lat="47.564936" lon="7.840261">
        <ele>304.001859</ele>
        <time>2021-08-16T19:43:11.541Z</time>
      </trkpt>
      <trkpt lat="47.565057" lon="7.840213">
        <ele>303.852759</ele>
        <time>2021-08-16T19:43:12.954Z</time>
      </trkpt>
      <trkpt lat="47.565168" lon="7.840179">
        <ele>303.717840</ele>
        <time>2021-08-16T19:43:14.296Z</time>
      </trkpt>
      <trkpt lat="47.565233" lon="7.840176">
        <ele>303.640431</ele>
        <time>2021-08-16T19:43:15.032Z</time>
      </trkpt>
      <trkpt lat="47.565343" lon="7.840185">
        <ele>303.509295</ele>
        <time>2021-08-16T19:43:16.291Z</time>
      </trkpt>
      <trkpt lat="47.565906" lon="7.840272">
        <ele>302.835506</ele>
        <time>2021-08-16T19:43:22.957Z</time>
      </trkpt>
      <trkpt lat="47.566081" lon="7.840309">
        <ele>302.625090</ele>
        <time>2021-08-16T19:43:25.072Z</time>
      </trkpt>
      <trkpt lat="47.566142" lon="7.840322">
        <ele>302.551733</ele>
        <time>2021-08-16T19:43:25.807Z</time>
      </trkpt>
      <trkpt lat="47.566221" lon="7.840340">
        <ele>302.456592</ele>
        <time>2021-08-16T19:43:26.947Z</time>
      </trkpt>
      <trkpt lat="47.566350" lon="7.840350">
        <ele>302.305843</ele>
        <time>2021-08-16T19:43:28.560Z</time>
      </trkpt>
      <trkpt lat="47.566450" lon="7.840326">
        <ele>302.225733</ele>
        <time>2021-08-16T19:43:29.810Z</time>
      </trkpt>
      <trkpt lat="47.566515" lon="7.840312">
        <ele>302.173790</ele>
        <time>2021-08-16T19:43:30.607Z</time>
      </trkpt>
      <trkpt lat="47.566592" lon="7.840279">
        <ele>302.110404</ele>
        <time>2021-08-16T19:43:31.728Z</time>
      </trkpt>
      <trkpt lat="47.566826" lon="7.840179">
        <ele>301.917817</ele>
        <time>2021-08-16T19:43:34.675Z</time>
      </trkpt>
      <trkpt lat="47.567111" lon="7.839998">
        <ele>301.672618</ele>
        <time>2021-08-16T19:43:38.609Z</time>
      </trkpt>
      <trkpt lat="47.567406" lon="7.839778">
        <ele>301.411463</ele>
        <time>2021-08-16T19:43:42.770Z</time>
      </trkpt>
      <trkpt lat="47.567481" lon="7.839664">
        <ele>301.326506</ele>
        <time>2021-08-16T19:43:44.068Z</time>
      </trkpt>
      <trkpt lat="47.567510" lon="7.839548">
        <ele>301.260500</ele>
        <time>2021-08-16T19:43:45.230Z</time>
      </trkpt>
      <trkpt lat="47.567530" lon="7.839459">
        <ele>301.210447</ele>
        <time>2021-08-16T19:43:46.036Z</time>
      </trkpt>
      <trkpt lat="47.567564" lon="7.839283">
        <ele>301.112766</ele>
        <time>2021-08-16T19:43:47.606Z</time>
      </trkpt>
      <trkpt lat="47.567626" lon="7.839064">
        <ele>300.986044</ele>
        <time>2021-08-16T19:43:49.726Z</time>
      </trkpt>
      <trkpt lat="47.567634" lon="7.839037">
        <ele>300.970310</ele>
        <time>2021-08-16T19:43:49.954Z</time>
      </trkpt>
      <trkpt lat="47.567823" lon="7.838648">
        <ele>300.658974</ele>
        <time>2021-08-16T19:43:54.272Z</time>
      </trkpt>
      <trkpt lat="47.567846" lon="7.838609">
        <ele>300.622556</ele>
        <time>2021-08-16T19:43:54.694Z</time>
      </trkpt>
      <trkpt lat="47.567936" lon="7.838380">
        <ele>300.436229</ele>
        <time>2021-08-16T19:43:57.058Z</time>
      </trkpt>
      <trkpt lat="47.568042" lon="7.838436">
        <ele>300.318966</ele>
        <time>2021-08-16T19:43:59.148Z</time>
      </trkpt>
      <trkpt lat="47.568160" lon="7.838415">
        <ele>300.195123</ele>
        <time>2021-08-16T19:44:01.292Z</time>
      </trkpt>
      <trkpt lat="47.568420" lon="7.838300">
        <ele>299.912387</ele>
        <time>2021-08-16T19:44:06.083Z</time>
      </trkpt>
      <trkpt lat="47.568988" lon="7.838054">
        <ele>299.295759</ele>
        <time>2021-08-16T19:44:15.906Z</time>
      </trkpt>
      <trkpt lat="47.569310" lon="7.837922">
        <ele>298.925084</ele>
        <time>2021-08-16T19:44:21.414Z</time>
      </trkpt>
      <trkpt lat="47.569522" lon="7.837844">
        <ele>298.621526</ele>
        <time>2021-08-16T19:44:25.006Z</time>
      </trkpt>
      <trkpt lat="47.569665" lon="7.837789">
        <ele>298.416216</ele>
        <time>2021-08-16T19:44:27.444Z</time>
      </trkpt>
      <trkpt lat="47.569814" lon="7.837733">
        <ele>298.202597</ele>
        <time>2021-08-16T19:44:29.980Z</time>
      </trkpt>
      <trkpt lat="47.569907" lon="7.837696">
        <ele>298.068779</ele>
        <time>2021-08-16T19:44:31.556Z</time>
      </trkpt>
      <trkpt lat="47.570038" lon="7.837643">
        <ele>297.880068</ele>
        <time>2021-08-16T19:44:33.808Z</time>
      </trkpt>
      <trkpt lat="47.570298" lon="7.837528">
        <ele>297.503000</ele>
        <time>2021-08-16T19:44:38.260Z</time>
      </trkpt>
      <trkpt lat="47.570872" lon="7.837307">
        <ele>296.678837</ele>
        <time>2021-08-16T19:44:48.124Z</time>
      </trkpt>
      <trkpt lat="47.570985" lon="7.837265">
        <ele>296.516938</ele>
        <time>2021-08-16T19:44:50.051Z</time>
      </trkpt>
      <trkpt lat="47.571254" lon="7.837161">
        <ele>296.320895</ele>
        <time>2021-08-16T19:44:54.764Z</time>
      </trkpt>
      <trkpt lat="47.571771" lon="7.836971">
        <ele>295.946530</ele>
        <time>2021-08-16T19:45:04.271Z</time>
      </trkpt>
      <trkpt lat="47.571871" lon="7.836932">
        <ele>295.873855</ele>
        <time>2021-08-16T19:45:06.207Z</time>
      </trkpt>
      <trkpt lat="47.572139" lon="7.836834">
        <ele>295.679849</ele>
        <time>2021-08-16T19:45:11.403Z</time>
      </trkpt>
      <trkpt lat="47.572296" lon="7.836777">
        <ele>295.566243</ele>
        <time>2021-08-16T19:45:14.482Z</time>
      </trkpt>
      <trkpt lat="47.572760" lon="7.836606">
        <ele>295.238938</ele>
        <time>2021-08-16T19:45:23.500Z</time>
      </trkpt>
      <trkpt lat="47.573348" lon="7.836386">
        <ele>294.987770</ele>
        <time>2021-08-16T19:45:34.655Z</time>
      </trkpt>
      <trkpt lat="47.573815" lon="7.836215">
        <ele>294.788541</ele>
        <time>2021-08-16T19:45:43.467Z</time>
      </trkpt>
      <trkpt lat="47.574158" lon="7.836106">
        <ele>294.643254</ele>
        <time>2021-08-16T19:45:50.039Z</time>
      </trkpt>
      <trkpt lat="47.574568" lon="7.836025">
        <ele>294.542495</ele>
        <time>2021-08-16T19:45:55.730Z</time>
      </trkpt>
      <trkpt lat="47.575033" lon="7.835907">
        <ele>294.745605</ele>
        <time>2021-08-16T19:46:02.735Z</time>
      </trkpt>
      <trkpt lat="47.575959" lon="7.835718">
        <ele>295.148041</ele>
        <time>2021-08-16T19:46:18.350Z</time>
      </trkpt>
      <trkpt lat="47.576219" lon="7.835650">
        <ele>295.261708</ele>
        <time>2021-08-16T19:46:23.508Z</time>
      </trkpt>
      <trkpt lat="47.579073" lon="7.834987">
        <ele>298.489069</ele>
        <time>2021-08-16T19:47:22.342Z</time>
      </trkpt>
      <trkpt lat="47.580667" lon="7.834627">
        <ele>298.464071</ele>
        <time>2021-08-16T19:47:46.190Z</time>
      </trkpt>
      <trkpt lat="47.580816" lon="7.834599">
        <ele>298.354363</ele>
        <time>2021-08-16T19:47:48.287Z</time>
      </trkpt>
      <trkpt lat="47.582828" lon="7.834117">
        <ele>295.182191</ele>
        <time>2021-08-16T19:48:11.334Z</time>
      </trkpt>
      <trkpt lat="47.583163" lon="7.833942">
        <ele>294.444003</ele>
        <time>2021-08-16T19:48:15.163Z</time>
      </trkpt>
      <trkpt lat="47.583327" lon="7.833750">
        <ele>293.979330</ele>
        <time>2021-08-16T19:48:17.326Z</time>
      </trkpt>
      <trkpt lat="47.583401" lon="7.833658">
        <ele>293.576287</ele>
        <time>2021-08-16T19:48:18.258Z</time>
      </trkpt>
      <trkpt lat="47.583523" lon="7.833509">
        <ele>292.916624</ele>
        <time>2021-08-16T19:48:19.938Z</time>
      </trkpt>
      <trkpt lat="47.583696" lon="7.833171">
        <ele>291.722245</ele>
        <time>2021-08-16T19:48:22.780Z</time>
      </trkpt>
      <trkpt lat="47.583849" lon="7.832883">
        <ele>290.690277</ele>
        <time>2021-08-16T19:48:25.105Z</time>
      </trkpt>
      <trkpt lat="47.584029" lon="7.832543">
        <ele>289.473595</ele>
        <time>2021-08-16T19:48:27.844Z</time>
      </trkpt>
      <trkpt lat="47.584156" lon="7.832334">
        <ele>288.681737</ele>
        <time>2021-08-16T19:48:29.628Z</time>
      </trkpt>
      <trkpt lat="47.584367" lon="7.832247">
        <ele>287.767742</ele>
        <time>2021-08-16T19:48:31.687Z</time>
      </trkpt>
      <trkpt lat="47.584717" lon="7.832264">
        <ele>286.363209</ele>
        <time>2021-08-16T19:48:35.077Z</time>
      </trkpt>
      <trkpt lat="47.585027" lon="7.832425">
        <ele>285.335815</ele>
        <time>2021-08-16T19:48:38.341Z</time>
      </trkpt>
      <trkpt lat="47.585195" lon="7.832588">
        <ele>284.707823</ele>
        <time>2021-08-16T19:48:40.399Z</time>
      </trkpt>
      <trkpt lat="47.585247" lon="7.832651">
        <ele>284.497777</ele>
        <time>2021-08-16T19:48:41.047Z</time>
      </trkpt>
      <trkpt lat="47.585278" lon="7.832688">
        <ele>284.373299</ele>
        <time>2021-08-16T19:48:41.430Z</time>
      </trkpt>
      <trkpt lat="47.586276" lon="7.833601">
        <ele>280.884837</ele>
        <time>2021-08-16T19:48:53.457Z</time>
      </trkpt>
      <trkpt lat="47.586496" lon="7.833050">
        <ele>280.732440</ele>
        <time>2021-08-16T19:48:58.709Z</time>
      </trkpt>
      <trkpt lat="47.587848" lon="7.834235">
        <ele>280.820793</ele>
        <time>2021-08-16T19:49:23.061Z</time>
      </trkpt>
      <trkpt lat="47.587628" lon="7.835942">
        <ele>283.212357</ele>
        <time>2021-08-16T19:49:50.944Z</time>
      </trkpt>
      <trkpt lat="47.587903" lon="7.836007">
        <ele>283.780538</ele>
        <time>2021-08-16T19:49:58.567Z</time>
      </trkpt>
      <trkpt lat="47.588272" lon="7.836090">
        <ele>284.696171</ele>
        <time>2021-08-16T19:50:09.049Z</time>
      </trkpt>
      <trkpt lat="47.589181" lon="7.835983">
        <ele>287.035245</ele>
        <time>2021-08-16T19:50:34.457Z</time>
      </trkpt>
      <trkpt lat="47.589180" lon="7.835807">
        <ele>287.339746</ele>
        <time>2021-08-16T19:50:37.621Z</time>
      </trkpt>
      <trkpt lat="47.589697" lon="7.830187">
        <ele>292.928080</ele>
        <time>2021-08-16T19:51:52.134Z</time>
      </trkpt>
      <trkpt lat="47.589774" lon="7.829352">
        <ele>294.000728</ele>
        <time>2021-08-16T19:52:06.198Z</time>
      </trkpt>
      <trkpt lat="47.589796" lon="7.829217">
        <ele>294.210518</ele>
        <time>2021-08-16T19:52:08.551Z</time>
      </trkpt>
      <trkpt lat="47.589830" lon="7.829093">
        <ele>294.412712</ele>
        <time>2021-08-16T19:52:10.703Z</time>
      </trkpt>
      <trkpt lat="47.589980" lon="7.829068">
        <ele>294.750782</ele>
        <time>2021-08-16T19:52:14.603Z</time>
      </trkpt>
      <trkpt lat="47.590199" lon="7.829063">
        <ele>295.241335</ele>
        <time>2021-08-16T19:52:19.917Z</time>
      </trkpt>
      <trkpt lat="47.590942" lon="7.829014">
        <ele>296.907078</ele>
        <time>2021-08-16T19:52:37.767Z</time>
      </trkpt>
      <trkpt lat="47.590997" lon="7.828435">
        <ele>297.475827</ele>
        <time>2021-08-16T19:52:46.945Z</time>
      </trkpt>
      <trkpt lat="47.591088" lon="7.827507">
        <ele>297.969446</ele>
        <time>2021-08-16T19:53:01.045Z</time>
      </trkpt>
      <trkpt lat="47.591121" lon="7.827210">
        <ele>298.127889</ele>
        <time>2021-08-16T19:53:04.573Z</time>
      </trkpt>
      <trkpt lat="47.591206" lon="7.826325">
        <ele>298.598436</ele>
        <time>2021-08-16T19:53:13.054Z</time>
      </trkpt>
      <trkpt lat="47.591232" lon="7.825464">
        <ele>298.401295</ele>
        <time>2021-08-16T19:53:20.179Z</time>
      </trkpt>
      <trkpt lat="47.591145" lon="7.824128">
        <ele>297.757969</ele>
        <time>2021-08-16T19:53:31.208Z</time>
      </trkpt>
      <trkpt lat="47.591059" lon="7.823571">
        <ele>297.484090</ele>
        <time>2021-08-16T19:53:36.046Z</time>
      </trkpt>
      <trkpt lat="47.591023" lon="7.823436">
        <ele>297.528487</ele>
        <time>2021-08-16T19:53:37.286Z</time>
      </trkpt>
      <trkpt lat="47.590993" lon="7.823343">
        <ele>297.780657</ele>
        <time>2021-08-16T19:53:38.194Z</time>
      </trkpt>
      <trkpt lat="47.590966" lon="7.823273">
        <ele>297.977909</ele>
        <time>2021-08-16T19:53:38.885Z</time>
      </trkpt>
      <trkpt lat="47.590938" lon="7.823202">
        <ele>298.179094</ele>
        <time>2021-08-16T19:53:39.622Z</time>
      </trkpt>
      <trkpt lat="47.590876" lon="7.823017">
        <ele>298.684415</ele>
        <time>2021-08-16T19:53:41.497Z</time>
      </trkpt>
      <trkpt lat="47.590820" lon="7.822776">
        <ele>299.307933</ele>
        <time>2021-08-16T19:53:46.347Z</time>
      </trkpt>
      <trkpt lat="47.590742" lon="7.822297">
        <ele>300.513285</ele>
        <time>2021-08-16T19:53:53.614Z</time>
      </trkpt>
      <trkpt lat="47.590684" lon="7.821940">
        <ele>301.411525</ele>
        <time>2021-08-16T19:54:01.074Z</time>
      </trkpt>
      <trkpt lat="47.590673" lon="7.821142">
        <ele>303.363926</ele>
        <time>2021-08-16T19:54:22.320Z</time>
      </trkpt>
      <trkpt lat="47.590665" lon="7.821069">
        <ele>303.544833</ele>
        <time>2021-08-16T19:54:24.218Z</time>
      </trkpt>
      <trkpt lat="47.590651" lon="7.821006">
        <ele>303.707088</ele>
        <time>2021-08-16T19:54:25.785Z</time>
      </trkpt>
      <trkpt lat="47.590626" lon="7.820946">
        <ele>303.879606</ele>
        <time>2021-08-16T19:54:27.452Z</time>
      </trkpt>
      <trkpt lat="47.590586" lon="7.820883">
        <ele>304.349917</ele>
        <time>2021-08-16T19:54:29.442Z</time>
      </trkpt>
      <trkpt lat="47.590612" lon="7.820777">
        <ele>305.156580</ele>
        <time>2021-08-16T19:54:32.472Z</time>
      </trkpt>
      <trkpt lat="47.590614" lon="7.820708">
        <ele>305.650505</ele>
        <time>2021-08-16T19:54:37.098Z</time>
      </trkpt>
      <trkpt lat="47.590554" lon="7.820052">
        <ele>310.384985</ele>
        <time>2021-08-16T19:54:59.924Z</time>
      </trkpt>
      <trkpt lat="47.590624" lon="7.819732">
        <ele>312.790910</ele>
        <time>2021-08-16T19:55:11.327Z</time>
      </trkpt>
      <trkpt lat="47.591075" lon="7.819121">
        <ele>319.269058</ele>
        <time>2021-08-16T19:55:51.455Z</time>
      </trkpt>
      <trkpt lat="47.591246" lon="7.818566">
        <ele>323.622060</ele>
        <time>2021-08-16T19:56:19.730Z</time>
      </trkpt>
      <trkpt lat="47.591346" lon="7.817303">
        <ele>332.554314</ele>
        <time>2021-08-16T19:57:11.993Z</time>
      </trkpt>
      <trkpt lat="47.591551" lon="7.815659">
        <ele>343.481891</ele>
        <time>2021-08-16T19:58:09.816Z</time>
      </trkpt>
      <trkpt lat="47.591546" lon="7.815266">
        <ele>345.354418</ele>
        <time>2021-08-16T19:58:21.148Z</time>
      </trkpt>
      <trkpt lat="47.591438" lon="7.814076">
        <ele>351.074511</ele>
        <time>2021-08-16T19:58:55.545Z</time>
      </trkpt>
      <trkpt lat="47.591515" lon="7.812852">
        <ele>355.794372</ele>
        <time>2021-08-16T19:59:27.502Z</time>
      </trkpt>
      <trkpt lat="47.591515" lon="7.812852">
        <ele>355.794372</ele>
        <time>2021-08-16T19:59:27.855Z</time>
      </trkpt>
      <trkpt lat="47.591613" lon="7.812338">
        <ele>357.164839</ele>
        <time>2021-08-16T19:59:39.958Z</time>
      </trkpt>
      <trkpt lat="47.591696" lon="7.811913">
        <ele>358.300066</ele>
        <time>2021-08-16T19:59:48.156Z</time>
      </trkpt>
      <trkpt lat="47.591858" lon="7.811405">
        <ele>359.741813</ele>
        <time>2021-08-16T19:59:58.439Z</time>
      </trkpt>
      <trkpt lat="47.591916" lon="7.811092">
        <ele>360.574640</ele>
        <time>2021-08-16T20:00:04.443Z</time>
      </trkpt>
      <trkpt lat="47.591991" lon="7.810188">
        <ele>361.035524</ele>
        <time>2021-08-16T20:00:16.823Z</time>
      </trkpt>
      <trkpt lat="47.591999" lon="7.810096">
        <ele>360.994623</ele>
        <time>2021-08-16T20:00:17.616Z</time>
      </trkpt>
      <trkpt lat="47.592074" lon="7.809968">
        <ele>360.919857</ele>
        <time>2021-08-16T20:00:21.844Z</time>
      </trkpt>
      <trkpt lat="47.592137" lon="7.809798">
        <ele>360.834327</ele>
        <time>2021-08-16T20:00:26.632Z</time>
      </trkpt>
      <trkpt lat="47.592137" lon="7.809798">
        <ele>360.834327</ele>
        <time>2021-08-16T20:00:26.707Z</time>
      </trkpt>
      <trkpt lat="47.592137" lon="7.809798">
        <ele>360.834327</ele>
        <time>2021-08-16T20:00:26.781Z</time>
      </trkpt>
      <trkpt lat="47.592130" lon="7.809663">
        <ele>360.774626</ele>
        <time>2021-08-16T20:00:29.737Z</time>
      </trkpt>
      <trkpt lat="47.592109" lon="7.809542">
        <ele>360.719535</ele>
        <time>2021-08-16T20:00:32.865Z</time>
      </trkpt>
      <trkpt lat="47.592047" lon="7.809389">
        <ele>360.640830</ele>
        <time>2021-08-16T20:00:36.896Z</time>
      </trkpt>
      <trkpt lat="47.592088" lon="7.808946">
        <ele>360.443667</ele>
        <time>2021-08-16T20:00:40.285Z</time>
      </trkpt>
      <trkpt lat="47.592168" lon="7.807575">
        <ele>359.387871</ele>
        <time>2021-08-16T20:00:50.126Z</time>
      </trkpt>
      <trkpt lat="47.592169" lon="7.806682">
        <ele>358.400391</ele>
        <time>2021-08-16T20:00:56.816Z</time>
      </trkpt>
      <trkpt lat="47.592150" lon="7.806138">
        <ele>357.798030</ele>
        <time>2021-08-16T20:01:01.118Z</time>
      </trkpt>
      <trkpt lat="47.592165" lon="7.805229">
        <ele>357.179113</ele>
        <time>2021-08-16T20:01:08.683Z</time>
      </trkpt>
      <trkpt lat="47.591909" lon="7.803595">
        <ele>357.148990</ele>
        <time>2021-08-16T20:01:25.690Z</time>
      </trkpt>
      <trkpt lat="47.591811" lon="7.803249">
        <ele>357.142251</ele>
        <time>2021-08-16T20:01:29.926Z</time>
      </trkpt>
      <trkpt lat="47.591721" lon="7.802939">
        <ele>357.177034</ele>
        <time>2021-08-16T20:01:34.362Z</time>
      </trkpt>
      <trkpt lat="47.591292" lon="7.802648">
        <ele>357.527837</ele>
        <time>2021-08-16T20:01:42.272Z</time>
      </trkpt>
      <trkpt lat="47.591109" lon="7.802361">
        <ele>357.725912</ele>
        <time>2021-08-16T20:01:47.174Z</time>
      </trkpt>
      <trkpt lat="47.590927" lon="7.801871">
        <ele>358.006450</ele>
        <time>2021-08-16T20:01:54.013Z</time>
      </trkpt>
      <trkpt lat="47.590854" lon="7.801694">
        <ele>358.110499</ele>
        <time>2021-08-16T20:01:56.717Z</time>
      </trkpt>
      <trkpt lat="47.590431" lon="7.801257">
        <ele>358.510569</ele>
        <time>2021-08-16T20:02:05.581Z</time>
      </trkpt>
      <trkpt lat="47.590019" lon="7.800882">
        <ele>359.189820</ele>
        <time>2021-08-16T20:02:14.136Z</time>
      </trkpt>
      <trkpt lat="47.589959" lon="7.800811">
        <ele>359.297680</ele>
        <time>2021-08-16T20:02:16.083Z</time>
      </trkpt>
      <trkpt lat="47.589545" lon="7.800321">
        <ele>360.041974</ele>
        <time>2021-08-16T20:02:27.119Z</time>
      </trkpt>
      <trkpt lat="47.589168" lon="7.799966">
        <ele>360.669477</ele>
        <time>2021-08-16T20:02:36.723Z</time>
      </trkpt>
      <trkpt lat="47.588999" lon="7.799875">
        <ele>360.922105</ele>
        <time>2021-08-16T20:02:40.894Z</time>
      </trkpt>
      <trkpt lat="47.589168" lon="7.799966">
        <ele>361.228340</ele>
        <time>2021-08-16T20:02:44.502Z</time>
      </trkpt>
      <trkpt lat="47.589236" lon="7.799724">
        <ele>361.553998</ele>
        <time>2021-08-16T20:02:49.822Z</time>
      </trkpt>
      <trkpt lat="47.589230" lon="7.799281">
        <ele>362.104402</ele>
        <time>2021-08-16T20:02:58.120Z</time>
      </trkpt>
      <trkpt lat="47.589167" lon="7.798816">
        <ele>362.693563</ele>
        <time>2021-08-16T20:03:07.027Z</time>
      </trkpt>
      <trkpt lat="47.589153" lon="7.798651">
        <ele>362.900141</ele>
        <time>2021-08-16T20:03:10.281Z</time>
      </trkpt>
      <trkpt lat="47.589272" lon="7.798569">
        <ele>363.141830</ele>
        <time>2021-08-16T20:03:13.196Z</time>
      </trkpt>
      <trkpt lat="47.589486" lon="7.798387">
        <ele>363.596215</ele>
        <time>2021-08-16T20:03:18.631Z</time>
      </trkpt>
      <trkpt lat="47.589692" lon="7.798248">
        <ele>364.013069</ele>
        <time>2021-08-16T20:03:23.639Z</time>
      </trkpt>
      <trkpt lat="47.589924" lon="7.798072">
        <ele>364.362734</ele>
        <time>2021-08-16T20:03:29.813Z</time>
      </trkpt>
      <trkpt lat="47.590924" lon="7.797504">
        <ele>364.891087</ele>
        <time>2021-08-16T20:03:50.465Z</time>
      </trkpt>
      <trkpt lat="47.591349" lon="7.797193">
        <ele>365.124924</ele>
        <time>2021-08-16T20:03:57.180Z</time>
      </trkpt>
      <trkpt lat="47.591728" lon="7.796915">
        <ele>364.253485</ele>
        <time>2021-08-16T20:04:02.108Z</time>
      </trkpt>
      <trkpt lat="47.592114" lon="7.796545">
        <ele>362.611444</ele>
        <time>2021-08-16T20:04:06.964Z</time>
      </trkpt>
      <trkpt lat="47.592429" lon="7.796406">
        <ele>361.437327</ele>
        <time>2021-08-16T20:04:10.291Z</time>
      </trkpt>
      <trkpt lat="47.592802" lon="7.796368">
        <ele>360.101638</ele>
        <time>2021-08-16T20:04:13.881Z</time>
      </trkpt>
      <trkpt lat="47.593608" lon="7.796793">
        <ele>355.613604</ele>
        <time>2021-08-16T20:04:21.667Z</time>
      </trkpt>
      <trkpt lat="47.594060" lon="7.796856">
        <ele>352.650215</ele>
        <time>2021-08-16T20:04:25.753Z</time>
      </trkpt>
      <trkpt lat="47.594601" lon="7.796746">
        <ele>349.085849</ele>
        <time>2021-08-16T20:04:30.660Z</time>
      </trkpt>
      <trkpt lat="47.594592" lon="7.795962">
        <ele>346.092012</ele>
        <time>2021-08-16T20:04:35.489Z</time>
      </trkpt>
      <trkpt lat="47.594615" lon="7.795353">
        <ele>344.283638</ele>
        <time>2021-08-16T20:04:39.288Z</time>
      </trkpt>
      <trkpt lat="47.594694" lon="7.794211">
        <ele>340.880106</ele>
        <time>2021-08-16T20:04:46.730Z</time>
      </trkpt>
      <trkpt lat="47.594650" lon="7.793807">
        <ele>339.666821</ele>
        <time>2021-08-16T20:04:49.635Z</time>
      </trkpt>
      <trkpt lat="47.594491" lon="7.793515">
        <ele>339.122734</ele>
        <time>2021-08-16T20:04:52.492Z</time>
      </trkpt>
      <trkpt lat="47.594337" lon="7.793337">
        <ele>339.113541</ele>
        <time>2021-08-16T20:04:54.814Z</time>
      </trkpt>
      <trkpt lat="47.594118" lon="7.793102">
        <ele>339.100812</ele>
        <time>2021-08-16T20:04:58.527Z</time>
      </trkpt>
      <trkpt lat="47.594068" lon="7.792892">
        <ele>339.093741</ele>
        <time>2021-08-16T20:05:00.634Z</time>
      </trkpt>
      <trkpt lat="47.594082" lon="7.792808">
        <ele>339.090993</ele>
        <time>2021-08-16T20:05:01.648Z</time>
      </trkpt>
      <trkpt lat="47.594154" lon="7.792816">
        <ele>339.087594</ele>
        <time>2021-08-16T20:05:02.766Z</time>
      </trkpt>
      <trkpt lat="47.595133" lon="7.792800">
        <ele>339.145561</ele>
        <time>2021-08-16T20:05:20.290Z</time>
      </trkpt>
      <trkpt lat="47.595245" lon="7.792802">
        <ele>339.343084</ele>
        <time>2021-08-16T20:05:22.649Z</time>
      </trkpt>
      <trkpt lat="47.595750" lon="7.792802">
        <ele>340.233639</ele>
        <time>2021-08-16T20:05:33.658Z</time>
      </trkpt>
      <trkpt lat="47.596504" lon="7.792669">
        <ele>341.572672</ele>
        <time>2021-08-16T20:05:50.749Z</time>
      </trkpt>
      <trkpt lat="47.597646" lon="7.792396">
        <ele>344.216039</ele>
        <time>2021-08-16T20:06:18.000Z</time>
      </trkpt>
      <trkpt lat="47.597848" lon="7.792115">
        <ele>344.915524</ele>
        <time>2021-08-16T20:06:25.094Z</time>
      </trkpt>
      <trkpt lat="47.598017" lon="7.791913">
        <ele>345.463720</ele>
        <time>2021-08-16T20:06:30.648Z</time>
      </trkpt>
      <trkpt lat="47.598252" lon="7.791731">
        <ele>346.133283</ele>
        <time>2021-08-16T20:06:37.803Z</time>
      </trkpt>
      <trkpt lat="47.598592" lon="7.791580">
        <ele>347.006503</ele>
        <time>2021-08-16T20:06:47.364Z</time>
      </trkpt>
      <trkpt lat="47.599667" lon="7.791105">
        <ele>349.597511</ele>
        <time>2021-08-16T20:07:15.851Z</time>
      </trkpt>
      <trkpt lat="47.600151" lon="7.790895">
        <ele>350.762364</ele>
        <time>2021-08-16T20:07:26.688Z</time>
      </trkpt>
      <trkpt lat="47.600211" lon="7.790869">
        <ele>350.906752</ele>
        <time>2021-08-16T20:07:27.987Z</time>
      </trkpt>
      <trkpt lat="47.600304" lon="7.790832">
        <ele>351.018128</ele>
        <time>2021-08-16T20:07:29.981Z</time>
      </trkpt>
      <trkpt lat="47.601073" lon="7.790573">
        <ele>351.902798</ele>
        <time>2021-08-16T20:07:45.436Z</time>
      </trkpt>
      <trkpt lat="47.601359" lon="7.790478">
        <ele>352.231597</ele>
        <time>2021-08-16T20:07:50.851Z</time>
      </trkpt>
      <trkpt lat="47.601768" lon="7.790511">
        <ele>352.691112</ele>
        <time>2021-08-16T20:07:58.315Z</time>
      </trkpt>
      <trkpt lat="47.601954" lon="7.790533">
        <ele>352.900439</ele>
        <time>2021-08-16T20:08:01.640Z</time>
      </trkpt>
      <trkpt lat="47.602292" lon="7.790564">
        <ele>353.312383</ele>
        <time>2021-08-16T20:08:07.847Z</time>
      </trkpt>
      <trkpt lat="47.603218" lon="7.790665">
        <ele>354.449558</ele>
        <time>2021-08-16T20:08:25.507Z</time>
      </trkpt>
      <trkpt lat="47.603379" lon="7.790683">
        <ele>354.647301</ele>
        <time>2021-08-16T20:08:28.905Z</time>
      </trkpt>
      <trkpt lat="47.603500" lon="7.790696">
        <ele>354.795883</ele>
        <time>2021-08-16T20:08:31.587Z</time>
      </trkpt>
      <trkpt lat="47.604020" lon="7.790669">
        <ele>355.743491</ele>
        <time>2021-08-16T20:08:42.958Z</time>
      </trkpt>
      <trkpt lat="47.604312" lon="7.790667">
        <ele>356.472100</ele>
        <time>2021-08-16T20:08:49.460Z</time>
      </trkpt>
      <trkpt lat="47.604673" lon="7.790747">
        <ele>357.382871</ele>
        <time>2021-08-16T20:08:57.912Z</time>
      </trkpt>
      <trkpt lat="47.604776" lon="7.790738">
        <ele>357.640323</ele>
        <time>2021-08-16T20:09:00.457Z</time>
      </trkpt>
      <trkpt lat="47.604861" lon="7.790465">
        <ele>358.146217</ele>
        <time>2021-08-16T20:09:05.573Z</time>
      </trkpt>
      <trkpt lat="47.604899" lon="7.790156">
        <ele>358.674645</ele>
        <time>2021-08-16T20:09:11.110Z</time>
      </trkpt>
      <trkpt lat="47.604933" lon="7.789879">
        <ele>359.148321</ele>
        <time>2021-08-16T20:09:16.331Z</time>
      </trkpt>
      <trkpt lat="47.605245" lon="7.789093">
        <ele>361.256126</ele>
        <time>2021-08-16T20:09:34.395Z</time>
      </trkpt>
      <trkpt lat="47.606058" lon="7.787870">
        <ele>365.707037</ele>
        <time>2021-08-16T20:10:11.777Z</time>
      </trkpt>
      <trkpt lat="47.606236" lon="7.787573">
        <ele>366.643699</ele>
        <time>2021-08-16T20:10:19.225Z</time>
      </trkpt>
      <trkpt lat="47.606482" lon="7.786756">
        <ele>367.890286</ele>
        <time>2021-08-16T20:10:35.116Z</time>
      </trkpt>
      <trkpt lat="47.606894" lon="7.785802">
        <ele>369.468667</ele>
        <time>2021-08-16T20:10:51.342Z</time>
      </trkpt>
      <trkpt lat="47.607090" lon="7.785536">
        <ele>370.017634</ele>
        <time>2021-08-16T20:10:56.784Z</time>
      </trkpt>
      <trkpt lat="47.607244" lon="7.785405">
        <ele>370.361699</ele>
        <time>2021-08-16T20:10:59.958Z</time>
      </trkpt>
      <trkpt lat="47.607357" lon="7.785276">
        <ele>370.605665</ele>
        <time>2021-08-16T20:11:02.914Z</time>
      </trkpt>
      <trkpt lat="47.607784" lon="7.784501">
        <ele>371.760169</ele>
        <time>2021-08-16T20:11:14.457Z</time>
      </trkpt>
      <trkpt lat="47.607811" lon="7.784422">
        <ele>371.862335</ele>
        <time>2021-08-16T20:11:15.766Z</time>
      </trkpt>
      <trkpt lat="47.608000" lon="7.783873">
        <ele>372.573383</ele>
        <time>2021-08-16T20:11:24.515Z</time>
      </trkpt>
      <trkpt lat="47.608067" lon="7.783679">
        <ele>372.824811</ele>
        <time>2021-08-16T20:11:28.171Z</time>
      </trkpt>
      <trkpt lat="47.608293" lon="7.782840">
        <ele>374.932002</ele>
        <time>2021-08-16T20:11:45.544Z</time>
      </trkpt>
      <trkpt lat="47.608319" lon="7.782746">
        <ele>375.281379</ele>
        <time>2021-08-16T20:11:47.630Z</time>
      </trkpt>
      <trkpt lat="47.608381" lon="7.782406">
        <ele>376.492529</ele>
        <time>2021-08-16T20:11:54.908Z</time>
      </trkpt>
      <trkpt lat="47.608448" lon="7.782041">
        <ele>377.793322</ele>
        <time>2021-08-16T20:12:03.356Z</time>
      </trkpt>
      <trkpt lat="47.608437" lon="7.781938">
        <ele>378.151917</ele>
        <time>2021-08-16T20:12:05.623Z</time>
      </trkpt>
      <trkpt lat="47.608309" lon="7.781587">
        <ele>379.524132</ele>
        <time>2021-08-16T20:12:15.686Z</time>
      </trkpt>
      <trkpt lat="47.608295" lon="7.781364">
        <ele>380.294267</ele>
        <time>2021-08-16T20:12:21.513Z</time>
      </trkpt>
      <trkpt lat="47.608399" lon="7.780950">
        <ele>381.813477</ele>
        <time>2021-08-16T20:12:33.138Z</time>
      </trkpt>
      <trkpt lat="47.608427" lon="7.780858">
        <ele>382.160573</ele>
        <time>2021-08-16T20:12:36.521Z</time>
      </trkpt>
      <trkpt lat="47.608573" lon="7.780374">
        <ele>384.796486</ele>
        <time>2021-08-16T20:12:52.795Z</time>
      </trkpt>
      <trkpt lat="47.608894" lon="7.779407">
        <ele>390.536860</ele>
        <time>2021-08-16T20:13:27.440Z</time>
      </trkpt>
      <trkpt lat="47.609368" lon="7.778574">
        <ele>396.342076</ele>
        <time>2021-08-16T20:14:02.360Z</time>
      </trkpt>
      <trkpt lat="47.610133" lon="7.777501">
        <ele>403.969272</ele>
        <time>2021-08-16T20:14:51.237Z</time>
      </trkpt>
      <trkpt lat="47.610341" lon="7.777059">
        <ele>406.590754</ele>
        <time>2021-08-16T20:15:06.985Z</time>
      </trkpt>
      <trkpt lat="47.610448" lon="7.776605">
        <ele>408.929732</ele>
        <time>2021-08-16T20:15:20.187Z</time>
      </trkpt>
      <trkpt lat="47.610502" lon="7.776042">
        <ele>410.838686</ele>
        <time>2021-08-16T20:15:34.782Z</time>
      </trkpt>
      <trkpt lat="47.610473" lon="7.775477">
        <ele>412.419296</ele>
        <time>2021-08-16T20:15:48.270Z</time>
      </trkpt>
      <trkpt lat="47.610312" lon="7.774653">
        <ele>414.812408</ele>
        <time>2021-08-16T20:16:05.379Z</time>
      </trkpt>
      <trkpt lat="47.610130" lon="7.773478">
        <ele>417.759708</ele>
        <time>2021-08-16T20:16:26.396Z</time>
      </trkpt>
      <trkpt lat="47.610111" lon="7.773102">
        <ele>418.393810</ele>
        <time>2021-08-16T20:16:32.950Z</time>
      </trkpt>
      <trkpt lat="47.610141" lon="7.772651">
        <ele>419.155951</ele>
        <time>2021-08-16T20:16:40.385Z</time>
      </trkpt>
      <trkpt lat="47.610258" lon="7.772352">
        <ele>419.737349</ele>
        <time>2021-08-16T20:16:45.470Z</time>
      </trkpt>
      <trkpt lat="47.610475" lon="7.771884">
        <ele>420.692571</ele>
        <time>2021-08-16T20:16:54.599Z</time>
      </trkpt>
      <trkpt lat="47.611349" lon="7.770818">
        <ele>424.292711</ele>
        <time>2021-08-16T20:17:23.983Z</time>
      </trkpt>
      <trkpt lat="47.611495" lon="7.770538">
        <ele>425.131621</ele>
        <time>2021-08-16T20:17:31.988Z</time>
      </trkpt>
      <trkpt lat="47.611735" lon="7.769126">
        <ele>428.589482</ele>
        <time>2021-08-16T20:18:02.270Z</time>
      </trkpt>
      <trkpt lat="47.611843" lon="7.768871">
        <ele>429.310705</ele>
        <time>2021-08-16T20:18:08.518Z</time>
      </trkpt>
      <trkpt lat="47.611720" lon="7.768321">
        <ele>430.698498</ele>
        <time>2021-08-16T20:18:19.827Z</time>
      </trkpt>
      <trkpt lat="47.610892" lon="7.766368">
        <ele>436.497902</ele>
        <time>2021-08-16T20:19:03.795Z</time>
      </trkpt>
      <trkpt lat="47.610797" lon="7.765993">
        <ele>437.596010</ele>
        <time>2021-08-16T20:19:11.553Z</time>
      </trkpt>
      <trkpt lat="47.610767" lon="7.765723">
        <ele>438.346105</ele>
        <time>2021-08-16T20:19:16.887Z</time>
      </trkpt>
      <trkpt lat="47.610607" lon="7.764328">
        <ele>442.263825</ele>
        <time>2021-08-16T20:19:49.324Z</time>
      </trkpt>
      <trkpt lat="47.610505" lon="7.763094">
        <ele>445.898674</ele>
        <time>2021-08-16T20:20:18.608Z</time>
      </trkpt>
      <trkpt lat="47.610510" lon="7.762675">
        <ele>447.123893</ele>
        <time>2021-08-16T20:20:28.094Z</time>
      </trkpt>
      <trkpt lat="47.610537" lon="7.761995">
        <ele>449.115448</ele>
        <time>2021-08-16T20:20:41.449Z</time>
      </trkpt>
      <trkpt lat="47.610580" lon="7.761637">
        <ele>449.705875</ele>
        <time>2021-08-16T20:20:48.232Z</time>
      </trkpt>
      <trkpt lat="47.610595" lon="7.761449">
        <ele>449.904390</ele>
        <time>2021-08-16T20:20:51.442Z</time>
      </trkpt>
      <trkpt lat="47.610601" lon="7.761374">
        <ele>449.983587</ele>
        <time>2021-08-16T20:20:52.833Z</time>
      </trkpt>
      <trkpt lat="47.610760" lon="7.761304">
        <ele>450.241561</ele>
        <time>2021-08-16T20:20:57.043Z</time>
      </trkpt>
      <trkpt lat="47.610854" lon="7.761285">
        <ele>450.389121</ele>
        <time>2021-08-16T20:20:59.154Z</time>
      </trkpt>
      <trkpt lat="47.610968" lon="7.761303">
        <ele>450.567440</ele>
        <time>2021-08-16T20:21:02.032Z</time>
      </trkpt>
      <trkpt lat="47.611933" lon="7.761457">
        <ele>452.077078</ele>
        <time>2021-08-16T20:21:19.578Z</time>
      </trkpt>
      <trkpt lat="47.611967" lon="7.761454">
        <ele>452.130056</ele>
        <time>2021-08-16T20:21:20.174Z</time>
      </trkpt>
      <trkpt lat="47.612022" lon="7.761449">
        <ele>452.215764</ele>
        <time>2021-08-16T20:21:21.106Z</time>
      </trkpt>
      <trkpt lat="47.612075" lon="7.761435">
        <ele>452.194734</ele>
        <time>2021-08-16T20:21:21.913Z</time>
      </trkpt>
      <trkpt lat="47.612465" lon="7.760841">
        <ele>451.555005</ele>
        <time>2021-08-16T20:21:30.115Z</time>
      </trkpt>
      <trkpt lat="47.612630" lon="7.760759">
        <ele>451.355852</ele>
        <time>2021-08-16T20:21:32.458Z</time>
      </trkpt>
      <trkpt lat="47.612851" lon="7.760726">
        <ele>451.101646</ele>
        <time>2021-08-16T20:21:35.238Z</time>
      </trkpt>
      <trkpt lat="47.613059" lon="7.760674">
        <ele>450.860240</ele>
        <time>2021-08-16T20:21:37.735Z</time>
      </trkpt>
      <trkpt lat="47.613148" lon="7.760607">
        <ele>450.746016</ele>
        <time>2021-08-16T20:21:38.882Z</time>
      </trkpt>
      <trkpt lat="47.613210" lon="7.760457">
        <ele>450.610267</ele>
        <time>2021-08-16T20:21:40.236Z</time>
      </trkpt>
      <trkpt lat="47.613231" lon="7.760404">
        <ele>450.562836</ele>
        <time>2021-08-16T20:21:40.693Z</time>
      </trkpt>
      <trkpt lat="47.613222" lon="7.760189">
        <ele>450.396639</ele>
        <time>2021-08-16T20:21:42.270Z</time>
      </trkpt>
      <trkpt lat="47.613191" lon="7.760084">
        <ele>450.308201</ele>
        <time>2021-08-16T20:21:43.065Z</time>
      </trkpt>
      <trkpt lat="47.612949" lon="7.759306">
        <ele>447.801020</ele>
        <time>2021-08-16T20:21:48.860Z</time>
      </trkpt>
      <trkpt lat="47.612715" lon="7.758218">
        <ele>443.871025</ele>
        <time>2021-08-16T20:21:56.143Z</time>
      </trkpt>
      <trkpt lat="47.612663" lon="7.757797">
        <ele>442.398142</ele>
        <time>2021-08-16T20:21:58.767Z</time>
      </trkpt>
      <trkpt lat="47.612641" lon="7.757558">
        <ele>441.568051</ele>
        <time>2021-08-16T20:22:00.268Z</time>
      </trkpt>
      <trkpt lat="47.612636" lon="7.757205">
        <ele>440.024903</ele>
        <time>2021-08-16T20:22:02.355Z</time>
      </trkpt>
      <trkpt lat="47.612616" lon="7.756869">
        <ele>438.274725</ele>
        <time>2021-08-16T20:22:04.437Z</time>
      </trkpt>
      <trkpt lat="47.612605" lon="7.756701">
        <ele>437.398925</ele>
        <time>2021-08-16T20:22:05.412Z</time>
      </trkpt>
      <trkpt lat="47.612477" lon="7.755867">
        <ele>432.960832</ele>
        <time>2021-08-16T20:22:10.623Z</time>
      </trkpt>
      <trkpt lat="47.612425" lon="7.755758">
        <ele>432.267974</ele>
        <time>2021-08-16T20:22:11.382Z</time>
      </trkpt>
      <trkpt lat="47.612348" lon="7.755703">
        <ele>431.610195</ele>
        <time>2021-08-16T20:22:12.134Z</time>
      </trkpt>
      <trkpt lat="47.612242" lon="7.755647">
        <ele>430.744142</ele>
        <time>2021-08-16T20:22:13.171Z</time>
      </trkpt>
      <trkpt lat="47.612167" lon="7.755587">
        <ele>430.088286</ele>
        <time>2021-08-16T20:22:13.933Z</time>
      </trkpt>
      <trkpt lat="47.612142" lon="7.755472">
        <ele>429.461326</ele>
        <time>2021-08-16T20:22:14.617Z</time>
      </trkpt>
      <trkpt lat="47.612180" lon="7.755085">
        <ele>427.432101</ele>
        <time>2021-08-16T20:22:17.028Z</time>
      </trkpt>
      <trkpt lat="47.612137" lon="7.754745">
        <ele>425.764225</ele>
        <time>2021-08-16T20:22:19.068Z</time>
      </trkpt>
      <trkpt lat="47.611836" lon="7.754409">
        <ele>423.107442</ele>
        <time>2021-08-16T20:22:22.442Z</time>
      </trkpt>
      <trkpt lat="47.611658" lon="7.754241">
        <ele>421.619503</ele>
        <time>2021-08-16T20:22:24.289Z</time>
      </trkpt>
      <trkpt lat="47.611506" lon="7.753985">
        <ele>419.997570</ele>
        <time>2021-08-16T20:22:26.403Z</time>
      </trkpt>
      <trkpt lat="47.611310" lon="7.753428">
        <ele>417.010224</ele>
        <time>2021-08-16T20:22:30.259Z</time>
      </trkpt>
      <trkpt lat="47.611269" lon="7.753071">
        <ele>415.288389</ele>
        <time>2021-08-16T20:22:32.488Z</time>
      </trkpt>
      <trkpt lat="47.611242" lon="7.752336">
        <ele>412.679671</ele>
        <time>2021-08-16T20:22:36.981Z</time>
      </trkpt>
      <trkpt lat="47.611288" lon="7.751378">
        <ele>409.630550</ele>
        <time>2021-08-16T20:22:43.080Z</time>
      </trkpt>
      <trkpt lat="47.611255" lon="7.751205">
        <ele>409.059755</ele>
        <time>2021-08-16T20:22:44.240Z</time>
      </trkpt>
      <trkpt lat="47.611197" lon="7.751064">
        <ele>408.535365</ele>
        <time>2021-08-16T20:22:45.331Z</time>
      </trkpt>
      <trkpt lat="47.611094" lon="7.750951">
        <ele>407.932063</ele>
        <time>2021-08-16T20:22:46.689Z</time>
      </trkpt>
      <trkpt lat="47.610714" lon="7.750722">
        <ele>406.000512</ele>
        <time>2021-08-16T20:22:50.824Z</time>
      </trkpt>
      <trkpt lat="47.610643" lon="7.750603">
        <ele>405.828636</ele>
        <time>2021-08-16T20:22:51.898Z</time>
      </trkpt>
      <trkpt lat="47.610520" lon="7.750319">
        <ele>405.464052</ele>
        <time>2021-08-16T20:22:54.350Z</time>
      </trkpt>
      <trkpt lat="47.610345" lon="7.749815">
        <ele>404.851735</ele>
        <time>2021-08-16T20:22:58.435Z</time>
      </trkpt>
      <trkpt lat="47.610303" lon="7.749507">
        <ele>404.512334</ele>
        <time>2021-08-16T20:23:00.742Z</time>
      </trkpt>
      <trkpt lat="47.610331" lon="7.749289">
        <ele>404.272641</ele>
        <time>2021-08-16T20:23:02.534Z</time>
      </trkpt>
      <trkpt lat="47.610399" lon="7.749144">
        <ele>404.081865</ele>
        <time>2021-08-16T20:23:04.078Z</time>
      </trkpt>
      <trkpt lat="47.610897" lon="7.748667">
        <ele>403.132141</ele>
        <time>2021-08-16T20:23:12.082Z</time>
      </trkpt>
      <trkpt lat="47.611024" lon="7.748403">
        <ele>402.841714</ele>
        <time>2021-08-16T20:23:15.368Z</time>
      </trkpt>
      <trkpt lat="47.611423" lon="7.747196">
        <ele>401.647920</ele>
        <time>2021-08-16T20:23:27.322Z</time>
      </trkpt>
      <trkpt lat="47.611508" lon="7.746851">
        <ele>401.321727</ele>
        <time>2021-08-16T20:23:29.987Z</time>
      </trkpt>
      <trkpt lat="47.611647" lon="7.746050">
        <ele>400.322787</ele>
        <time>2021-08-16T20:23:35.920Z</time>
      </trkpt>
      <trkpt lat="47.611691" lon="7.745486">
        <ele>398.995838</ele>
        <time>2021-08-16T20:23:39.724Z</time>
      </trkpt>
      <trkpt lat="47.611651" lon="7.745141">
        <ele>398.177684</ele>
        <time>2021-08-16T20:23:42.104Z</time>
      </trkpt>
      <trkpt lat="47.611609" lon="7.744853">
        <ele>397.489016</ele>
        <time>2021-08-16T20:23:44.021Z</time>
      </trkpt>
      <trkpt lat="47.611456" lon="7.744262">
        <ele>396.009415</ele>
        <time>2021-08-16T20:23:48.305Z</time>
      </trkpt>
      <trkpt lat="47.611241" lon="7.743837">
        <ele>394.767563</ele>
        <time>2021-08-16T20:23:51.883Z</time>
      </trkpt>
      <trkpt lat="47.611161" lon="7.743634">
        <ele>394.256487</ele>
        <time>2021-08-16T20:23:53.439Z</time>
      </trkpt>
      <trkpt lat="47.611010" lon="7.743033">
        <ele>392.952547</ele>
        <time>2021-08-16T20:23:57.686Z</time>
      </trkpt>
      <trkpt lat="47.610879" lon="7.741793">
        <ele>390.400829</ele>
        <time>2021-08-16T20:24:06.406Z</time>
      </trkpt>
      <trkpt lat="47.610871" lon="7.741420">
        <ele>389.642126</ele>
        <time>2021-08-16T20:24:09.187Z</time>
      </trkpt>
      <trkpt lat="47.610898" lon="7.741056">
        <ele>388.925245</ele>
        <time>2021-08-16T20:24:11.960Z</time>
      </trkpt>
      <trkpt lat="47.611129" lon="7.739819">
        <ele>386.690840</ele>
        <time>2021-08-16T20:24:20.987Z</time>
      </trkpt>
      <trkpt lat="47.611266" lon="7.739513">
        <ele>386.051405</ele>
        <time>2021-08-16T20:24:23.611Z</time>
      </trkpt>
      <trkpt lat="47.611382" lon="7.739254">
        <ele>385.510124</ele>
        <time>2021-08-16T20:24:25.687Z</time>
      </trkpt>
      <trkpt lat="47.611618" lon="7.738936">
        <ele>384.686857</ele>
        <time>2021-08-16T20:24:29.023Z</time>
      </trkpt>
      <trkpt lat="47.611684" lon="7.738828">
        <ele>384.441411</ele>
        <time>2021-08-16T20:24:30.126Z</time>
      </trkpt>
      <trkpt lat="47.611751" lon="7.738698">
        <ele>384.349320</ele>
        <time>2021-08-16T20:24:31.367Z</time>
      </trkpt>
      <trkpt lat="47.611785" lon="7.738609">
        <ele>384.291751</ele>
        <time>2021-08-16T20:24:32.023Z</time>
      </trkpt>
      <trkpt lat="47.611872" lon="7.738156">
        <ele>384.026672</ele>
        <time>2021-08-16T20:24:35.737Z</time>
      </trkpt>
      <trkpt lat="47.611874" lon="7.738116">
        <ele>384.004099</ele>
        <time>2021-08-16T20:24:35.981Z</time>
      </trkpt>
      <trkpt lat="47.611893" lon="7.737711">
        <ele>383.775626</ele>
        <time>2021-08-16T20:24:39.318Z</time>
      </trkpt>
      <trkpt lat="47.611965" lon="7.737457">
        <ele>383.620559</ele>
        <time>2021-08-16T20:24:41.438Z</time>
      </trkpt>
      <trkpt lat="47.612044" lon="7.737224">
        <ele>383.473784</ele>
        <time>2021-08-16T20:24:43.665Z</time>
      </trkpt>
      <trkpt lat="47.612194" lon="7.737048">
        <ele>383.314128</ele>
        <time>2021-08-16T20:24:46.406Z</time>
      </trkpt>
      <trkpt lat="47.612447" lon="7.736778">
        <ele>383.053948</ele>
        <time>2021-08-16T20:24:51.316Z</time>
      </trkpt>
      <trkpt lat="47.612712" lon="7.736151">
        <ele>384.140511</ele>
        <time>2021-08-16T20:25:01.894Z</time>
      </trkpt>
      <trkpt lat="47.613210" lon="7.735944">
        <ele>385.826577</ele>
        <time>2021-08-16T20:25:14.037Z</time>
      </trkpt>
      <trkpt lat="47.613317" lon="7.735838">
        <ele>386.246046</ele>
        <time>2021-08-16T20:25:17.919Z</time>
      </trkpt>
      <trkpt lat="47.613375" lon="7.735736">
        <ele>386.539312</ele>
        <time>2021-08-16T20:25:20.109Z</time>
      </trkpt>
      <trkpt lat="47.613434" lon="7.735397">
        <ele>387.308772</ele>
        <time>2021-08-16T20:25:27.325Z</time>
      </trkpt>
      <trkpt lat="47.613390" lon="7.735211">
        <ele>387.741988</ele>
        <time>2021-08-16T20:25:31.625Z</time>
      </trkpt>
      <trkpt lat="47.613181" lon="7.734997">
        <ele>388.569908</ele>
        <time>2021-08-16T20:25:41.780Z</time>
      </trkpt>
      <trkpt lat="47.612755" lon="7.734867">
        <ele>391.101319</ele>
        <time>2021-08-16T20:25:58.236Z</time>
      </trkpt>
      <trkpt lat="47.612618" lon="7.734756">
        <ele>392.090422</ele>
        <time>2021-08-16T20:26:05.111Z</time>
      </trkpt>
      <trkpt lat="47.612558" lon="7.734604">
        <ele>392.842800</ele>
        <time>2021-08-16T20:26:09.657Z</time>
      </trkpt>
      <trkpt lat="47.612560" lon="7.734334">
        <ele>393.996169</ele>
        <time>2021-08-16T20:26:17.397Z</time>
      </trkpt>
      <trkpt lat="47.612562" lon="7.734273">
        <ele>394.257037</ele>
        <time>2021-08-16T20:26:19.174Z</time>
      </trkpt>
      <trkpt lat="47.612580" lon="7.733842">
        <ele>396.101572</ele>
        <time>2021-08-16T20:26:28.966Z</time>
      </trkpt>
      <trkpt lat="47.612580" lon="7.733841">
        <ele>396.105843</ele>
        <time>2021-08-16T20:26:29.360Z</time>
      </trkpt>
      <trkpt lat="47.612582" lon="7.733083">
        <ele>399.343646</ele>
        <time>2021-08-16T20:26:49.760Z</time>
      </trkpt>
      <trkpt lat="47.612414" lon="7.731732">
        <ele>405.019554</ele>
        <time>2021-08-16T20:27:31.383Z</time>
      </trkpt>
      <trkpt lat="47.612490" lon="7.730332">
        <ele>410.788699</ele>
        <time>2021-08-16T20:28:04.488Z</time>
      </trkpt>
      <trkpt lat="47.612445" lon="7.730023">
        <ele>411.899786</ele>
        <time>2021-08-16T20:28:11.963Z</time>
      </trkpt>
      <trkpt lat="47.612234" lon="7.729223">
        <ele>414.712615</ele>
        <time>2021-08-16T20:28:33.984Z</time>
      </trkpt>
      <trkpt lat="47.612102" lon="7.728839">
        <ele>416.123996</ele>
        <time>2021-08-16T20:28:44.911Z</time>
      </trkpt>
      <trkpt lat="47.611794" lon="7.728207">
        <ele>418.677503</ele>
        <time>2021-08-16T20:29:02.520Z</time>
      </trkpt>
      <trkpt lat="47.611673" lon="7.727743">
        <ele>419.976334</ele>
        <time>2021-08-16T20:29:12.615Z</time>
      </trkpt>
      <trkpt lat="47.611558" lon="7.727374">
        <ele>420.227934</ele>
        <time>2021-08-16T20:29:20.630Z</time>
      </trkpt>
      <trkpt lat="47.611696" lon="7.727069">
        <ele>420.455274</ele>
        <time>2021-08-16T20:29:26.407Z</time>
      </trkpt>
      <trkpt lat="47.612294" lon="7.725494">
        <ele>421.469245</ele>
        <time>2021-08-16T20:29:45.745Z</time>
      </trkpt>
      <trkpt lat="47.612626" lon="7.724023">
        <ele>418.128517</ele>
        <time>2021-08-16T20:29:56.165Z</time>
      </trkpt>
      <trkpt lat="47.613151" lon="7.722474">
        <ele>414.116172</ele>
        <time>2021-08-16T20:30:07.697Z</time>
      </trkpt>
      <trkpt lat="47.613293" lon="7.722239">
        <ele>413.302249</ele>
        <time>2021-08-16T20:30:09.802Z</time>
      </trkpt>
      <trkpt lat="47.614307" lon="7.721193">
        <ele>408.488668</ele>
        <time>2021-08-16T20:30:22.054Z</time>
      </trkpt>
      <trkpt lat="47.614657" lon="7.720991">
        <ele>406.685059</ele>
        <time>2021-08-16T20:30:25.627Z</time>
      </trkpt>
      <trkpt lat="47.615110" lon="7.720843">
        <ele>404.457390</ele>
        <time>2021-08-16T20:30:30.036Z</time>
      </trkpt>
      <trkpt lat="47.615394" lon="7.720757">
        <ele>403.065355</ele>
        <time>2021-08-16T20:30:32.760Z</time>
      </trkpt>
      <trkpt lat="47.615630" lon="7.720579">
        <ele>401.793884</ele>
        <time>2021-08-16T20:30:35.247Z</time>
      </trkpt>
      <trkpt lat="47.615890" lon="7.720244">
        <ele>400.180772</ele>
        <time>2021-08-16T20:30:38.444Z</time>
      </trkpt>
      <trkpt lat="47.616298" lon="7.719670">
        <ele>398.236448</ele>
        <time>2021-08-16T20:30:43.680Z</time>
      </trkpt>
      <trkpt lat="47.617098" lon="7.718278">
        <ele>394.063335</ele>
        <time>2021-08-16T20:30:56.427Z</time>
      </trkpt>
      <trkpt lat="47.617269" lon="7.718018">
        <ele>394.037287</ele>
        <time>2021-08-16T20:30:59.712Z</time>
      </trkpt>
      <trkpt lat="47.617441" lon="7.717849">
        <ele>394.015341</ele>
        <time>2021-08-16T20:31:02.724Z</time>
      </trkpt>
      <trkpt lat="47.617832" lon="7.717579">
        <ele>393.969462</ele>
        <time>2021-08-16T20:31:09.697Z</time>
      </trkpt>
      <trkpt lat="47.618344" lon="7.717282">
        <ele>393.910981</ele>
        <time>2021-08-16T20:31:19.377Z</time>
      </trkpt>
      <trkpt lat="47.619037" lon="7.717037">
        <ele>393.350649</ele>
        <time>2021-08-16T20:31:31.485Z</time>
      </trkpt>
      <trkpt lat="47.619222" lon="7.716913">
        <ele>393.065337</ele>
        <time>2021-08-16T20:31:34.280Z</time>
      </trkpt>
      <trkpt lat="47.619370" lon="7.716703">
        <ele>392.777511</ele>
        <time>2021-08-16T20:31:36.705Z</time>
      </trkpt>
      <trkpt lat="47.620083" lon="7.715138">
        <ele>390.996475</ele>
        <time>2021-08-16T20:31:50.241Z</time>
      </trkpt>
      <trkpt lat="47.620154" lon="7.714902">
        <ele>390.757399</ele>
        <time>2021-08-16T20:31:51.966Z</time>
      </trkpt>
      <trkpt lat="47.620355" lon="7.714031">
        <ele>389.905746</ele>
        <time>2021-08-16T20:31:59.054Z</time>
      </trkpt>
      <trkpt lat="47.620562" lon="7.712881">
        <ele>388.878957</ele>
        <time>2021-08-16T20:32:09.270Z</time>
      </trkpt>
      <trkpt lat="47.620583" lon="7.712051">
        <ele>388.883868</ele>
        <time>2021-08-16T20:32:19.715Z</time>
      </trkpt>
      <trkpt lat="47.620668" lon="7.711439">
        <ele>388.887562</ele>
        <time>2021-08-16T20:32:27.737Z</time>
      </trkpt>
      <trkpt lat="47.620838" lon="7.710891">
        <ele>388.891129</ele>
        <time>2021-08-16T20:32:34.470Z</time>
      </trkpt>
      <trkpt lat="47.620944" lon="7.709648">
        <ele>386.878069</ele>
        <time>2021-08-16T20:32:44.433Z</time>
      </trkpt>
      <trkpt lat="47.621059" lon="7.709139">
        <ele>385.380963</ele>
        <time>2021-08-16T20:32:48.031Z</time>
      </trkpt>
      <trkpt lat="47.621330" lon="7.708277">
        <ele>382.728420</ele>
        <time>2021-08-16T20:32:54.059Z</time>
      </trkpt>
      <trkpt lat="47.621520" lon="7.707900">
        <ele>381.381286</ele>
        <time>2021-08-16T20:32:56.944Z</time>
      </trkpt>
      <trkpt lat="47.621593" lon="7.707590">
        <ele>379.610255</ele>
        <time>2021-08-16T20:32:58.928Z</time>
      </trkpt>
      <trkpt lat="47.621611" lon="7.706298">
        <ele>372.640594</ele>
        <time>2021-08-16T20:33:06.624Z</time>
      </trkpt>
      <trkpt lat="47.621789" lon="7.705094">
        <ele>365.956308</ele>
        <time>2021-08-16T20:33:13.931Z</time>
      </trkpt>
      <trkpt lat="47.621888" lon="7.704755">
        <ele>363.895864</ele>
        <time>2021-08-16T20:33:16.115Z</time>
      </trkpt>
      <trkpt lat="47.622344" lon="7.703662">
        <ele>356.726964</ele>
        <time>2021-08-16T20:33:23.693Z</time>
      </trkpt>
      <trkpt lat="47.622692" lon="7.702977">
        <ele>352.020820</ele>
        <time>2021-08-16T20:33:28.832Z</time>
      </trkpt>
      <trkpt lat="47.622874" lon="7.702287">
        <ele>349.256537</ele>
        <time>2021-08-16T20:33:33.335Z</time>
      </trkpt>
      <trkpt lat="47.622996" lon="7.702123">
        <ele>348.345304</ele>
        <time>2021-08-16T20:33:34.921Z</time>
      </trkpt>
      <trkpt lat="47.623108" lon="7.702060">
        <ele>347.682315</ele>
        <time>2021-08-16T20:33:35.968Z</time>
      </trkpt>
      <trkpt lat="47.623205" lon="7.702085">
        <ele>347.137370</ele>
        <time>2021-08-16T20:33:36.945Z</time>
      </trkpt>
      <trkpt lat="47.623513" lon="7.702279">
        <ele>345.285293</ele>
        <time>2021-08-16T20:33:40.079Z</time>
      </trkpt>
      <trkpt lat="47.623648" lon="7.702270">
        <ele>344.537301</ele>
        <time>2021-08-16T20:33:41.466Z</time>
      </trkpt>
      <trkpt lat="47.623958" lon="7.701951">
        <ele>342.449116</ele>
        <time>2021-08-16T20:33:45.123Z</time>
      </trkpt>
      <trkpt lat="47.624323" lon="7.701445">
        <ele>340.733314</ele>
        <time>2021-08-16T20:33:49.962Z</time>
      </trkpt>
      <trkpt lat="47.624857" lon="7.700230">
        <ele>337.558960</ele>
        <time>2021-08-16T20:34:00.248Z</time>
      </trkpt>
      <trkpt lat="47.625257" lon="7.699525">
        <ele>335.527925</ele>
        <time>2021-08-16T20:34:06.537Z</time>
      </trkpt>
      <trkpt lat="47.625309" lon="7.699433">
        <ele>335.260690</ele>
        <time>2021-08-16T20:34:07.308Z</time>
      </trkpt>
      <trkpt lat="47.625461" lon="7.699273">
        <ele>334.645255</ele>
        <time>2021-08-16T20:34:09.182Z</time>
      </trkpt>
      <trkpt lat="47.626086" lon="7.698992">
        <ele>332.488658</ele>
        <time>2021-08-16T20:34:15.710Z</time>
      </trkpt>
      <trkpt lat="47.626452" lon="7.698602">
        <ele>331.000638</ele>
        <time>2021-08-16T20:34:20.278Z</time>
      </trkpt>
      <trkpt lat="47.626645" lon="7.698397">
        <ele>330.294728</ele>
        <time>2021-08-16T20:34:22.668Z</time>
      </trkpt>
      <trkpt lat="47.627231" lon="7.697773">
        <ele>328.735696</ele>
        <time>2021-08-16T20:34:30.171Z</time>
      </trkpt>
      <trkpt lat="47.627884" lon="7.697343">
        <ele>327.191515</ele>
        <time>2021-08-16T20:34:38.026Z</time>
      </trkpt>
      <trkpt lat="47.628021" lon="7.697269">
        <ele>326.876386</ele>
        <time>2021-08-16T20:34:39.758Z</time>
      </trkpt>
      <trkpt lat="47.628516" lon="7.697169">
        <ele>326.475474</ele>
        <time>2021-08-16T20:34:48.598Z</time>
      </trkpt>
      <trkpt lat="47.629210" lon="7.696607">
        <ele>326.297004</ele>
        <time>2021-08-16T20:35:03.285Z</time>
      </trkpt>
      <trkpt lat="47.629568" lon="7.696115">
        <ele>326.186855</ele>
        <time>2021-08-16T20:35:13.974Z</time>
      </trkpt>
      <trkpt lat="47.629730" lon="7.695969">
        <ele>326.134475</ele>
        <time>2021-08-16T20:35:18.145Z</time>
      </trkpt>
      <trkpt lat="47.630492" lon="7.695689">
        <ele>325.584184</ele>
        <time>2021-08-16T20:35:37.470Z</time>
      </trkpt>
      <trkpt lat="47.630798" lon="7.695688">
        <ele>325.369680</ele>
        <time>2021-08-16T20:35:42.646Z</time>
      </trkpt>
      <trkpt lat="47.630920" lon="7.695687">
        <ele>325.284158</ele>
        <time>2021-08-16T20:35:44.715Z</time>
      </trkpt>
      <trkpt lat="47.631501" lon="7.695775">
        <ele>324.811090</ele>
        <time>2021-08-16T20:35:53.689Z</time>
      </trkpt>
      <trkpt lat="47.631816" lon="7.695863">
        <ele>323.488109</ele>
        <time>2021-08-16T20:35:58.544Z</time>
      </trkpt>
      <trkpt lat="47.631911" lon="7.695669">
        <ele>322.821090</ele>
        <time>2021-08-16T20:36:00.189Z</time>
      </trkpt>
      <trkpt lat="47.631973" lon="7.695502">
        <ele>322.290764</ele>
        <time>2021-08-16T20:36:01.681Z</time>
      </trkpt>
      <trkpt lat="47.631985" lon="7.695469">
        <ele>322.186466</ele>
        <time>2021-08-16T20:36:01.886Z</time>
      </trkpt>
      <trkpt lat="47.632076" lon="7.695243">
        <ele>321.454199</ele>
        <time>2021-08-16T20:36:03.703Z</time>
      </trkpt>
      <trkpt lat="47.632096" lon="7.695178">
        <ele>321.255452</ele>
        <time>2021-08-16T20:36:04.160Z</time>
      </trkpt>
      <trkpt lat="47.632164" lon="7.694950">
        <ele>320.561954</ele>
        <time>2021-08-16T20:36:05.758Z</time>
      </trkpt>
      <trkpt lat="47.632229" lon="7.694703">
        <ele>319.824417</ele>
        <time>2021-08-16T20:36:07.443Z</time>
      </trkpt>
      <trkpt lat="47.632297" lon="7.694443">
        <ele>319.048693</ele>
        <time>2021-08-16T20:36:09.217Z</time>
      </trkpt>
      <trkpt lat="47.632440" lon="7.693874">
        <ele>317.375528</ele>
        <time>2021-08-16T20:36:13.030Z</time>
      </trkpt>
      <trkpt lat="47.632526" lon="7.693622">
        <ele>316.709765</ele>
        <time>2021-08-16T20:36:14.760Z</time>
      </trkpt>
      <trkpt lat="47.632642" lon="7.693416">
        <ele>316.077045</ele>
        <time>2021-08-16T20:36:16.457Z</time>
      </trkpt>
      <trkpt lat="47.632763" lon="7.693227">
        <ele>315.462612</ele>
        <time>2021-08-16T20:36:18.133Z</time>
      </trkpt>
      <trkpt lat="47.632822" lon="7.693157">
        <ele>315.198413</ele>
        <time>2021-08-16T20:36:18.904Z</time>
      </trkpt>
      <trkpt lat="47.633091" lon="7.692798">
        <ele>313.933071</ele>
        <time>2021-08-16T20:36:22.663Z</time>
      </trkpt>
      <trkpt lat="47.633173" lon="7.692695">
        <ele>313.557326</ele>
        <time>2021-08-16T20:36:23.884Z</time>
      </trkpt>
      <trkpt lat="47.633202" lon="7.692660">
        <ele>313.426589</ele>
        <time>2021-08-16T20:36:24.253Z</time>
      </trkpt>
      <trkpt lat="47.633266" lon="7.692577">
        <ele>313.129314</ele>
        <time>2021-08-16T20:36:25.112Z</time>
      </trkpt>
      <trkpt lat="47.633399" lon="7.692413">
        <ele>312.524511</ele>
        <time>2021-08-16T20:36:26.944Z</time>
      </trkpt>
      <trkpt lat="47.633588" lon="7.692141">
        <ele>311.603680</ele>
        <time>2021-08-16T20:36:29.682Z</time>
      </trkpt>
      <trkpt lat="47.633548" lon="7.692076">
        <ele>311.396217</ele>
        <time>2021-08-16T20:36:30.329Z</time>
      </trkpt>
      <trkpt lat="47.633168" lon="7.691051">
        <ele>310.266520</ele>
        <time>2021-08-16T20:36:39.069Z</time>
      </trkpt>
      <trkpt lat="47.633134" lon="7.690866">
        <ele>310.104821</ele>
        <time>2021-08-16T20:36:40.627Z</time>
      </trkpt>
      <trkpt lat="47.633123" lon="7.690653">
        <ele>309.924682</ele>
        <time>2021-08-16T20:36:42.401Z</time>
      </trkpt>
      <trkpt lat="47.633120" lon="7.690596">
        <ele>309.876470</ele>
        <time>2021-08-16T20:36:42.819Z</time>
      </trkpt>
      <trkpt lat="47.633090" lon="7.690331">
        <ele>309.649877</ele>
        <time>2021-08-16T20:36:45.174Z</time>
      </trkpt>
      <trkpt lat="47.633034" lon="7.690065">
        <ele>309.414881</ele>
        <time>2021-08-16T20:36:47.537Z</time>
      </trkpt>
      <trkpt lat="47.632964" lon="7.689905">
        <ele>309.254020</ele>
        <time>2021-08-16T20:36:49.330Z</time>
      </trkpt>
      <trkpt lat="47.632879" lon="7.689719">
        <ele>309.064511</ele>
        <time>2021-08-16T20:36:51.535Z</time>
      </trkpt>
      <trkpt lat="47.632643" lon="7.689293">
        <ele>308.877970</ele>
        <time>2021-08-16T20:36:56.627Z</time>
      </trkpt>
      <trkpt lat="47.632379" lon="7.688829">
        <ele>308.807358</ele>
        <time>2021-08-16T20:37:02.078Z</time>
      </trkpt>
      <trkpt lat="47.632137" lon="7.688381">
        <ele>308.740595</ele>
        <time>2021-08-16T20:37:07.379Z</time>
      </trkpt>
      <trkpt lat="47.632006" lon="7.688132">
        <ele>308.703863</ele>
        <time>2021-08-16T20:37:10.286Z</time>
      </trkpt>
      <trkpt lat="47.631926" lon="7.687942">
        <ele>308.677812</ele>
        <time>2021-08-16T20:37:12.711Z</time>
      </trkpt>
      <trkpt lat="47.631844" lon="7.687700">
        <ele>308.646315</ele>
        <time>2021-08-16T20:37:15.369Z</time>
      </trkpt>
      <trkpt lat="47.631760" lon="7.687488">
        <ele>308.617718</ele>
        <time>2021-08-16T20:37:18.199Z</time>
      </trkpt>
      <trkpt lat="47.631713" lon="7.687383">
        <ele>308.618026</ele>
        <time>2021-08-16T20:37:19.516Z</time>
      </trkpt>
      <trkpt lat="47.631655" lon="7.687264">
        <ele>308.629040</ele>
        <time>2021-08-16T20:37:21.092Z</time>
      </trkpt>
      <trkpt lat="47.631607" lon="7.687387">
        <ele>308.639700</ele>
        <time>2021-08-16T20:37:32.226Z</time>
      </trkpt>
      <trkpt lat="47.631607" lon="7.687387">
        <ele>308.639700</ele>
        <time>2021-08-16T20:37:32.236Z</time>
      </trkpt>
      <trkpt lat="47.631607" lon="7.687387">
        <ele>308.639700</ele>
        <time>2021-08-16T20:37:32.247Z</time>
      </trkpt>
      <trkpt lat="47.631655" lon="7.687264">
        <ele>308.650359</ele>
        <time>2021-08-16T20:37:42.951Z</time>
      </trkpt>
      <trkpt lat="47.631631" lon="7.687221">
        <ele>308.654546</ele>
        <time>2021-08-16T20:37:43.480Z</time>
      </trkpt>
      <trkpt lat="47.631536" lon="7.687074">
        <ele>308.669821</ele>
        <time>2021-08-16T20:37:45.639Z</time>
      </trkpt>
      <trkpt lat="47.631402" lon="7.686886">
        <ele>308.690343</ele>
        <time>2021-08-16T20:37:48.674Z</time>
      </trkpt>
      <trkpt lat="47.631363" lon="7.686832">
        <ele>308.696279</ele>
        <time>2021-08-16T20:37:49.406Z</time>
      </trkpt>
      <trkpt lat="47.631303" lon="7.686748">
        <ele>308.705459</ele>
        <time>2021-08-16T20:37:50.609Z</time>
      </trkpt>
      <trkpt lat="47.631278" lon="7.686713">
        <ele>308.709284</ele>
        <time>2021-08-16T20:37:51.068Z</time>
      </trkpt>
      <trkpt lat="47.631216" lon="7.686627">
        <ele>308.718729</ele>
        <time>2021-08-16T20:37:52.588Z</time>
      </trkpt>
      <trkpt lat="47.630927" lon="7.686060">
        <ele>308.772045</ele>
        <time>2021-08-16T20:37:59.076Z</time>
      </trkpt>
      <trkpt lat="47.630747" lon="7.685457">
        <ele>308.933948</ele>
        <time>2021-08-16T20:38:05.439Z</time>
      </trkpt>
      <trkpt lat="47.630549" lon="7.684835">
        <ele>309.617293</ele>
        <time>2021-08-16T20:38:13.392Z</time>
      </trkpt>
      <trkpt lat="47.630348" lon="7.684274">
        <ele>310.248445</ele>
        <time>2021-08-16T20:38:21.917Z</time>
      </trkpt>
      <trkpt lat="47.630302" lon="7.684172">
        <ele>310.370365</ele>
        <time>2021-08-16T20:38:23.613Z</time>
      </trkpt>
      <trkpt lat="47.630200" lon="7.683945">
        <ele>310.641392</ele>
        <time>2021-08-16T20:38:28.287Z</time>
      </trkpt>
      <trkpt lat="47.630114" lon="7.683752">
        <ele>310.871236</ele>
        <time>2021-08-16T20:38:31.913Z</time>
      </trkpt>
      <trkpt lat="47.629964" lon="7.683492">
        <ele>311.211233</ele>
        <time>2021-08-16T20:38:37.592Z</time>
      </trkpt>
      <trkpt lat="47.629502" lon="7.682853">
        <ele>312.172967</ele>
        <time>2021-08-16T20:38:54.522Z</time>
      </trkpt>
      <trkpt lat="47.629225" lon="7.682524">
        <ele>312.719677</ele>
        <time>2021-08-16T20:39:03.171Z</time>
      </trkpt>
      <trkpt lat="47.629074" lon="7.682346">
        <ele>313.016832</ele>
        <time>2021-08-16T20:39:06.634Z</time>
      </trkpt>
      <trkpt lat="47.629021" lon="7.682285">
        <ele>313.120185</ele>
        <time>2021-08-16T20:39:07.745Z</time>
      </trkpt>
      <trkpt lat="47.628926" lon="7.682175">
        <ele>313.305861</ele>
        <time>2021-08-16T20:39:10.398Z</time>
      </trkpt>
      <trkpt lat="47.628800" lon="7.682032">
        <ele>313.550288</ele>
        <time>2021-08-16T20:39:13.711Z</time>
      </trkpt>
      <trkpt lat="47.628745" lon="7.681969">
        <ele>313.657349</ele>
        <time>2021-08-16T20:39:14.627Z</time>
      </trkpt>
      <trkpt lat="47.628705" lon="7.681923">
        <ele>313.735327</ele>
        <time>2021-08-16T20:39:15.853Z</time>
      </trkpt>
      <trkpt lat="47.628589" lon="7.681765">
        <ele>313.977954</ele>
        <time>2021-08-16T20:39:18.648Z</time>
      </trkpt>
      <trkpt lat="47.628285" lon="7.681330">
        <ele>313.664107</ele>
        <time>2021-08-16T20:39:25.349Z</time>
      </trkpt>
      <trkpt lat="47.628181" lon="7.681165">
        <ele>313.323797</ele>
        <time>2021-08-16T20:39:27.339Z</time>
      </trkpt>
      <trkpt lat="47.628138" lon="7.681041">
        <ele>313.113733</ele>
        <time>2021-08-16T20:39:28.354Z</time>
      </trkpt>
      <trkpt lat="47.628093" lon="7.680912">
        <ele>312.894925</ele>
        <time>2021-08-16T20:39:29.778Z</time>
      </trkpt>
      <trkpt lat="47.628083" lon="7.680843">
        <ele>312.788611</ele>
        <time>2021-08-16T20:39:30.244Z</time>
      </trkpt>
      <trkpt lat="47.628092" lon="7.680801">
        <ele>312.722223</ele>
        <time>2021-08-16T20:39:30.546Z</time>
      </trkpt>
      <trkpt lat="47.628094" lon="7.680756">
        <ele>312.654290</ele>
        <time>2021-08-16T20:39:30.867Z</time>
      </trkpt>
      <trkpt lat="47.628088" lon="7.680711">
        <ele>312.585190</ele>
        <time>2021-08-16T20:39:31.255Z</time>
      </trkpt>
      <trkpt lat="47.628030" lon="7.680605">
        <ele>312.379517</ele>
        <time>2021-08-16T20:39:32.390Z</time>
      </trkpt>
      <trkpt lat="47.628001" lon="7.680587">
        <ele>312.309255</ele>
        <time>2021-08-16T20:39:32.675Z</time>
      </trkpt>
      <trkpt lat="47.627968" lon="7.680581">
        <ele>312.234944</ele>
        <time>2021-08-16T20:39:33.052Z</time>
      </trkpt>
      <trkpt lat="47.627935" lon="7.680589">
        <ele>312.160206</ele>
        <time>2021-08-16T20:39:33.413Z</time>
      </trkpt>
      <trkpt lat="47.627905" lon="7.680608">
        <ele>312.087299</ele>
        <time>2021-08-16T20:39:33.790Z</time>
      </trkpt>
      <trkpt lat="47.627860" lon="7.680600">
        <ele>311.985998</ele>
        <time>2021-08-16T20:39:34.208Z</time>
      </trkpt>
      <trkpt lat="47.627797" lon="7.680564">
        <ele>311.835103</ele>
        <time>2021-08-16T20:39:34.853Z</time>
      </trkpt>
      <trkpt lat="47.627709" lon="7.680520">
        <ele>311.627544</ele>
        <time>2021-08-16T20:39:35.994Z</time>
      </trkpt>
      <trkpt lat="47.627657" lon="7.680455">
        <ele>311.475570</ele>
        <time>2021-08-16T20:39:36.645Z</time>
      </trkpt>
      <trkpt lat="47.627438" lon="7.680175">
        <ele>310.829422</ele>
        <time>2021-08-16T20:39:39.455Z</time>
      </trkpt>
      <trkpt lat="47.627263" lon="7.679924">
        <ele>310.285403</ele>
        <time>2021-08-16T20:39:41.785Z</time>
      </trkpt>
      <trkpt lat="47.626895" lon="7.679366">
        <ele>308.954922</ele>
        <time>2021-08-16T20:39:47.060Z</time>
      </trkpt>
      <trkpt lat="47.626749" lon="7.679157">
        <ele>308.438136</ele>
        <time>2021-08-16T20:39:49.224Z</time>
      </trkpt>
      <trkpt lat="47.626628" lon="7.678990">
        <ele>308.017174</ele>
        <time>2021-08-16T20:39:51.181Z</time>
      </trkpt>
      <trkpt lat="47.626529" lon="7.678853">
        <ele>307.672326</ele>
        <time>2021-08-16T20:39:52.544Z</time>
      </trkpt>
      <trkpt lat="47.626402" lon="7.678661">
        <ele>307.210462</ele>
        <time>2021-08-16T20:39:54.522Z</time>
      </trkpt>
      <trkpt lat="47.626380" lon="7.678630">
        <ele>307.133175</ele>
        <time>2021-08-16T20:39:54.954Z</time>
      </trkpt>
      <trkpt lat="47.625998" lon="7.678087">
        <ele>305.785590</ele>
        <time>2021-08-16T20:40:00.627Z</time>
      </trkpt>
      <trkpt lat="47.625812" lon="7.677851">
        <ele>305.433004</ele>
        <time>2021-08-16T20:40:03.480Z</time>
      </trkpt>
      <trkpt lat="47.625709" lon="7.677735">
        <ele>305.293061</ele>
        <time>2021-08-16T20:40:04.863Z</time>
      </trkpt>
      <trkpt lat="47.625653" lon="7.677673">
        <ele>305.217444</ele>
        <time>2021-08-16T20:40:05.646Z</time>
      </trkpt>
      <trkpt lat="47.625095" lon="7.677184">
        <ele>304.516100</ele>
        <time>2021-08-16T20:40:14.168Z</time>
      </trkpt>
      <trkpt lat="47.624807" lon="7.676975">
        <ele>304.169138</ele>
        <time>2021-08-16T20:40:18.238Z</time>
      </trkpt>
      <trkpt lat="47.624714" lon="7.676908">
        <ele>304.057254</ele>
        <time>2021-08-16T20:40:19.588Z</time>
      </trkpt>
      <trkpt lat="47.624516" lon="7.676765">
        <ele>303.818937</ele>
        <time>2021-08-16T20:40:22.268Z</time>
      </trkpt>
      <trkpt lat="47.624297" lon="7.676607">
        <ele>303.563479</ele>
        <time>2021-08-16T20:40:25.149Z</time>
      </trkpt>
      <trkpt lat="47.624001" lon="7.676393">
        <ele>303.229097</ele>
        <time>2021-08-16T20:40:29.092Z</time>
      </trkpt>
      <trkpt lat="47.623761" lon="7.676203">
        <ele>302.952847</ele>
        <time>2021-08-16T20:40:32.371Z</time>
      </trkpt>
      <trkpt lat="47.623580" lon="7.676054">
        <ele>302.742641</ele>
        <time>2021-08-16T20:40:34.835Z</time>
      </trkpt>
      <trkpt lat="47.623515" lon="7.675999">
        <ele>302.666651</ele>
        <time>2021-08-16T20:40:35.710Z</time>
      </trkpt>
      <trkpt lat="47.623419" lon="7.675918">
        <ele>302.554500</ele>
        <time>2021-08-16T20:40:37.160Z</time>
      </trkpt>
      <trkpt lat="47.623262" lon="7.675787">
        <ele>302.371579</ele>
        <time>2021-08-16T20:40:39.359Z</time>
      </trkpt>
      <trkpt lat="47.623130" lon="7.675680">
        <ele>302.218828</ele>
        <time>2021-08-16T20:40:41.280Z</time>
      </trkpt>
      <trkpt lat="47.622947" lon="7.675522">
        <ele>302.003812</ele>
        <time>2021-08-16T20:40:43.887Z</time>
      </trkpt>
      <trkpt lat="47.622868" lon="7.675447">
        <ele>301.908567</ele>
        <time>2021-08-16T20:40:45.065Z</time>
      </trkpt>
      <trkpt lat="47.622802" lon="7.675385">
        <ele>301.842502</ele>
        <time>2021-08-16T20:40:46.096Z</time>
      </trkpt>
      <trkpt lat="47.622703" lon="7.675292">
        <ele>301.774864</ele>
        <time>2021-08-16T20:40:47.528Z</time>
      </trkpt>
      <trkpt lat="47.622655" lon="7.675244">
        <ele>301.741450</ele>
        <time>2021-08-16T20:40:48.230Z</time>
      </trkpt>
      <trkpt lat="47.622571" lon="7.675156">
        <ele>301.682093</ele>
        <time>2021-08-16T20:40:49.499Z</time>
      </trkpt>
      <trkpt lat="47.622559" lon="7.675142">
        <ele>301.673281</ele>
        <time>2021-08-16T20:40:49.703Z</time>
      </trkpt>
      <trkpt lat="47.622475" lon="7.675050">
        <ele>301.613013</ele>
        <time>2021-08-16T20:40:51.017Z</time>
      </trkpt>
      <trkpt lat="47.622300" lon="7.674850">
        <ele>301.485502</ele>
        <time>2021-08-16T20:40:53.694Z</time>
      </trkpt>
      <trkpt lat="47.622083" lon="7.674597">
        <ele>301.326193</ele>
        <time>2021-08-16T20:40:57.274Z</time>
      </trkpt>
      <trkpt lat="47.621973" lon="7.674471">
        <ele>301.245975</ele>
        <time>2021-08-16T20:40:59.130Z</time>
      </trkpt>
      <trkpt lat="47.621734" lon="7.674211">
        <ele>301.074903</ele>
        <time>2021-08-16T20:41:03.170Z</time>
      </trkpt>
      <trkpt lat="47.621516" lon="7.673947">
        <ele>300.912468</ele>
        <time>2021-08-16T20:41:07.093Z</time>
      </trkpt>
      <trkpt lat="47.621491" lon="7.673917">
        <ele>300.893908</ele>
        <time>2021-08-16T20:41:07.558Z</time>
      </trkpt>
      <trkpt lat="47.621262" lon="7.673623">
        <ele>300.737453</ele>
        <time>2021-08-16T20:41:11.873Z</time>
      </trkpt>
      <trkpt lat="47.621214" lon="7.673557">
        <ele>300.706431</ele>
        <time>2021-08-16T20:41:12.805Z</time>
      </trkpt>
      <trkpt lat="47.620997" lon="7.673228">
        <ele>300.559361</ele>
        <time>2021-08-16T20:41:17.281Z</time>
      </trkpt>
      <trkpt lat="47.620916" lon="7.673105">
        <ele>300.504420</ele>
        <time>2021-08-16T20:41:18.940Z</time>
      </trkpt>
      <trkpt lat="47.620464" lon="7.672371">
        <ele>300.186770</ele>
        <time>2021-08-16T20:41:27.803Z</time>
      </trkpt>
      <trkpt lat="47.620167" lon="7.671976">
        <ele>299.997702</ele>
        <time>2021-08-16T20:41:32.778Z</time>
      </trkpt>
      <trkpt lat="47.620025" lon="7.671810">
        <ele>299.905135</ele>
        <time>2021-08-16T20:41:34.998Z</time>
      </trkpt>
      <trkpt lat="47.619893" lon="7.671674">
        <ele>299.819796</ele>
        <time>2021-08-16T20:41:37.042Z</time>
      </trkpt>
      <trkpt lat="47.619773" lon="7.671561">
        <ele>299.744323</ele>
        <time>2021-08-16T20:41:38.805Z</time>
      </trkpt>
      <trkpt lat="47.619708" lon="7.671503">
        <ele>299.704045</ele>
        <time>2021-08-16T20:41:39.795Z</time>
      </trkpt>
      <trkpt lat="47.619553" lon="7.671367">
        <ele>299.608420</ele>
        <time>2021-08-16T20:41:42.203Z</time>
      </trkpt>
      <trkpt lat="47.619506" lon="7.671328">
        <ele>299.579824</ele>
        <time>2021-08-16T20:41:42.829Z</time>
      </trkpt>
      <trkpt lat="47.619107" lon="7.671001">
        <ele>299.337770</ele>
        <time>2021-08-16T20:41:49.006Z</time>
      </trkpt>
      <trkpt lat="47.618999" lon="7.670916">
        <ele>299.272850</ele>
        <time>2021-08-16T20:41:50.709Z</time>
      </trkpt>
      <trkpt lat="47.618817" lon="7.670768">
        <ele>299.162640</ele>
        <time>2021-08-16T20:41:53.547Z</time>
      </trkpt>
      <trkpt lat="47.618553" lon="7.670552">
        <ele>299.009059</ele>
        <time>2021-08-16T20:41:57.648Z</time>
      </trkpt>
      <trkpt lat="47.617447" lon="7.669640">
        <ele>298.717583</ele>
        <time>2021-08-16T20:42:15.157Z</time>
      </trkpt>
      <trkpt lat="47.617172" lon="7.669395">
        <ele>298.643692</ele>
        <time>2021-08-16T20:42:19.990Z</time>
      </trkpt>
      <trkpt lat="47.617124" lon="7.669350">
        <ele>298.630612</ele>
        <time>2021-08-16T20:42:20.745Z</time>
      </trkpt>
      <trkpt lat="47.616952" lon="7.669189">
        <ele>298.578849</ele>
        <time>2021-08-16T20:42:23.840Z</time>
      </trkpt>
      <trkpt lat="47.616909" lon="7.669149">
        <ele>298.563559</ele>
        <time>2021-08-16T20:42:24.499Z</time>
      </trkpt>
      <trkpt lat="47.616826" lon="7.669068">
        <ele>298.533629</ele>
        <time>2021-08-16T20:42:25.855Z</time>
      </trkpt>
      <trkpt lat="47.616672" lon="7.668910">
        <ele>298.477221</ele>
        <time>2021-08-16T20:42:28.562Z</time>
      </trkpt>
      <trkpt lat="47.616431" lon="7.668644">
        <ele>298.386728</ele>
        <time>2021-08-16T20:42:32.696Z</time>
      </trkpt>
      <trkpt lat="47.616276" lon="7.668438">
        <ele>298.324034</ele>
        <time>2021-08-16T20:42:35.536Z</time>
      </trkpt>
      <trkpt lat="47.616136" lon="7.668205">
        <ele>298.260649</ele>
        <time>2021-08-16T20:42:38.419Z</time>
      </trkpt>
      <trkpt lat="47.615885" lon="7.667765">
        <ele>298.143595</ele>
        <time>2021-08-16T20:42:43.677Z</time>
      </trkpt>
      <trkpt lat="47.615626" lon="7.667312">
        <ele>298.019252</ele>
        <time>2021-08-16T20:42:49.115Z</time>
      </trkpt>
      <trkpt lat="47.615419" lon="7.666959">
        <ele>297.914126</ele>
        <time>2021-08-16T20:42:53.395Z</time>
      </trkpt>
      <trkpt lat="47.615411" lon="7.666948">
        <ele>297.910490</ele>
        <time>2021-08-16T20:42:53.603Z</time>
      </trkpt>
      <trkpt lat="47.615325" lon="7.666835">
        <ele>297.872197</ele>
        <time>2021-08-16T20:42:55.118Z</time>
      </trkpt>
      <trkpt lat="47.615228" lon="7.666743">
        <ele>297.833821</ele>
        <time>2021-08-16T20:42:56.647Z</time>
      </trkpt>
      <trkpt lat="47.614785" lon="7.666441">
        <ele>297.671315</ele>
        <time>2021-08-16T20:43:03.288Z</time>
      </trkpt>
      <trkpt lat="47.614712" lon="7.666390">
        <ele>297.644420</ele>
        <time>2021-08-16T20:43:04.364Z</time>
      </trkpt>
      <trkpt lat="47.614013" lon="7.665917">
        <ele>297.436111</ele>
        <time>2021-08-16T20:43:15.137Z</time>
      </trkpt>
      <trkpt lat="47.613722" lon="7.665706">
        <ele>297.401810</ele>
        <time>2021-08-16T20:43:19.641Z</time>
      </trkpt>
      <trkpt lat="47.613539" lon="7.665576">
        <ele>297.380324</ele>
        <time>2021-08-16T20:43:22.533Z</time>
      </trkpt>
      <trkpt lat="47.612606" lon="7.664924">
        <ele>297.271107</ele>
        <time>2021-08-16T20:43:37.470Z</time>
      </trkpt>
      <trkpt lat="47.612536" lon="7.664871">
        <ele>297.269233</ele>
        <time>2021-08-16T20:43:38.686Z</time>
      </trkpt>
      <trkpt lat="47.612247" lon="7.664612">
        <ele>297.278663</ele>
        <time>2021-08-16T20:43:43.993Z</time>
      </trkpt>
      <trkpt lat="47.611599" lon="7.664012">
        <ele>297.299999</ele>
        <time>2021-08-16T20:43:55.864Z</time>
      </trkpt>
      <trkpt lat="47.611531" lon="7.663949">
        <ele>297.302238</ele>
        <time>2021-08-16T20:43:57.151Z</time>
      </trkpt>
      <trkpt lat="47.611165" lon="7.663611">
        <ele>297.314280</ele>
        <time>2021-08-16T20:44:03.632Z</time>
      </trkpt>
      <trkpt lat="47.611024" lon="7.663484">
        <ele>297.296728</ele>
        <time>2021-08-16T20:44:05.895Z</time>
      </trkpt>
      <trkpt lat="47.610806" lon="7.663293">
        <ele>297.098590</ele>
        <time>2021-08-16T20:44:09.414Z</time>
      </trkpt>
      <trkpt lat="47.610579" lon="7.663127">
        <ele>296.900532</ele>
        <time>2021-08-16T20:44:12.794Z</time>
      </trkpt>
      <trkpt lat="47.609963" lon="7.662702">
        <ele>296.368873</ele>
        <time>2021-08-16T20:44:21.385Z</time>
      </trkpt>
      <trkpt lat="47.609915" lon="7.662668">
        <ele>296.327247</ele>
        <time>2021-08-16T20:44:22.035Z</time>
      </trkpt>
      <trkpt lat="47.609113" lon="7.662130">
        <ele>295.423762</ele>
        <time>2021-08-16T20:44:32.437Z</time>
      </trkpt>
      <trkpt lat="47.608917" lon="7.661990">
        <ele>295.119232</ele>
        <time>2021-08-16T20:44:34.922Z</time>
      </trkpt>
      <trkpt lat="47.608741" lon="7.661878">
        <ele>294.851138</ele>
        <time>2021-08-16T20:44:37.120Z</time>
      </trkpt>
      <trkpt lat="47.608437" lon="7.661667">
        <ele>294.381291</ele>
        <time>2021-08-16T20:44:40.959Z</time>
      </trkpt>
      <trkpt lat="47.608133" lon="7.661491">
        <ele>293.924463</ele>
        <time>2021-08-16T20:44:44.685Z</time>
      </trkpt>
      <trkpt lat="47.607940" lon="7.661391">
        <ele>293.638279</ele>
        <time>2021-08-16T20:44:47.028Z</time>
      </trkpt>
      <trkpt lat="47.607741" lon="7.661304">
        <ele>293.369592</ele>
        <time>2021-08-16T20:44:49.464Z</time>
      </trkpt>
      <trkpt lat="47.606949" lon="7.661049">
        <ele>292.784963</ele>
        <time>2021-08-16T20:44:59.404Z</time>
      </trkpt>
      <trkpt lat="47.606942" lon="7.661047">
        <ele>292.779821</ele>
        <time>2021-08-16T20:44:59.480Z</time>
      </trkpt>
      <trkpt lat="47.606818" lon="7.661012">
        <ele>292.688766</ele>
        <time>2021-08-16T20:45:01.094Z</time>
      </trkpt>
      <trkpt lat="47.606614" lon="7.660942">
        <ele>292.537720</ele>
        <time>2021-08-16T20:45:03.865Z</time>
      </trkpt>
      <trkpt lat="47.606500" lon="7.660902">
        <ele>292.453214</ele>
        <time>2021-08-16T20:45:05.344Z</time>
      </trkpt>
      <trkpt lat="47.606204" lon="7.660795">
        <ele>292.233439</ele>
        <time>2021-08-16T20:45:09.567Z</time>
      </trkpt>
      <trkpt lat="47.605816" lon="7.660661">
        <ele>292.076652</ele>
        <time>2021-08-16T20:45:15.336Z</time>
      </trkpt>
      <trkpt lat="47.604904" lon="7.660362">
        <ele>291.992785</ele>
        <time>2021-08-16T20:45:29.581Z</time>
      </trkpt>
      <trkpt lat="47.603636" lon="7.659974">
        <ele>291.583769</ele>
        <time>2021-08-16T20:45:47.554Z</time>
      </trkpt>
      <trkpt lat="47.603051" lon="7.659788">
        <ele>291.255010</ele>
        <time>2021-08-16T20:45:55.280Z</time>
      </trkpt>
      <trkpt lat="47.602311" lon="7.659552">
        <ele>290.742916</ele>
        <time>2021-08-16T20:46:04.917Z</time>
      </trkpt>
      <trkpt lat="47.602332" lon="7.659437">
        <ele>290.658827</ele>
        <time>2021-08-16T20:46:06.389Z</time>
      </trkpt>
      <trkpt lat="47.602341" lon="7.659389">
        <ele>290.623664</ele>
        <time>2021-08-16T20:46:06.976Z</time>
      </trkpt>
      <trkpt lat="47.602359" lon="7.659337">
        <ele>290.582410</ele>
        <time>2021-08-16T20:46:07.653Z</time>
      </trkpt>
      <trkpt lat="47.602426" lon="7.659170">
        <ele>290.445258</ele>
        <time>2021-08-16T20:46:09.899Z</time>
      </trkpt>
      <trkpt lat="47.602476" lon="7.659051">
        <ele>290.346298</ele>
        <time>2021-08-16T20:46:11.532Z</time>
      </trkpt>
      <trkpt lat="47.602304" lon="7.659045">
        <ele>290.166210</ele>
        <time>2021-08-16T20:46:13.653Z</time>
      </trkpt>
      <trkpt lat="47.602297" lon="7.659045">
        <ele>290.158883</ele>
        <time>2021-08-16T20:46:13.737Z</time>
      </trkpt>
      <trkpt lat="47.602229" lon="7.659035">
        <ele>290.087357</ele>
        <time>2021-08-16T20:46:14.556Z</time>
      </trkpt>
      <trkpt lat="47.602062" lon="7.659000">
        <ele>289.910816</ele>
        <time>2021-08-16T20:46:16.627Z</time>
      </trkpt>
      <trkpt lat="47.601982" lon="7.658982">
        <ele>289.826119</ele>
        <time>2021-08-16T20:46:17.606Z</time>
      </trkpt>
      <trkpt lat="47.601869" lon="7.658957">
        <ele>289.706530</ele>
        <time>2021-08-16T20:46:18.970Z</time>
      </trkpt>
      <trkpt lat="47.601794" lon="7.658938">
        <ele>289.626888</ele>
        <time>2021-08-16T20:46:19.882Z</time>
      </trkpt>
      <trkpt lat="47.601679" lon="7.658901">
        <ele>289.503713</ele>
        <time>2021-08-16T20:46:21.350Z</time>
      </trkpt>
      <trkpt lat="47.601528" lon="7.658844">
        <ele>289.340617</ele>
        <time>2021-08-16T20:46:23.121Z</time>
      </trkpt>
      <trkpt lat="47.601431" lon="7.658802">
        <ele>289.234846</ele>
        <time>2021-08-16T20:46:24.349Z</time>
      </trkpt>
      <trkpt lat="47.601339" lon="7.658752">
        <ele>289.132284</ele>
        <time>2021-08-16T20:46:25.591Z</time>
      </trkpt>
      <trkpt lat="47.601123" lon="7.658631">
        <ele>288.816223</ele>
        <time>2021-08-16T20:46:28.263Z</time>
      </trkpt>
      <trkpt lat="47.600788" lon="7.658434">
        <ele>288.275963</ele>
        <time>2021-08-16T20:46:32.474Z</time>
      </trkpt>
      <trkpt lat="47.600706" lon="7.658386">
        <ele>288.143802</ele>
        <time>2021-08-16T20:46:33.534Z</time>
      </trkpt>
      <trkpt lat="47.600457" lon="7.658210">
        <ele>287.730280</ele>
        <time>2021-08-16T20:46:36.626Z</time>
      </trkpt>
      <trkpt lat="47.600347" lon="7.658109">
        <ele>287.536325</ele>
        <time>2021-08-16T20:46:38.112Z</time>
      </trkpt>
      <trkpt lat="47.600237" lon="7.657982">
        <ele>287.327335</ele>
        <time>2021-08-16T20:46:39.601Z</time>
      </trkpt>
      <trkpt lat="47.600081" lon="7.657782">
        <ele>287.018190</ele>
        <time>2021-08-16T20:46:41.962Z</time>
      </trkpt>
      <trkpt lat="47.600024" lon="7.657710">
        <ele>286.905943</ele>
        <time>2021-08-16T20:46:42.756Z</time>
      </trkpt>
      <trkpt lat="47.599730" lon="7.657334">
        <ele>286.354525</ele>
        <time>2021-08-16T20:46:47.138Z</time>
      </trkpt>
      <trkpt lat="47.599571" lon="7.657123">
        <ele>286.266107</ele>
        <time>2021-08-16T20:46:49.813Z</time>
      </trkpt>
      <trkpt lat="47.599337" lon="7.656839">
        <ele>286.140803</ele>
        <time>2021-08-16T20:46:53.677Z</time>
      </trkpt>
      <trkpt lat="47.599249" lon="7.656747">
        <ele>286.096185</ele>
        <time>2021-08-16T20:46:55.264Z</time>
      </trkpt>
      <trkpt lat="47.599155" lon="7.656670">
        <ele>286.051684</ele>
        <time>2021-08-16T20:46:56.568Z</time>
      </trkpt>
      <trkpt lat="47.598889" lon="7.656503">
        <ele>285.931983</ele>
        <time>2021-08-16T20:47:00.906Z</time>
      </trkpt>
      <trkpt lat="47.598785" lon="7.656466">
        <ele>285.887662</ele>
        <time>2021-08-16T20:47:02.313Z</time>
      </trkpt>
      <trkpt lat="47.598761" lon="7.656462">
        <ele>285.877654</ele>
        <time>2021-08-16T20:47:02.833Z</time>
      </trkpt>
      <trkpt lat="47.598548" lon="7.656425">
        <ele>285.788783</ele>
        <time>2021-08-16T20:47:06.093Z</time>
      </trkpt>
      <trkpt lat="47.598449" lon="7.656408">
        <ele>285.747483</ele>
        <time>2021-08-16T20:47:07.979Z</time>
      </trkpt>
      <trkpt lat="47.598238" lon="7.656377">
        <ele>285.659617</ele>
        <time>2021-08-16T20:47:11.332Z</time>
      </trkpt>
      <trkpt lat="47.597885" lon="7.656326">
        <ele>285.571563</ele>
        <time>2021-08-16T20:47:16.700Z</time>
      </trkpt>
      <trkpt lat="47.597491" lon="7.656278">
        <ele>285.496942</ele>
        <time>2021-08-16T20:47:22.802Z</time>
      </trkpt>
      <trkpt lat="47.597222" lon="7.656232">
        <ele>285.445830</ele>
        <time>2021-08-16T20:47:26.962Z</time>
      </trkpt>
      <trkpt lat="47.596976" lon="7.656181">
        <ele>285.398944</ele>
        <time>2021-08-16T20:47:30.769Z</time>
      </trkpt>
      <trkpt lat="47.596750" lon="7.656124">
        <ele>285.355672</ele>
        <time>2021-08-16T20:47:34.018Z</time>
      </trkpt>
      <trkpt lat="47.596559" lon="7.656069">
        <ele>285.318946</ele>
        <time>2021-08-16T20:47:36.509Z</time>
      </trkpt>
      <trkpt lat="47.596394" lon="7.656019">
        <ele>285.287157</ele>
        <time>2021-08-16T20:47:38.599Z</time>
      </trkpt>
      <trkpt lat="47.596331" lon="7.655998">
        <ele>285.242160</ele>
        <time>2021-08-16T20:47:39.385Z</time>
      </trkpt>
      <trkpt lat="47.596264" lon="7.655978">
        <ele>285.162890</ele>
        <time>2021-08-16T20:47:40.213Z</time>
      </trkpt>
      <trkpt lat="47.596169" lon="7.655952">
        <ele>285.050842</ele>
        <time>2021-08-16T20:47:41.371Z</time>
      </trkpt>
      <trkpt lat="47.596135" lon="7.655942">
        <ele>285.010638</ele>
        <time>2021-08-16T20:47:41.794Z</time>
      </trkpt>
      <trkpt lat="47.595856" lon="7.655854">
        <ele>284.679798</ele>
        <time>2021-08-16T20:47:45.219Z</time>
      </trkpt>
      <trkpt lat="47.595834" lon="7.655892">
        <ele>284.640625</ele>
        <time>2021-08-16T20:47:48.936Z</time>
      </trkpt>
      <trkpt lat="47.595738" lon="7.656073">
        <ele>284.460512</ele>
        <time>2021-08-16T20:48:05.536Z</time>
      </trkpt>
      <trkpt lat="47.595725" lon="7.656080">
        <ele>284.444471</ele>
        <time>2021-08-16T20:48:07.042Z</time>
      </trkpt>
      <trkpt lat="47.595725" lon="7.656080">
        <ele>284.444471</ele>
        <time>2021-08-16T20:48:07.119Z</time>
      </trkpt>
      <trkpt lat="47.595725" lon="7.656080">
        <ele>284.444471</ele>
        <time>2021-08-16T20:48:07.163Z</time>
      </trkpt>
      <trkpt lat="47.595738" lon="7.656073">
        <ele>284.428429</ele>
        <time>2021-08-16T20:48:08.627Z</time>
      </trkpt>
      <trkpt lat="47.595834" lon="7.655892">
        <ele>284.248317</ele>
        <time>2021-08-16T20:48:25.254Z</time>
      </trkpt>
      <trkpt lat="47.595856" lon="7.655854">
        <ele>284.209144</ele>
        <time>2021-08-16T20:48:28.954Z</time>
      </trkpt>
      <trkpt lat="47.595737" lon="7.655809">
        <ele>284.066703</ele>
        <time>2021-08-16T20:48:30.350Z</time>
      </trkpt>
      <trkpt lat="47.595595" lon="7.655746">
        <ele>283.894789</ele>
        <time>2021-08-16T20:48:32.109Z</time>
      </trkpt>
      <trkpt lat="47.595589" lon="7.655744">
        <ele>283.887656</ele>
        <time>2021-08-16T20:48:32.174Z</time>
      </trkpt>
      <trkpt lat="47.595444" lon="7.655671">
        <ele>283.710048</ele>
        <time>2021-08-16T20:48:33.933Z</time>
      </trkpt>
      <trkpt lat="47.595386" lon="7.655638">
        <ele>283.637994</ele>
        <time>2021-08-16T20:48:34.668Z</time>
      </trkpt>
      <trkpt lat="47.595330" lon="7.655577">
        <ele>283.557400</ele>
        <time>2021-08-16T20:48:35.490Z</time>
      </trkpt>
      <trkpt lat="47.595281" lon="7.655528">
        <ele>283.488852</ele>
        <time>2021-08-16T20:48:36.184Z</time>
      </trkpt>
      <trkpt lat="47.595271" lon="7.655520">
        <ele>283.475673</ele>
        <time>2021-08-16T20:48:36.318Z</time>
      </trkpt>
      <trkpt lat="47.595207" lon="7.655485">
        <ele>283.396554</ele>
        <time>2021-08-16T20:48:37.135Z</time>
      </trkpt>
      <trkpt lat="47.595193" lon="7.655479">
        <ele>283.379652</ele>
        <time>2021-08-16T20:48:37.321Z</time>
      </trkpt>
      <trkpt lat="47.595112" lon="7.655445">
        <ele>283.282012</ele>
        <time>2021-08-16T20:48:38.256Z</time>
      </trkpt>
      <trkpt lat="47.594945" lon="7.655371">
        <ele>283.079772</ele>
        <time>2021-08-16T20:48:40.330Z</time>
      </trkpt>
      <trkpt lat="47.594880" lon="7.655360">
        <ele>283.003839</ele>
        <time>2021-08-16T20:48:41.108Z</time>
      </trkpt>
      <trkpt lat="47.594828" lon="7.655365">
        <ele>282.943358</ele>
        <time>2021-08-16T20:48:41.762Z</time>
      </trkpt>
      <trkpt lat="47.594495" lon="7.655153">
        <ele>282.522742</ele>
        <time>2021-08-16T20:48:46.119Z</time>
      </trkpt>
      <trkpt lat="47.594429" lon="7.655104">
        <ele>282.437073</ele>
        <time>2021-08-16T20:48:46.939Z</time>
      </trkpt>
      <trkpt lat="47.594381" lon="7.655065">
        <ele>282.373547</ele>
        <time>2021-08-16T20:48:47.620Z</time>
      </trkpt>
      <trkpt lat="47.594170" lon="7.654900">
        <ele>282.096679</ele>
        <time>2021-08-16T20:48:50.543Z</time>
      </trkpt>
      <trkpt lat="47.594145" lon="7.654879">
        <ele>282.063331</ele>
        <time>2021-08-16T20:48:50.854Z</time>
      </trkpt>
      <trkpt lat="47.593984" lon="7.654754">
        <ele>281.852399</ele>
        <time>2021-08-16T20:48:53.088Z</time>
      </trkpt>
      <trkpt lat="47.593873" lon="7.654670">
        <ele>281.707758</ele>
        <time>2021-08-16T20:48:54.655Z</time>
      </trkpt>
      <trkpt lat="47.593572" lon="7.654436">
        <ele>281.313297</ele>
        <time>2021-08-16T20:48:58.716Z</time>
      </trkpt>
      <trkpt lat="47.592851" lon="7.653875">
        <ele>280.641223</ele>
        <time>2021-08-16T20:49:08.444Z</time>
      </trkpt>
      <trkpt lat="47.592712" lon="7.653764">
        <ele>280.525641</ele>
        <time>2021-08-16T20:49:10.388Z</time>
      </trkpt>
      <trkpt lat="47.592636" lon="7.653708">
        <ele>280.463510</ele>
        <time>2021-08-16T20:49:11.476Z</time>
      </trkpt>
      <trkpt lat="47.592555" lon="7.653646">
        <ele>280.396775</ele>
        <time>2021-08-16T20:49:12.634Z</time>
      </trkpt>
      <trkpt lat="47.592362" lon="7.653496">
        <ele>280.237246</ele>
        <time>2021-08-16T20:49:15.415Z</time>
      </trkpt>
      <trkpt lat="47.591654" lon="7.652954">
        <ele>279.837498</ele>
        <time>2021-08-16T20:49:26.348Z</time>
      </trkpt>
      <trkpt lat="47.591530" lon="7.652877">
        <ele>279.871120</ele>
        <time>2021-08-16T20:49:28.149Z</time>
      </trkpt>
      <trkpt lat="47.590010" lon="7.652008">
        <ele>280.427313</ele>
        <time>2021-08-16T20:49:54.385Z</time>
      </trkpt>
      <trkpt lat="47.589928" lon="7.651967">
        <ele>280.533775</ele>
        <time>2021-08-16T20:49:56.182Z</time>
      </trkpt>
      <trkpt lat="47.589780" lon="7.651919">
        <ele>280.720156</ele>
        <time>2021-08-16T20:49:59.372Z</time>
      </trkpt>
      <trkpt lat="47.589781" lon="7.651886">
        <ele>280.747565</ele>
        <time>2021-08-16T20:49:59.729Z</time>
      </trkpt>
      <trkpt lat="47.589777" lon="7.651850">
        <ele>280.777838</ele>
        <time>2021-08-16T20:50:00.160Z</time>
      </trkpt>
      <trkpt lat="47.589765" lon="7.651816">
        <ele>280.809677</ele>
        <time>2021-08-16T20:50:00.774Z</time>
      </trkpt>
      <trkpt lat="47.589746" lon="7.651789">
        <ele>280.842054</ele>
        <time>2021-08-16T20:50:01.293Z</time>
      </trkpt>
      <trkpt lat="47.589721" lon="7.651769">
        <ele>280.877001</ele>
        <time>2021-08-16T20:50:01.759Z</time>
      </trkpt>
      <trkpt lat="47.589678" lon="7.651770">
        <ele>280.929909</ele>
        <time>2021-08-16T20:50:02.659Z</time>
      </trkpt>
      <trkpt lat="47.589561" lon="7.651773">
        <ele>281.073869</ele>
        <time>2021-08-16T20:50:05.115Z</time>
      </trkpt>
      <trkpt lat="47.589561" lon="7.651773">
        <ele>281.073869</ele>
        <time>2021-08-16T20:50:05.129Z</time>
      </trkpt>
      <trkpt lat="47.589561" lon="7.651773">
        <ele>281.073869</ele>
        <time>2021-08-16T20:50:05.143Z</time>
      </trkpt>
      <trkpt lat="47.588931" lon="7.651783">
        <ele>281.848969</ele>
        <time>2021-08-16T20:50:17.613Z</time>
      </trkpt>
      <trkpt lat="47.588813" lon="7.651789">
        <ele>281.994224</ele>
        <time>2021-08-16T20:50:20.179Z</time>
      </trkpt>
      <trkpt lat="47.588740" lon="7.651854">
        <ele>282.098982</ele>
        <time>2021-08-16T20:50:21.677Z</time>
      </trkpt>
      <trkpt lat="47.588728" lon="7.651880">
        <ele>282.125123</ele>
        <time>2021-08-16T20:50:22.191Z</time>
      </trkpt>
      <trkpt lat="47.588724" lon="7.651903">
        <ele>282.144831</ele>
        <time>2021-08-16T20:50:22.520Z</time>
      </trkpt>
      <trkpt lat="47.588747" lon="7.651995">
        <ele>282.226243</ele>
        <time>2021-08-16T20:50:23.660Z</time>
      </trkpt>
      <trkpt lat="47.588765" lon="7.652012">
        <ele>282.252498</ele>
        <time>2021-08-16T20:50:24.121Z</time>
      </trkpt>
      <trkpt lat="47.588744" lon="7.652087">
        <ele>282.319878</ele>
        <time>2021-08-16T20:50:25.354Z</time>
      </trkpt>
      <trkpt lat="47.588725" lon="7.652146">
        <ele>282.374127</ele>
        <time>2021-08-16T20:50:26.398Z</time>
      </trkpt>
      <trkpt lat="47.588671" lon="7.652280">
        <ele>282.532779</ele>
        <time>2021-08-16T20:50:28.826Z</time>
      </trkpt>
      <trkpt lat="47.588492" lon="7.652694">
        <ele>283.177223</ele>
        <time>2021-08-16T20:50:35.922Z</time>
      </trkpt>
      <trkpt lat="47.588328" lon="7.653059">
        <ele>283.751969</ele>
        <time>2021-08-16T20:50:42.732Z</time>
      </trkpt>
      <trkpt lat="47.588296" lon="7.653140">
        <ele>283.874987</ele>
        <time>2021-08-16T20:50:44.245Z</time>
      </trkpt>
      <trkpt lat="47.588202" lon="7.653375">
        <ele>284.233037</ele>
        <time>2021-08-16T20:50:48.077Z</time>
      </trkpt>
      <trkpt lat="47.588133" lon="7.653547">
        <ele>284.495297</ele>
        <time>2021-08-16T20:50:51.449Z</time>
      </trkpt>
      <trkpt lat="47.588004" lon="7.653827">
        <ele>284.939669</ele>
        <time>2021-08-16T20:50:56.183Z</time>
      </trkpt>
      <trkpt lat="47.587953" lon="7.653932">
        <ele>285.109238</ele>
        <time>2021-08-16T20:50:58.735Z</time>
      </trkpt>
      <trkpt lat="47.587916" lon="7.654034">
        <ele>285.261014</ele>
        <time>2021-08-16T20:51:00.555Z</time>
      </trkpt>
      <trkpt lat="47.587668" lon="7.654723">
        <ele>286.521085</ele>
        <time>2021-08-16T20:51:12.084Z</time>
      </trkpt>
      <trkpt lat="47.587636" lon="7.654808">
        <ele>286.738406</ele>
        <time>2021-08-16T20:51:14.158Z</time>
      </trkpt>
      <trkpt lat="47.587471" lon="7.655277">
        <ele>287.919323</ele>
        <time>2021-08-16T20:51:23.296Z</time>
      </trkpt>
      <trkpt lat="47.587318" lon="7.655706">
        <ele>289.002715</ele>
        <time>2021-08-16T20:51:32.299Z</time>
      </trkpt>
      <trkpt lat="47.587284" lon="7.655807">
        <ele>289.254721</ele>
        <time>2021-08-16T20:51:35.031Z</time>
      </trkpt>
      <trkpt lat="47.587093" lon="7.656382">
        <ele>290.685646</ele>
        <time>2021-08-16T20:51:47.803Z</time>
      </trkpt>
      <trkpt lat="47.587037" lon="7.656577">
        <ele>291.158804</ele>
        <time>2021-08-16T20:51:51.842Z</time>
      </trkpt>
      <trkpt lat="47.586982" lon="7.656831">
        <ele>291.754368</ele>
        <time>2021-08-16T20:51:57.845Z</time>
      </trkpt>
      <trkpt lat="47.586939" lon="7.657267">
        <ele>292.959763</ele>
        <time>2021-08-16T20:52:06.853Z</time>
      </trkpt>
      <trkpt lat="47.586937" lon="7.657631">
        <ele>293.987806</ele>
        <time>2021-08-16T20:52:14.625Z</time>
      </trkpt>
      <trkpt lat="47.586943" lon="7.657946">
        <ele>294.877783</ele>
        <time>2021-08-16T20:52:21.790Z</time>
      </trkpt>
      <trkpt lat="47.586998" lon="7.659544">
        <ele>299.396723</ele>
        <time>2021-08-16T20:52:56.735Z</time>
      </trkpt>
      <trkpt lat="47.587017" lon="7.660284">
        <ele>301.190169</ele>
        <time>2021-08-16T20:53:11.383Z</time>
      </trkpt>
      <trkpt lat="47.587024" lon="7.660492">
        <ele>301.693050</ele>
        <time>2021-08-16T20:53:15.096Z</time>
      </trkpt>
      <trkpt lat="47.587015" lon="7.660615">
        <ele>301.991800</ele>
        <time>2021-08-16T20:53:17.314Z</time>
      </trkpt>
      <trkpt lat="47.587000" lon="7.660726">
        <ele>302.265158</ele>
        <time>2021-08-16T20:53:19.383Z</time>
      </trkpt>
      <trkpt lat="47.586967" lon="7.660813">
        <ele>302.506179</ele>
        <time>2021-08-16T20:53:21.227Z</time>
      </trkpt>
      <trkpt lat="47.586708" lon="7.661485">
        <ele>304.375107</ele>
        <time>2021-08-16T20:53:36.077Z</time>
      </trkpt>
      <trkpt lat="47.586507" lon="7.663146">
        <ele>309.437556</ele>
        <time>2021-08-16T20:54:10.324Z</time>
      </trkpt>
      <trkpt lat="47.586501" lon="7.663218">
        <ele>309.679859</ele>
        <time>2021-08-16T20:54:12.541Z</time>
      </trkpt>
      <trkpt lat="47.586481" lon="7.663467">
        <ele>310.517378</ele>
        <time>2021-08-16T20:54:18.383Z</time>
      </trkpt>
      <trkpt lat="47.586382" lon="7.664613">
        <ele>314.376207</ele>
        <time>2021-08-16T20:54:47.486Z</time>
      </trkpt>
      <trkpt lat="47.586337" lon="7.664940">
        <ele>315.519625</ele>
        <time>2021-08-16T20:54:56.619Z</time>
      </trkpt>
      <trkpt lat="47.586255" lon="7.665387">
        <ele>317.129334</ele>
        <time>2021-08-16T20:55:09.256Z</time>
      </trkpt>
      <trkpt lat="47.586073" lon="7.665946">
        <ele>319.286281</ele>
        <time>2021-08-16T20:55:24.165Z</time>
      </trkpt>
      <trkpt lat="47.585976" lon="7.666166">
        <ele>320.199614</ele>
        <time>2021-08-16T20:55:30.880Z</time>
      </trkpt>
      <trkpt lat="47.585693" lon="7.666670">
        <ele>322.478448</ele>
        <time>2021-08-16T20:55:46.139Z</time>
      </trkpt>
      <trkpt lat="47.585548" lon="7.666929">
        <ele>323.648100</ele>
        <time>2021-08-16T20:55:54.190Z</time>
      </trkpt>
      <trkpt lat="47.585433" lon="7.667173">
        <ele>324.280324</ele>
        <time>2021-08-16T20:56:00.225Z</time>
      </trkpt>
      <trkpt lat="47.585355" lon="7.667337">
        <ele>324.537209</ele>
        <time>2021-08-16T20:56:04.280Z</time>
      </trkpt>
      <trkpt lat="47.585252" lon="7.667569">
        <ele>324.892761</ele>
        <time>2021-08-16T20:56:08.871Z</time>
      </trkpt>
      <trkpt lat="47.585156" lon="7.667797">
        <ele>325.236831</ele>
        <time>2021-08-16T20:56:13.914Z</time>
      </trkpt>
      <trkpt lat="47.585076" lon="7.668024">
        <ele>325.564697</ele>
        <time>2021-08-16T20:56:17.853Z</time>
      </trkpt>
      <trkpt lat="47.584991" lon="7.668565">
        <ele>326.275790</ele>
        <time>2021-08-16T20:56:25.213Z</time>
      </trkpt>
      <trkpt lat="47.584987" lon="7.668633">
        <ele>326.363170</ele>
        <time>2021-08-16T20:56:26.447Z</time>
      </trkpt>
      <trkpt lat="47.584984" lon="7.668707">
        <ele>326.458071</ele>
        <time>2021-08-16T20:56:27.397Z</time>
      </trkpt>
      <trkpt lat="47.585005" lon="7.669173">
        <ele>327.055944</ele>
        <time>2021-08-16T20:56:32.842Z</time>
      </trkpt>
      <trkpt lat="47.585100" lon="7.669952">
        <ele>327.596050</ele>
        <time>2021-08-16T20:56:39.991Z</time>
      </trkpt>
      <trkpt lat="47.585355" lon="7.671318">
        <ele>328.002463</ele>
        <time>2021-08-16T20:56:57.082Z</time>
      </trkpt>
      <trkpt lat="47.585404" lon="7.671489">
        <ele>328.055737</ele>
        <time>2021-08-16T20:56:58.616Z</time>
      </trkpt>
      <trkpt lat="47.585424" lon="7.671571">
        <ele>328.080740</ele>
        <time>2021-08-16T20:57:00.141Z</time>
      </trkpt>
      <trkpt lat="47.585539" lon="7.671938">
        <ele>328.196776</ele>
        <time>2021-08-16T20:57:04.052Z</time>
      </trkpt>
      <trkpt lat="47.585545" lon="7.672001">
        <ele>328.215019</ele>
        <time>2021-08-16T20:57:05.011Z</time>
      </trkpt>
      <trkpt lat="47.585545" lon="7.672019">
        <ele>328.220181</ele>
        <time>2021-08-16T20:57:05.307Z</time>
      </trkpt>
      <trkpt lat="47.585543" lon="7.672092">
        <ele>328.270716</ele>
        <time>2021-08-16T20:57:06.370Z</time>
      </trkpt>
      <trkpt lat="47.585549" lon="7.672172">
        <ele>328.333842</ele>
        <time>2021-08-16T20:57:07.519Z</time>
      </trkpt>
      <trkpt lat="47.585586" lon="7.672395">
        <ele>328.513942</ele>
        <time>2021-08-16T20:57:09.524Z</time>
      </trkpt>
      <trkpt lat="47.585619" lon="7.672464">
        <ele>328.580278</ele>
        <time>2021-08-16T20:57:10.294Z</time>
      </trkpt>
      <trkpt lat="47.585668" lon="7.672754">
        <ele>328.814735</ele>
        <time>2021-08-16T20:57:14.331Z</time>
      </trkpt>
      <trkpt lat="47.585727" lon="7.673021">
        <ele>329.035078</ele>
        <time>2021-08-16T20:57:17.058Z</time>
      </trkpt>
      <trkpt lat="47.585762" lon="7.673153">
        <ele>329.146310</ele>
        <time>2021-08-16T20:57:19.365Z</time>
      </trkpt>
      <trkpt lat="47.585881" lon="7.673564">
        <ele>329.497075</ele>
        <time>2021-08-16T20:57:24.971Z</time>
      </trkpt>
      <trkpt lat="47.586072" lon="7.674192">
        <ele>330.037330</ele>
        <time>2021-08-16T20:57:35.824Z</time>
      </trkpt>
      <trkpt lat="47.586282" lon="7.674868">
        <ele>330.869963</ele>
        <time>2021-08-16T20:57:46.827Z</time>
      </trkpt>
      <trkpt lat="47.586570" lon="7.675797">
        <ele>332.325004</ele>
        <time>2021-08-16T20:58:01.558Z</time>
      </trkpt>
      <trkpt lat="47.587035" lon="7.676810">
        <ele>334.068806</ele>
        <time>2021-08-16T20:58:21.917Z</time>
      </trkpt>
      <trkpt lat="47.587298" lon="7.677566">
        <ele>335.561450</ele>
        <time>2021-08-16T20:58:36.646Z</time>
      </trkpt>
      <trkpt lat="47.587354" lon="7.677825">
        <ele>336.041920</ele>
        <time>2021-08-16T20:58:41.610Z</time>
      </trkpt>
      <trkpt lat="47.587436" lon="7.678335">
        <ele>336.968102</ele>
        <time>2021-08-16T20:58:50.557Z</time>
      </trkpt>
      <trkpt lat="47.587540" lon="7.679268">
        <ele>338.638641</ele>
        <time>2021-08-16T20:59:06.491Z</time>
      </trkpt>
      <trkpt lat="47.587744" lon="7.680442">
        <ele>340.740848</ele>
        <time>2021-08-16T20:59:27.459Z</time>
      </trkpt>
      <trkpt lat="47.588280" lon="7.682046">
        <ele>343.830745</ele>
        <time>2021-08-16T20:59:57.896Z</time>
      </trkpt>
      <trkpt lat="47.588285" lon="7.682079">
        <ele>343.888027</ele>
        <time>2021-08-16T20:59:59.044Z</time>
      </trkpt>
      <trkpt lat="47.588321" lon="7.682306">
        <ele>344.282961</ele>
        <time>2021-08-16T21:00:02.237Z</time>
      </trkpt>
      <trkpt lat="47.588331" lon="7.682568">
        <ele>344.727396</ele>
        <time>2021-08-16T21:00:05.884Z</time>
      </trkpt>
      <trkpt lat="47.588267" lon="7.683225">
        <ele>345.851644</ele>
        <time>2021-08-16T21:00:16.342Z</time>
      </trkpt>
      <trkpt lat="47.588213" lon="7.683697">
        <ele>346.662447</ele>
        <time>2021-08-16T21:00:24.528Z</time>
      </trkpt>
      <trkpt lat="47.588141" lon="7.684098">
        <ele>347.365240</ele>
        <time>2021-08-16T21:00:31.812Z</time>
      </trkpt>
      <trkpt lat="47.588113" lon="7.684259">
        <ele>347.646831</ele>
        <time>2021-08-16T21:00:35.295Z</time>
      </trkpt>
      <trkpt lat="47.588065" lon="7.684505">
        <ele>348.143181</ele>
        <time>2021-08-16T21:00:39.789Z</time>
      </trkpt>
      <trkpt lat="47.588063" lon="7.684610">
        <ele>348.409214</ele>
        <time>2021-08-16T21:00:41.748Z</time>
      </trkpt>
      <trkpt lat="47.588091" lon="7.684905">
        <ele>349.163702</ele>
        <time>2021-08-16T21:00:46.858Z</time>
      </trkpt>
      <trkpt lat="47.588131" lon="7.685235">
        <ele>350.012859</ele>
        <time>2021-08-16T21:00:52.809Z</time>
      </trkpt>
      <trkpt lat="47.588151" lon="7.685579">
        <ele>350.887314</ele>
        <time>2021-08-16T21:00:59.531Z</time>
      </trkpt>
      <trkpt lat="47.588143" lon="7.686239">
        <ele>352.559118</ele>
        <time>2021-08-16T21:01:12.494Z</time>
      </trkpt>
      <trkpt lat="47.588160" lon="7.687151">
        <ele>354.917997</ele>
        <time>2021-08-16T21:01:32.671Z</time>
      </trkpt>
      <trkpt lat="47.588146" lon="7.687409">
        <ele>355.769201</ele>
        <time>2021-08-16T21:01:38.852Z</time>
      </trkpt>
      <trkpt lat="47.588146" lon="7.687409">
        <ele>355.769201</ele>
        <time>2021-08-16T21:01:38.945Z</time>
      </trkpt>
      <trkpt lat="47.588078" lon="7.688097">
        <ele>358.055935</ele>
        <time>2021-08-16T21:01:55.899Z</time>
      </trkpt>
      <trkpt lat="47.588009" lon="7.688724">
        <ele>360.145169</ele>
        <time>2021-08-16T21:02:10.309Z</time>
      </trkpt>
      <trkpt lat="47.588000" lon="7.688805">
        <ele>360.415138</ele>
        <time>2021-08-16T21:02:12.299Z</time>
      </trkpt>
      <trkpt lat="47.587966" lon="7.689143">
        <ele>361.538988</ele>
        <time>2021-08-16T21:02:20.104Z</time>
      </trkpt>
      <trkpt lat="47.587912" lon="7.689642">
        <ele>363.201003</ele>
        <time>2021-08-16T21:02:31.698Z</time>
      </trkpt>
      <trkpt lat="47.587732" lon="7.692362">
        <ele>371.877543</ele>
        <time>2021-08-16T21:03:34.316Z</time>
      </trkpt>
      <trkpt lat="47.587699" lon="7.692671">
        <ele>372.746530</ele>
        <time>2021-08-16T21:03:41.454Z</time>
      </trkpt>
      <trkpt lat="47.587623" lon="7.693388">
        <ele>374.745084</ele>
        <time>2021-08-16T21:03:56.237Z</time>
      </trkpt>
      <trkpt lat="47.587605" lon="7.693523">
        <ele>375.124013</ele>
        <time>2021-08-16T21:03:59.281Z</time>
      </trkpt>
      <trkpt lat="47.587461" lon="7.694004">
        <ele>376.573105</ele>
        <time>2021-08-16T21:04:09.446Z</time>
      </trkpt>
      <trkpt lat="47.587399" lon="7.694138">
        <ele>377.020564</ele>
        <time>2021-08-16T21:04:12.699Z</time>
      </trkpt>
      <trkpt lat="47.587355" lon="7.694241">
        <ele>377.356287</ele>
        <time>2021-08-16T21:04:14.836Z</time>
      </trkpt>
      <trkpt lat="47.587293" lon="7.694407">
        <ele>377.878791</ele>
        <time>2021-08-16T21:04:18.347Z</time>
      </trkpt>
      <trkpt lat="47.587240" lon="7.694546">
        <ele>378.318472</ele>
        <time>2021-08-16T21:04:22.096Z</time>
      </trkpt>
      <trkpt lat="47.587185" lon="7.694749">
        <ele>378.920869</ele>
        <time>2021-08-16T21:04:26.960Z</time>
      </trkpt>
      <trkpt lat="47.587125" lon="7.694964">
        <ele>379.683662</ele>
        <time>2021-08-16T21:04:31.987Z</time>
      </trkpt>
      <trkpt lat="47.587076" lon="7.695397">
        <ele>381.413086</ele>
        <time>2021-08-16T21:04:41.568Z</time>
      </trkpt>
      <trkpt lat="47.587104" lon="7.696124">
        <ele>384.281400</ele>
        <time>2021-08-16T21:04:59.909Z</time>
      </trkpt>
      <trkpt lat="47.587152" lon="7.696499">
        <ele>385.784887</ele>
        <time>2021-08-16T21:05:10.304Z</time>
      </trkpt>
      <trkpt lat="47.587203" lon="7.696958">
        <ele>387.617251</ele>
        <time>2021-08-16T21:05:23.462Z</time>
      </trkpt>
      <trkpt lat="47.587195" lon="7.697486">
        <ele>389.697561</ele>
        <time>2021-08-16T21:05:38.243Z</time>
      </trkpt>
      <trkpt lat="47.587113" lon="7.698428">
        <ele>394.014466</ele>
        <time>2021-08-16T21:06:05.745Z</time>
      </trkpt>
      <trkpt lat="47.586792" lon="7.698373">
        <ele>396.198698</ele>
        <time>2021-08-16T21:06:20.166Z</time>
      </trkpt>
      <trkpt lat="47.585826" lon="7.698379">
        <ele>402.713046</ele>
        <time>2021-08-16T21:07:00.004Z</time>
      </trkpt>
      <trkpt lat="47.585351" lon="7.698544">
        <ele>405.946483</ele>
        <time>2021-08-16T21:07:18.315Z</time>
      </trkpt>
      <trkpt lat="47.584998" lon="7.698675">
        <ele>408.358259</ele>
        <time>2021-08-16T21:07:31.416Z</time>
      </trkpt>
      <trkpt lat="47.584483" lon="7.698786">
        <ele>411.807432</ele>
        <time>2021-08-16T21:07:51.981Z</time>
      </trkpt>
      <trkpt lat="47.583204" lon="7.698814">
        <ele>423.560665</ele>
        <time>2021-08-16T21:08:57.006Z</time>
      </trkpt>
      <trkpt lat="47.582704" lon="7.698936">
        <ele>428.631475</ele>
        <time>2021-08-16T21:09:25.897Z</time>
      </trkpt>
      <trkpt lat="47.582483" lon="7.699048">
        <ele>430.968667</ele>
        <time>2021-08-16T21:09:40.652Z</time>
      </trkpt>
      <trkpt lat="47.581867" lon="7.699553">
        <ele>439.394825</ele>
        <time>2021-08-16T21:10:27.574Z</time>
      </trkpt>
      <trkpt lat="47.581097" lon="7.700270">
        <ele>450.538198</ele>
        <time>2021-08-16T21:11:27.102Z</time>
      </trkpt>
      <trkpt lat="47.580855" lon="7.700494">
        <ele>454.011807</ele>
        <time>2021-08-16T21:11:44.362Z</time>
      </trkpt>
      <trkpt lat="47.580164" lon="7.701066">
        <ele>462.042266</ele>
        <time>2021-08-16T21:12:30.624Z</time>
      </trkpt>
      <trkpt lat="47.579420" lon="7.701212">
        <ele>469.657344</ele>
        <time>2021-08-16T21:13:12.500Z</time>
      </trkpt>
      <trkpt lat="47.578727" lon="7.701081">
        <ele>474.997778</ele>
        <time>2021-08-16T21:13:44.955Z</time>
      </trkpt>
      <trkpt lat="47.578229" lon="7.701002">
        <ele>478.145401</ele>
        <time>2021-08-16T21:14:06.297Z</time>
      </trkpt>
      <trkpt lat="47.578079" lon="7.700973">
        <ele>479.096081</ele>
        <time>2021-08-16T21:14:12.115Z</time>
      </trkpt>
      <trkpt lat="47.577347" lon="7.700798">
        <ele>483.571655</ele>
        <time>2021-08-16T21:14:37.608Z</time>
      </trkpt>
      <trkpt lat="47.576967" lon="7.700886">
        <ele>484.499823</ele>
        <time>2021-08-16T21:14:49.062Z</time>
      </trkpt>
      <trkpt lat="47.575795" lon="7.701398">
        <ele>487.448453</ele>
        <time>2021-08-16T21:15:15.282Z</time>
      </trkpt>
      <trkpt lat="47.575365" lon="7.701553">
        <ele>488.423518</ele>
        <time>2021-08-16T21:15:24.899Z</time>
      </trkpt>
      <trkpt lat="47.575087" lon="7.701638">
        <ele>489.020034</ele>
        <time>2021-08-16T21:15:31.330Z</time>
      </trkpt>
      <trkpt lat="47.574915" lon="7.701638">
        <ele>489.381492</ele>
        <time>2021-08-16T21:15:35.150Z</time>
      </trkpt>
      <trkpt lat="47.574763" lon="7.701603">
        <ele>489.704751</ele>
        <time>2021-08-16T21:15:38.932Z</time>
      </trkpt>
      <trkpt lat="47.574305" lon="7.701458">
        <ele>490.688947</ele>
        <time>2021-08-16T21:15:50.040Z</time>
      </trkpt>
      <trkpt lat="47.572597" lon="7.700557">
        <ele>494.607739</ele>
        <time>2021-08-16T21:16:33.998Z</time>
      </trkpt>
      <trkpt lat="47.571718" lon="7.700291">
        <ele>495.690704</ele>
        <time>2021-08-16T21:16:53.971Z</time>
      </trkpt>
      <trkpt lat="47.571273" lon="7.700147">
        <ele>495.870282</ele>
        <time>2021-08-16T21:17:02.300Z</time>
      </trkpt>
      <trkpt lat="47.571068" lon="7.700068">
        <ele>495.953793</ele>
        <time>2021-08-16T21:17:05.594Z</time>
      </trkpt>
      <trkpt lat="47.570278" lon="7.699755">
        <ele>495.734868</ele>
        <time>2021-08-16T21:17:15.988Z</time>
      </trkpt>
      <trkpt lat="47.569386" lon="7.699378">
        <ele>493.233076</ele>
        <time>2021-08-16T21:17:25.987Z</time>
      </trkpt>
      <trkpt lat="47.569093" lon="7.699112">
        <ele>492.306334</ele>
        <time>2021-08-16T21:17:29.426Z</time>
      </trkpt>
      <trkpt lat="47.568602" lon="7.698487">
        <ele>489.669941</ele>
        <time>2021-08-16T21:17:35.661Z</time>
      </trkpt>
      <trkpt lat="47.567964" lon="7.697996">
        <ele>485.559279</ele>
        <time>2021-08-16T21:17:42.413Z</time>
      </trkpt>
      <trkpt lat="47.567166" lon="7.697504">
        <ele>480.316495</ele>
        <time>2021-08-16T21:17:50.266Z</time>
      </trkpt>
      <trkpt lat="47.566435" lon="7.697358">
        <ele>473.304960</ele>
        <time>2021-08-16T21:17:56.744Z</time>
      </trkpt>
      <trkpt lat="47.565744" lon="7.697318">
        <ele>466.731461</ele>
        <time>2021-08-16T21:18:02.686Z</time>
      </trkpt>
      <trkpt lat="47.565173" lon="7.697132">
        <ele>460.100407</ele>
        <time>2021-08-16T21:18:07.646Z</time>
      </trkpt>
      <trkpt lat="47.563259" lon="7.696241">
        <ele>433.855555</ele>
        <time>2021-08-16T21:18:24.430Z</time>
      </trkpt>
      <trkpt lat="47.562620" lon="7.695953">
        <ele>425.257868</ele>
        <time>2021-08-16T21:18:30.042Z</time>
      </trkpt>
      <trkpt lat="47.562128" lon="7.695702">
        <ele>418.559696</ele>
        <time>2021-08-16T21:18:34.435Z</time>
      </trkpt>
      <trkpt lat="47.561669" lon="7.695498">
        <ele>413.039450</ele>
        <time>2021-08-16T21:18:38.485Z</time>
      </trkpt>
      <trkpt lat="47.561053" lon="7.695338">
        <ele>406.082324</ele>
        <time>2021-08-16T21:18:43.808Z</time>
      </trkpt>
      <trkpt lat="47.560012" lon="7.695119">
        <ele>394.755059</ele>
        <time>2021-08-16T21:18:52.817Z</time>
      </trkpt>
      <trkpt lat="47.559078" lon="7.694904">
        <ele>385.642282</ele>
        <time>2021-08-16T21:19:00.954Z</time>
      </trkpt>
      <trkpt lat="47.558618" lon="7.694872">
        <ele>381.202496</ele>
        <time>2021-08-16T21:19:04.953Z</time>
      </trkpt>
      <trkpt lat="47.556836" lon="7.695079">
        <ele>366.556091</ele>
        <time>2021-08-16T21:19:20.709Z</time>
      </trkpt>
      <trkpt lat="47.555130" lon="7.694964">
        <ele>352.873186</ele>
        <time>2021-08-16T21:19:35.981Z</time>
      </trkpt>
      <trkpt lat="47.554864" lon="7.694875">
        <ele>350.530405</ele>
        <time>2021-08-16T21:19:38.345Z</time>
      </trkpt>
      <trkpt lat="47.554572" lon="7.694665">
        <ele>345.996922</ele>
        <time>2021-08-16T21:19:41.109Z</time>
      </trkpt>
      <trkpt lat="47.554384" lon="7.694448">
        <ele>342.668355</ele>
        <time>2021-08-16T21:19:43.140Z</time>
      </trkpt>
      <trkpt lat="47.554245" lon="7.694182">
        <ele>339.497157</ele>
        <time>2021-08-16T21:19:45.053Z</time>
      </trkpt>
      <trkpt lat="47.554028" lon="7.693827">
        <ele>334.982201</ele>
        <time>2021-08-16T21:19:47.732Z</time>
      </trkpt>
      <trkpt lat="47.553606" lon="7.693126">
        <ele>326.127399</ele>
        <time>2021-08-16T21:19:52.966Z</time>
      </trkpt>
      <trkpt lat="47.553492" lon="7.692994">
        <ele>323.811954</ele>
        <time>2021-08-16T21:19:54.175Z</time>
      </trkpt>
      <trkpt lat="47.553281" lon="7.692750">
        <ele>319.415913</ele>
        <time>2021-08-16T21:19:56.381Z</time>
      </trkpt>
      <trkpt lat="47.553101" lon="7.692582">
        <ele>315.921904</ele>
        <time>2021-08-16T21:19:58.135Z</time>
      </trkpt>
      <trkpt lat="47.553059" lon="7.692566">
        <ele>315.209649</ele>
        <time>2021-08-16T21:19:58.491Z</time>
      </trkpt>
      <trkpt lat="47.552195" lon="7.692398">
        <ele>300.897404</ele>
        <time>2021-08-16T21:20:05.678Z</time>
      </trkpt>
      <trkpt lat="47.551995" lon="7.692291">
        <ele>297.404968</ele>
        <time>2021-08-16T21:20:07.432Z</time>
      </trkpt>
      <trkpt lat="47.551762" lon="7.692165">
        <ele>294.664494</ele>
        <time>2021-08-16T21:20:09.529Z</time>
      </trkpt>
      <trkpt lat="47.551619" lon="7.692088">
        <ele>293.310901</ele>
        <time>2021-08-16T21:20:10.788Z</time>
      </trkpt>
      <trkpt lat="47.551568" lon="7.692024">
        <ele>292.716315</ele>
        <time>2021-08-16T21:20:11.378Z</time>
      </trkpt>
      <trkpt lat="47.551434" lon="7.691862">
        <ele>291.177703</ele>
        <time>2021-08-16T21:20:12.885Z</time>
      </trkpt>
      <trkpt lat="47.551182" lon="7.691473">
        <ele>287.940153</ele>
        <time>2021-08-16T21:20:16.103Z</time>
      </trkpt>
      <trkpt lat="47.551000" lon="7.691170">
        <ele>285.504647</ele>
        <time>2021-08-16T21:20:18.543Z</time>
      </trkpt>
      <trkpt lat="47.550764" lon="7.690746">
        <ele>282.204683</ele>
        <time>2021-08-16T21:20:21.885Z</time>
      </trkpt>
      <trkpt lat="47.550476" lon="7.690324">
        <ele>279.754518</ele>
        <time>2021-08-16T21:20:25.641Z</time>
      </trkpt>
      <trkpt lat="47.550112" lon="7.690714">
        <ele>278.572865</ele>
        <time>2021-08-16T21:20:30.214Z</time>
      </trkpt>
      <trkpt lat="47.549797" lon="7.691193">
        <ele>277.385478</ele>
        <time>2021-08-16T21:20:35.048Z</time>
      </trkpt>
      <trkpt lat="47.549695" lon="7.691435">
        <ele>276.878913</ele>
        <time>2021-08-16T21:20:37.209Z</time>
      </trkpt>
      <trkpt lat="47.549685" lon="7.691459">
        <ele>276.828836</ele>
        <time>2021-08-16T21:20:37.440Z</time>
      </trkpt>
      <trkpt lat="47.549325" lon="7.692315">
        <ele>275.492966</ele>
        <time>2021-08-16T21:20:45.988Z</time>
      </trkpt>
      <trkpt lat="47.549253" lon="7.692474">
        <ele>275.482572</ele>
        <time>2021-08-16T21:20:47.862Z</time>
      </trkpt>
      <trkpt lat="47.549216" lon="7.692540">
        <ele>275.477915</ele>
        <time>2021-08-16T21:20:48.655Z</time>
      </trkpt>
      <trkpt lat="47.549059" lon="7.692848">
        <ele>275.456964</ele>
        <time>2021-08-16T21:20:52.116Z</time>
      </trkpt>
      <trkpt lat="47.548974" lon="7.693002">
        <ele>275.446165</ele>
        <time>2021-08-16T21:20:54.060Z</time>
      </trkpt>
      <trkpt lat="47.548782" lon="7.693465">
        <ele>275.416667</ele>
        <time>2021-08-16T21:20:59.488Z</time>
      </trkpt>
      <trkpt lat="47.548638" lon="7.694044">
        <ele>275.383171</ele>
        <time>2021-08-16T21:21:06.059Z</time>
      </trkpt>
      <trkpt lat="47.548591" lon="7.694324">
        <ele>275.367508</ele>
        <time>2021-08-16T21:21:09.515Z</time>
      </trkpt>
      <trkpt lat="47.548452" lon="7.695145">
        <ele>275.266785</ele>
        <time>2021-08-16T21:21:19.204Z</time>
      </trkpt>
      <trkpt lat="47.548427" lon="7.695434">
        <ele>275.229886</ele>
        <time>2021-08-16T21:21:22.501Z</time>
      </trkpt>
      <trkpt lat="47.548417" lon="7.695616">
        <ele>275.206761</ele>
        <time>2021-08-16T21:21:24.274Z</time>
      </trkpt>
      <trkpt lat="47.548389" lon="7.696070">
        <ele>275.149027</ele>
        <time>2021-08-16T21:21:28.705Z</time>
      </trkpt>
      <trkpt lat="47.548339" lon="7.696589">
        <ele>275.082635</ele>
        <time>2021-08-16T21:21:33.163Z</time>
      </trkpt>
      <trkpt lat="47.548314" lon="7.696826">
        <ele>275.052256</ele>
        <time>2021-08-16T21:21:35.115Z</time>
      </trkpt>
      <trkpt lat="47.548224" lon="7.697419">
        <ele>274.776269</ele>
        <time>2021-08-16T21:21:40.184Z</time>
      </trkpt>
      <trkpt lat="47.548069" lon="7.698253">
        <ele>274.229828</ele>
        <time>2021-08-16T21:21:47.325Z</time>
      </trkpt>
      <trkpt lat="47.547999" lon="7.698586">
        <ele>274.009507</ele>
        <time>2021-08-16T21:21:50.214Z</time>
      </trkpt>
      <trkpt lat="47.547970" lon="7.698727">
        <ele>273.916394</ele>
        <time>2021-08-16T21:21:51.477Z</time>
      </trkpt>
      <trkpt lat="47.547956" lon="7.698802">
        <ele>273.867239</ele>
        <time>2021-08-16T21:21:52.133Z</time>
      </trkpt>
      <trkpt lat="47.547913" lon="7.699038">
        <ele>273.712822</ele>
        <time>2021-08-16T21:21:54.177Z</time>
      </trkpt>
      <trkpt lat="47.547903" lon="7.699114">
        <ele>273.663909</ele>
        <time>2021-08-16T21:21:54.812Z</time>
      </trkpt>
      <trkpt lat="47.547900" lon="7.699136">
        <ele>273.649731</ele>
        <time>2021-08-16T21:21:55.008Z</time>
      </trkpt>
      <trkpt lat="47.547846" lon="7.699539">
        <ele>273.390188</ele>
        <time>2021-08-16T21:21:58.486Z</time>
      </trkpt>
      <trkpt lat="47.547776" lon="7.700682">
        <ele>272.994895</ele>
        <time>2021-08-16T21:22:08.182Z</time>
      </trkpt>
      <trkpt lat="47.547718" lon="7.701632">
        <ele>272.685928</ele>
        <time>2021-08-16T21:22:17.610Z</time>
      </trkpt>
      <trkpt lat="47.547586" lon="7.702759">
        <ele>272.446519</ele>
        <time>2021-08-16T21:22:27.799Z</time>
      </trkpt>
      <trkpt lat="47.547159" lon="7.704989">
        <ele>272.391440</ele>
        <time>2021-08-16T21:22:50.652Z</time>
      </trkpt>
      <trkpt lat="47.547129" lon="7.705131">
        <ele>272.469857</ele>
        <time>2021-08-16T21:22:52.398Z</time>
      </trkpt>
      <trkpt lat="47.547066" lon="7.705298">
        <ele>272.570684</ele>
        <time>2021-08-16T21:22:55.492Z</time>
      </trkpt>
      <trkpt lat="47.546975" lon="7.705444">
        <ele>272.675417</ele>
        <time>2021-08-16T21:22:58.893Z</time>
      </trkpt>
      <trkpt lat="47.546934" lon="7.705478">
        <ele>272.712103</ele>
        <time>2021-08-16T21:22:59.981Z</time>
      </trkpt>
      <trkpt lat="47.546903" lon="7.705523">
        <ele>272.745990</ele>
        <time>2021-08-16T21:23:00.991Z</time>
      </trkpt>
      <trkpt lat="47.546886" lon="7.705566">
        <ele>272.772253</ele>
        <time>2021-08-16T21:23:01.751Z</time>
      </trkpt>
      <trkpt lat="47.546875" lon="7.705615">
        <ele>272.799468</ele>
        <time>2021-08-16T21:23:02.517Z</time>
      </trkpt>
      <trkpt lat="47.546872" lon="7.705654">
        <ele>272.820155</ele>
        <time>2021-08-16T21:23:03.114Z</time>
      </trkpt>
      <trkpt lat="47.546903" lon="7.705771">
        <ele>272.886398</ele>
        <time>2021-08-16T21:23:05.191Z</time>
      </trkpt>
      <trkpt lat="47.546916" lon="7.705821">
        <ele>272.914636</ele>
        <time>2021-08-16T21:23:06.143Z</time>
      </trkpt>
      <trkpt lat="47.546947" lon="7.705856">
        <ele>272.945069</ele>
        <time>2021-08-16T21:23:07.157Z</time>
      </trkpt>
      <trkpt lat="47.546978" lon="7.705878">
        <ele>272.971907</ele>
        <time>2021-08-16T21:23:07.929Z</time>
      </trkpt>
      <trkpt lat="47.547004" lon="7.705887">
        <ele>272.992754</ele>
        <time>2021-08-16T21:23:08.564Z</time>
      </trkpt>
      <trkpt lat="47.547044" lon="7.705889">
        <ele>273.024004</ele>
        <time>2021-08-16T21:23:09.504Z</time>
      </trkpt>
      <trkpt lat="47.547083" lon="7.705874">
        <ele>273.055464</ele>
        <time>2021-08-16T21:23:10.430Z</time>
      </trkpt>
      <trkpt lat="47.547117" lon="7.705848">
        <ele>273.085339</ele>
        <time>2021-08-16T21:23:11.260Z</time>
      </trkpt>
      <trkpt lat="47.547211" lon="7.705906">
        <ele>273.164845</ele>
        <time>2021-08-16T21:23:13.744Z</time>
      </trkpt>
      <trkpt lat="47.547211" lon="7.705906">
        <ele>273.164845</ele>
        <time>2021-08-16T21:23:13.763Z</time>
      </trkpt>
      <trkpt lat="47.547211" lon="7.705906">
        <ele>273.164845</ele>
        <time>2021-08-16T21:23:13.765Z</time>
      </trkpt>
      <trkpt lat="47.547338" lon="7.705979">
        <ele>273.271207</ele>
        <time>2021-08-16T21:23:17.153Z</time>
      </trkpt>
      <trkpt lat="47.547456" lon="7.706117">
        <ele>273.388587</ele>
        <time>2021-08-16T21:23:19.824Z</time>
      </trkpt>
      <trkpt lat="47.547523" lon="7.706211">
        <ele>273.460635</ele>
        <time>2021-08-16T21:23:21.639Z</time>
      </trkpt>
      <trkpt lat="47.547565" lon="7.706271">
        <ele>273.506191</ele>
        <time>2021-08-16T21:23:22.889Z</time>
      </trkpt>
      <trkpt lat="47.547645" lon="7.706169">
        <ele>273.588601</ele>
        <time>2021-08-16T21:23:25.357Z</time>
      </trkpt>
      <trkpt lat="47.547718" lon="7.706083">
        <ele>273.661422</ele>
        <time>2021-08-16T21:23:27.504Z</time>
      </trkpt>
      <trkpt lat="47.547767" lon="7.706177">
        <ele>273.720491</ele>
        <time>2021-08-16T21:23:29.079Z</time>
      </trkpt>
      <trkpt lat="47.547779" lon="7.706281">
        <ele>273.758545</ele>
        <time>2021-08-16T21:23:30.628Z</time>
      </trkpt>
      <trkpt lat="47.547774" lon="7.706385">
        <ele>273.796149</ele>
        <time>2021-08-16T21:23:31.832Z</time>
      </trkpt>
      <trkpt lat="47.547770" lon="7.706493">
        <ele>273.835160</ele>
        <time>2021-08-16T21:23:33.070Z</time>
      </trkpt>
      <trkpt lat="47.547782" lon="7.706642">
        <ele>273.889281</ele>
        <time>2021-08-16T21:23:34.754Z</time>
      </trkpt>
      <trkpt lat="47.547875" lon="7.707460">
        <ele>274.188464</ele>
        <time>2021-08-16T21:23:44.918Z</time>
      </trkpt>
      <trkpt lat="47.547969" lon="7.708286">
        <ele>274.490580</ele>
        <time>2021-08-16T21:23:53.935Z</time>
      </trkpt>
      <trkpt lat="47.548718" lon="7.711675">
        <ele>275.308097</ele>
        <time>2021-08-16T21:24:31.504Z</time>
      </trkpt>
      <trkpt lat="47.548964" lon="7.712473">
        <ele>275.736742</ele>
        <time>2021-08-16T21:24:42.541Z</time>
      </trkpt>
      <trkpt lat="47.549551" lon="7.713795">
        <ele>276.450737</ele>
        <time>2021-08-16T21:25:02.538Z</time>
      </trkpt>
      <trkpt lat="47.549644" lon="7.714162">
        <ele>276.518732</ele>
        <time>2021-08-16T21:25:07.075Z</time>
      </trkpt>
      <trkpt lat="47.549908" lon="7.715097">
        <ele>276.694526</ele>
        <time>2021-08-16T21:25:18.050Z</time>
      </trkpt>
      <trkpt lat="47.549971" lon="7.715445">
        <ele>276.757020</ele>
        <time>2021-08-16T21:25:21.799Z</time>
      </trkpt>
      <trkpt lat="47.549978" lon="7.715484">
        <ele>276.764020</ele>
        <time>2021-08-16T21:25:22.136Z</time>
      </trkpt>
      <trkpt lat="47.550037" lon="7.715872">
        <ele>276.833005</ele>
        <time>2021-08-16T21:25:26.187Z</time>
      </trkpt>
      <trkpt lat="47.550065" lon="7.716105">
        <ele>276.874054</ele>
        <time>2021-08-16T21:25:28.453Z</time>
      </trkpt>
      <trkpt lat="47.550088" lon="7.716261">
        <ele>276.851898</ele>
        <time>2021-08-16T21:25:29.949Z</time>
      </trkpt>
      <trkpt lat="47.550264" lon="7.717130">
        <ele>276.641988</ele>
        <time>2021-08-16T21:25:37.951Z</time>
      </trkpt>
      <trkpt lat="47.550904" lon="7.719258">
        <ele>276.155377</ele>
        <time>2021-08-16T21:25:59.729Z</time>
      </trkpt>
      <trkpt lat="47.550953" lon="7.719585">
        <ele>276.103121</ele>
        <time>2021-08-16T21:26:03.006Z</time>
      </trkpt>
      <trkpt lat="47.550910" lon="7.720574">
        <ele>275.948512</ele>
        <time>2021-08-16T21:26:12.427Z</time>
      </trkpt>
      <trkpt lat="47.550965" lon="7.720874">
        <ele>275.900014</ele>
        <time>2021-08-16T21:26:15.258Z</time>
      </trkpt>
      <trkpt lat="47.551056" lon="7.721158">
        <ele>275.850969</ele>
        <time>2021-08-16T21:26:18.217Z</time>
      </trkpt>
      <trkpt lat="47.551208" lon="7.721582">
        <ele>275.805568</ele>
        <time>2021-08-16T21:26:22.772Z</time>
      </trkpt>
      <trkpt lat="47.551219" lon="7.721610">
        <ele>275.802584</ele>
        <time>2021-08-16T21:26:23.068Z</time>
      </trkpt>
      <trkpt lat="47.551366" lon="7.721998">
        <ele>275.761597</ele>
        <time>2021-08-16T21:26:27.324Z</time>
      </trkpt>
      <trkpt lat="47.551616" lon="7.722641">
        <ele>275.693241</ele>
        <time>2021-08-16T21:26:34.341Z</time>
      </trkpt>
      <trkpt lat="47.551732" lon="7.722977">
        <ele>275.658476</ele>
        <time>2021-08-16T21:26:38.028Z</time>
      </trkpt>
      <trkpt lat="47.551828" lon="7.723362">
        <ele>275.620668</ele>
        <time>2021-08-16T21:26:42.133Z</time>
      </trkpt>
      <trkpt lat="47.552212" lon="7.724918">
        <ele>275.988445</ele>
        <time>2021-08-16T21:26:59.897Z</time>
      </trkpt>
      <trkpt lat="47.552325" lon="7.725243">
        <ele>276.085008</ele>
        <time>2021-08-16T21:27:04.245Z</time>
      </trkpt>
      <trkpt lat="47.553028" lon="7.727114">
        <ele>276.889048</ele>
        <time>2021-08-16T21:27:29.030Z</time>
      </trkpt>
      <trkpt lat="47.553114" lon="7.727292">
        <ele>276.986933</ele>
        <time>2021-08-16T21:27:31.511Z</time>
      </trkpt>
      <trkpt lat="47.553188" lon="7.727446">
        <ele>277.071463</ele>
        <time>2021-08-16T21:27:33.654Z</time>
      </trkpt>
      <trkpt lat="47.553253" lon="7.727551">
        <ele>277.135173</ele>
        <time>2021-08-16T21:27:35.258Z</time>
      </trkpt>
      <trkpt lat="47.553838" lon="7.728124">
        <ele>277.655766</ele>
        <time>2021-08-16T21:27:47.900Z</time>
      </trkpt>
      <trkpt lat="47.554136" lon="7.728404">
        <ele>278.018346</ele>
        <time>2021-08-16T21:27:54.652Z</time>
      </trkpt>
      <trkpt lat="47.554367" lon="7.728585">
        <ele>278.286851</ele>
        <time>2021-08-16T21:27:59.456Z</time>
      </trkpt>
      <trkpt lat="47.554499" lon="7.728580">
        <ele>278.422530</ele>
        <time>2021-08-16T21:28:02.220Z</time>
      </trkpt>
      <trkpt lat="47.554550" lon="7.728615">
        <ele>278.480282</ele>
        <time>2021-08-16T21:28:03.324Z</time>
      </trkpt>
      <trkpt lat="47.554503" lon="7.728787">
        <ele>278.608965</ele>
        <time>2021-08-16T21:28:05.469Z</time>
      </trkpt>
      <trkpt lat="47.554645" lon="7.728883">
        <ele>278.769345</ele>
        <time>2021-08-16T21:28:08.927Z</time>
      </trkpt>
      <trkpt lat="47.555159" lon="7.729171">
        <ele>279.333997</ele>
        <time>2021-08-16T21:28:19.332Z</time>
      </trkpt>
      <trkpt lat="47.555310" lon="7.729256">
        <ele>279.412281</ele>
        <time>2021-08-16T21:28:22.840Z</time>
      </trkpt>
      <trkpt lat="47.555982" lon="7.729642">
        <ele>279.730149</ele>
        <time>2021-08-16T21:28:35.559Z</time>
      </trkpt>
      <trkpt lat="47.556120" lon="7.729737">
        <ele>279.797259</ele>
        <time>2021-08-16T21:28:37.741Z</time>
      </trkpt>
      <trkpt lat="47.556229" lon="7.729846">
        <ele>279.855256</ele>
        <time>2021-08-16T21:28:39.922Z</time>
      </trkpt>
      <trkpt lat="47.556305" lon="7.729996">
        <ele>279.911084</ele>
        <time>2021-08-16T21:28:42.005Z</time>
      </trkpt>
      <trkpt lat="47.556357" lon="7.730174">
        <ele>279.968815</ele>
        <time>2021-08-16T21:28:43.826Z</time>
      </trkpt>
      <trkpt lat="47.556427" lon="7.730477">
        <ele>280.064138</ele>
        <time>2021-08-16T21:28:47.466Z</time>
      </trkpt>
      <trkpt lat="47.556599" lon="7.731204">
        <ele>279.990767</ele>
        <time>2021-08-16T21:28:54.604Z</time>
      </trkpt>
      <trkpt lat="47.556635" lon="7.731437">
        <ele>279.921928</ele>
        <time>2021-08-16T21:28:56.904Z</time>
      </trkpt>
      <trkpt lat="47.556684" lon="7.732421">
        <ele>279.637773</ele>
        <time>2021-08-16T21:29:05.625Z</time>
      </trkpt>
      <trkpt lat="47.556695" lon="7.732526">
        <ele>279.607171</ele>
        <time>2021-08-16T21:29:06.597Z</time>
      </trkpt>
      <trkpt lat="47.556704" lon="7.732597">
        <ele>279.586366</ele>
        <time>2021-08-16T21:29:07.209Z</time>
      </trkpt>
      <trkpt lat="47.556735" lon="7.732810">
        <ele>279.523613</ele>
        <time>2021-08-16T21:29:09.061Z</time>
      </trkpt>
      <trkpt lat="47.556773" lon="7.733074">
        <ele>279.445873</ele>
        <time>2021-08-16T21:29:11.490Z</time>
      </trkpt>
      <trkpt lat="47.556784" lon="7.733151">
        <ele>279.423206</ele>
        <time>2021-08-16T21:29:12.178Z</time>
      </trkpt>
      <trkpt lat="47.556872" lon="7.733723">
        <ele>279.185311</ele>
        <time>2021-08-16T21:29:17.541Z</time>
      </trkpt>
      <trkpt lat="47.556910" lon="7.733982">
        <ele>279.064308</ele>
        <time>2021-08-16T21:29:19.957Z</time>
      </trkpt>
      <trkpt lat="47.556947" lon="7.734300">
        <ele>278.916990</ele>
        <time>2021-08-16T21:29:22.871Z</time>
      </trkpt>
      <trkpt lat="47.556909" lon="7.735277">
        <ele>278.470222</ele>
        <time>2021-08-16T21:29:31.056Z</time>
      </trkpt>
      <trkpt lat="47.556652" lon="7.736450">
        <ele>277.811957</ele>
        <time>2021-08-16T21:29:41.776Z</time>
      </trkpt>
      <trkpt lat="47.556658" lon="7.736525">
        <ele>277.764242</ele>
        <time>2021-08-16T21:29:42.321Z</time>
      </trkpt>
      <trkpt lat="47.556614" lon="7.736602">
        <ele>277.700498</ele>
        <time>2021-08-16T21:29:43.185Z</time>
      </trkpt>
      <trkpt lat="47.556578" lon="7.736762">
        <ele>277.593942</ele>
        <time>2021-08-16T21:29:44.679Z</time>
      </trkpt>
      <trkpt lat="47.556486" lon="7.737232">
        <ele>277.284765</ele>
        <time>2021-08-16T21:29:48.790Z</time>
      </trkpt>
      <trkpt lat="47.556447" lon="7.737561">
        <ele>277.073725</ele>
        <time>2021-08-16T21:29:51.449Z</time>
      </trkpt>
      <trkpt lat="47.556422" lon="7.737881">
        <ele>276.870203</ele>
        <time>2021-08-16T21:29:54.170Z</time>
      </trkpt>
      <trkpt lat="47.556423" lon="7.738362">
        <ele>276.566313</ele>
        <time>2021-08-16T21:29:58.130Z</time>
      </trkpt>
      <trkpt lat="47.556427" lon="7.738558">
        <ele>276.449580</ele>
        <time>2021-08-16T21:29:59.682Z</time>
      </trkpt>
      <trkpt lat="47.556461" lon="7.739007">
        <ele>276.234449</ele>
        <time>2021-08-16T21:30:03.422Z</time>
      </trkpt>
      <trkpt lat="47.556492" lon="7.739412">
        <ele>276.040374</ele>
        <time>2021-08-16T21:30:07.072Z</time>
      </trkpt>
      <trkpt lat="47.556465" lon="7.739495">
        <ele>275.996502</ele>
        <time>2021-08-16T21:30:07.788Z</time>
      </trkpt>
      <trkpt lat="47.556401" lon="7.739672">
        <ele>275.900890</ele>
        <time>2021-08-16T21:30:09.591Z</time>
      </trkpt>
      <trkpt lat="47.556198" lon="7.740232">
        <ele>275.598216</ele>
        <time>2021-08-16T21:30:15.119Z</time>
      </trkpt>
      <trkpt lat="47.556109" lon="7.741529">
        <ele>275.194709</ele>
        <time>2021-08-16T21:30:26.512Z</time>
      </trkpt>
      <trkpt lat="47.555842" lon="7.742820">
        <ele>275.172603</ele>
        <time>2021-08-16T21:30:40.764Z</time>
      </trkpt>
      <trkpt lat="47.555722" lon="7.743661">
        <ele>275.156708</ele>
        <time>2021-08-16T21:30:49.903Z</time>
      </trkpt>
      <trkpt lat="47.555572" lon="7.744136">
        <ele>275.092482</ele>
        <time>2021-08-16T21:30:55.249Z</time>
      </trkpt>
      <trkpt lat="47.555416" lon="7.744384">
        <ele>275.050962</ele>
        <time>2021-08-16T21:30:58.603Z</time>
      </trkpt>
      <trkpt lat="47.555226" lon="7.744660">
        <ele>275.002679</ele>
        <time>2021-08-16T21:31:02.556Z</time>
      </trkpt>
      <trkpt lat="47.555182" lon="7.744738">
        <ele>274.990228</ele>
        <time>2021-08-16T21:31:03.466Z</time>
      </trkpt>
      <trkpt lat="47.555091" lon="7.744936">
        <ele>274.960891</ele>
        <time>2021-08-16T21:31:05.740Z</time>
      </trkpt>
      <trkpt lat="47.554910" lon="7.745450">
        <ele>274.889887</ele>
        <time>2021-08-16T21:31:11.179Z</time>
      </trkpt>
      <trkpt lat="47.554871" lon="7.745667">
        <ele>274.862385</ele>
        <time>2021-08-16T21:31:13.252Z</time>
      </trkpt>
      <trkpt lat="47.554853" lon="7.745965">
        <ele>274.812225</ele>
        <time>2021-08-16T21:31:15.943Z</time>
      </trkpt>
      <trkpt lat="47.554786" lon="7.747259">
        <ele>274.331242</ele>
        <time>2021-08-16T21:31:27.171Z</time>
      </trkpt>
      <trkpt lat="47.554319" lon="7.750058">
        <ele>273.451551</ele>
        <time>2021-08-16T21:31:52.998Z</time>
      </trkpt>
      <trkpt lat="47.554302" lon="7.750411">
        <ele>273.362958</ele>
        <time>2021-08-16T21:31:56.345Z</time>
      </trkpt>
      <trkpt lat="47.554273" lon="7.750704">
        <ele>273.288824</ele>
        <time>2021-08-16T21:31:59.195Z</time>
      </trkpt>
      <trkpt lat="47.554075" lon="7.752001">
        <ele>273.229063</ele>
        <time>2021-08-16T21:32:12.142Z</time>
      </trkpt>
      <trkpt lat="47.554122" lon="7.753011">
        <ele>273.288017</ele>
        <time>2021-08-16T21:32:22.572Z</time>
      </trkpt>
      <trkpt lat="47.554176" lon="7.753798">
        <ele>273.342477</ele>
        <time>2021-08-16T21:32:31.140Z</time>
      </trkpt>
      <trkpt lat="47.554275" lon="7.754160">
        <ele>273.504621</ele>
        <time>2021-08-16T21:32:35.430Z</time>
      </trkpt>
      <trkpt lat="47.554347" lon="7.754347">
        <ele>273.593994</ele>
        <time>2021-08-16T21:32:37.836Z</time>
      </trkpt>
      <trkpt lat="47.554452" lon="7.754585">
        <ele>273.712030</ele>
        <time>2021-08-16T21:32:41.113Z</time>
      </trkpt>
      <trkpt lat="47.554777" lon="7.755293">
        <ele>274.067477</ele>
        <time>2021-08-16T21:32:51.149Z</time>
      </trkpt>
      <trkpt lat="47.554914" lon="7.755680">
        <ele>274.248888</ele>
        <time>2021-08-16T21:32:56.459Z</time>
      </trkpt>
      <trkpt lat="47.555039" lon="7.756348">
        <ele>274.579273</ele>
        <time>2021-08-16T21:33:04.934Z</time>
      </trkpt>
      <trkpt lat="47.555067" lon="7.756625">
        <ele>274.746322</ele>
        <time>2021-08-16T21:33:08.555Z</time>
      </trkpt>
      <trkpt lat="47.555069" lon="7.757021">
        <ele>274.982509</ele>
        <time>2021-08-16T21:33:13.482Z</time>
      </trkpt>
      <trkpt lat="47.555058" lon="7.757801">
        <ele>275.447813</ele>
        <time>2021-08-16T21:33:23.216Z</time>
      </trkpt>
      <trkpt lat="47.555025" lon="7.760185">
        <ele>276.622292</ele>
        <time>2021-08-16T21:33:52.542Z</time>
      </trkpt>
      <trkpt lat="47.555021" lon="7.760351">
        <ele>276.692198</ele>
        <time>2021-08-16T21:33:54.583Z</time>
      </trkpt>
      <trkpt lat="47.555137" lon="7.761950">
        <ele>277.171089</ele>
        <time>2021-08-16T21:34:12.462Z</time>
      </trkpt>
      <trkpt lat="47.555151" lon="7.762144">
        <ele>277.178928</ele>
        <time>2021-08-16T21:34:14.457Z</time>
      </trkpt>
      <trkpt lat="47.555160" lon="7.762248">
        <ele>277.183140</ele>
        <time>2021-08-16T21:34:15.532Z</time>
      </trkpt>
      <trkpt lat="47.555178" lon="7.762514">
        <ele>277.193881</ele>
        <time>2021-08-16T21:34:18.344Z</time>
      </trkpt>
      <trkpt lat="47.555215" lon="7.763047">
        <ele>277.215408</ele>
        <time>2021-08-16T21:34:23.651Z</time>
      </trkpt>
      <trkpt lat="47.555256" lon="7.763536">
        <ele>277.235206</ele>
        <time>2021-08-16T21:34:28.538Z</time>
      </trkpt>
      <trkpt lat="47.555344" lon="7.764439">
        <ele>277.125838</ele>
        <time>2021-08-16T21:34:37.439Z</time>
      </trkpt>
      <trkpt lat="47.555426" lon="7.764999">
        <ele>276.918378</ele>
        <time>2021-08-16T21:34:42.523Z</time>
      </trkpt>
      <trkpt lat="47.555465" lon="7.765253">
        <ele>276.824070</ele>
        <time>2021-08-16T21:34:44.844Z</time>
      </trkpt>
      <trkpt lat="47.555496" lon="7.765461">
        <ele>276.746951</ele>
        <time>2021-08-16T21:34:46.673Z</time>
      </trkpt>
      <trkpt lat="47.555631" lon="7.766213">
        <ele>276.465229</ele>
        <time>2021-08-16T21:34:53.651Z</time>
      </trkpt>
      <trkpt lat="47.555683" lon="7.766459">
        <ele>276.371901</ele>
        <time>2021-08-16T21:34:55.851Z</time>
      </trkpt>
      <trkpt lat="47.555705" lon="7.766563">
        <ele>276.332443</ele>
        <time>2021-08-16T21:34:57.215Z</time>
      </trkpt>
      <trkpt lat="47.555779" lon="7.766907">
        <ele>276.124941</ele>
        <time>2021-08-16T21:35:01.585Z</time>
      </trkpt>
      <trkpt lat="47.556180" lon="7.768445">
        <ele>275.022423</ele>
        <time>2021-08-16T21:35:21.006Z</time>
      </trkpt>
      <trkpt lat="47.556308" lon="7.768946">
        <ele>274.664211</ele>
        <time>2021-08-16T21:35:27.146Z</time>
      </trkpt>
      <trkpt lat="47.556325" lon="7.769016">
        <ele>274.614465</ele>
        <time>2021-08-16T21:35:27.951Z</time>
      </trkpt>
      <trkpt lat="47.556588" lon="7.770024">
        <ele>274.104712</ele>
        <time>2021-08-16T21:35:40.504Z</time>
      </trkpt>
      <trkpt lat="47.556644" lon="7.770245">
        <ele>274.001202</ele>
        <time>2021-08-16T21:35:43.309Z</time>
      </trkpt>
      <trkpt lat="47.556970" lon="7.771488">
        <ele>273.416464</ele>
        <time>2021-08-16T21:35:59.822Z</time>
      </trkpt>
      <trkpt lat="47.556998" lon="7.771574">
        <ele>273.374596</ele>
        <time>2021-08-16T21:36:01.027Z</time>
      </trkpt>
      <trkpt lat="47.556245" lon="7.771767">
        <ele>273.295040</ele>
        <time>2021-08-16T21:36:13.766Z</time>
      </trkpt>
      <trkpt lat="47.555543" lon="7.772035">
        <ele>273.247731</ele>
        <time>2021-08-16T21:36:25.116Z</time>
      </trkpt>
      <trkpt lat="47.555195" lon="7.772170">
        <ele>273.224255</ele>
        <time>2021-08-16T21:36:29.988Z</time>
      </trkpt>
      <trkpt lat="47.554965" lon="7.772257">
        <ele>272.879477</ele>
        <time>2021-08-16T21:36:32.830Z</time>
      </trkpt>
      <trkpt lat="47.554847" lon="7.772301">
        <ele>272.702317</ele>
        <time>2021-08-16T21:36:34.242Z</time>
      </trkpt>
      <trkpt lat="47.554114" lon="7.772582">
        <ele>271.599957</ele>
        <time>2021-08-16T21:36:43.060Z</time>
      </trkpt>
      <trkpt lat="47.554010" lon="7.772622">
        <ele>271.443518</ele>
        <time>2021-08-16T21:36:44.262Z</time>
      </trkpt>
      <trkpt lat="47.553961" lon="7.772642">
        <ele>271.369519</ele>
        <time>2021-08-16T21:36:44.861Z</time>
      </trkpt>
      <trkpt lat="47.553891" lon="7.772673">
        <ele>271.263147</ele>
        <time>2021-08-16T21:36:45.653Z</time>
      </trkpt>
      <trkpt lat="47.553451" lon="7.772879">
        <ele>270.593937</ele>
        <time>2021-08-16T21:36:50.679Z</time>
      </trkpt>
      <trkpt lat="47.553723" lon="7.774381">
        <ele>269.350074</ele>
        <time>2021-08-16T21:37:02.151Z</time>
      </trkpt>
      <trkpt lat="47.553832" lon="7.775040">
        <ele>268.807380</ele>
        <time>2021-08-16T21:37:08.447Z</time>
      </trkpt>
      <trkpt lat="47.553964" lon="7.775914">
        <ele>268.704552</ele>
        <time>2021-08-16T21:37:18.619Z</time>
      </trkpt>
      <trkpt lat="47.554120" lon="7.776876">
        <ele>269.181502</ele>
        <time>2021-08-16T21:37:30.326Z</time>
      </trkpt>
      <trkpt lat="47.554463" lon="7.778985">
        <ele>270.065857</ele>
        <time>2021-08-16T21:37:57.859Z</time>
      </trkpt>
      <trkpt lat="47.554487" lon="7.779153">
        <ele>270.120127</ele>
        <time>2021-08-16T21:37:59.659Z</time>
      </trkpt>
      <trkpt lat="47.554563" lon="7.779668">
        <ele>270.286731</ele>
        <time>2021-08-16T21:38:05.346Z</time>
      </trkpt>
      <trkpt lat="47.554700" lon="7.780547">
        <ele>270.571836</ele>
        <time>2021-08-16T21:38:15.186Z</time>
      </trkpt>
      <trkpt lat="47.554710" lon="7.780618">
        <ele>270.594758</ele>
        <time>2021-08-16T21:38:15.956Z</time>
      </trkpt>
      <trkpt lat="47.554742" lon="7.780852">
        <ele>270.525412</ele>
        <time>2021-08-16T21:38:18.369Z</time>
      </trkpt>
      <trkpt lat="47.554849" lon="7.781551">
        <ele>270.279078</ele>
        <time>2021-08-16T21:38:25.193Z</time>
      </trkpt>
      <trkpt lat="47.554902" lon="7.781936">
        <ele>270.144037</ele>
        <time>2021-08-16T21:38:28.609Z</time>
      </trkpt>
      <trkpt lat="47.554919" lon="7.782052">
        <ele>270.103241</ele>
        <time>2021-08-16T21:38:29.564Z</time>
      </trkpt>
      <trkpt lat="47.554925" lon="7.782093">
        <ele>270.088823</ele>
        <time>2021-08-16T21:38:29.861Z</time>
      </trkpt>
      <trkpt lat="47.555031" lon="7.782812">
        <ele>269.835891</ele>
        <time>2021-08-16T21:38:35.659Z</time>
      </trkpt>
      <trkpt lat="47.555156" lon="7.783560">
        <ele>269.718355</ele>
        <time>2021-08-16T21:38:43.027Z</time>
      </trkpt>
      <trkpt lat="47.555175" lon="7.783674">
        <ele>269.730213</ele>
        <time>2021-08-16T21:38:43.911Z</time>
      </trkpt>
      <trkpt lat="47.555284" lon="7.784197">
        <ele>269.785489</ele>
        <time>2021-08-16T21:38:50.207Z</time>
      </trkpt>
      <trkpt lat="47.555365" lon="7.784391">
        <ele>269.808527</ele>
        <time>2021-08-16T21:38:53.220Z</time>
      </trkpt>
      <trkpt lat="47.555461" lon="7.784621">
        <ele>269.835836</ele>
        <time>2021-08-16T21:38:55.891Z</time>
      </trkpt>
      <trkpt lat="47.555734" lon="7.784979">
        <ele>269.890387</ele>
        <time>2021-08-16T21:39:02.218Z</time>
      </trkpt>
      <trkpt lat="47.555794" lon="7.785053">
        <ele>269.902068</ele>
        <time>2021-08-16T21:39:03.865Z</time>
      </trkpt>
      <trkpt lat="47.555804" lon="7.785065">
        <ele>269.903993</ele>
        <time>2021-08-16T21:39:04.102Z</time>
      </trkpt>
      <trkpt lat="47.555928" lon="7.785221">
        <ele>269.928334</ele>
        <time>2021-08-16T21:39:07.012Z</time>
      </trkpt>
      <trkpt lat="47.556140" lon="7.785486">
        <ele>269.835957</ele>
        <time>2021-08-16T21:39:10.973Z</time>
      </trkpt>
      <trkpt lat="47.556247" lon="7.785618">
        <ele>269.680200</ele>
        <time>2021-08-16T21:39:12.897Z</time>
      </trkpt>
      <trkpt lat="47.556331" lon="7.785736">
        <ele>269.550711</ele>
        <time>2021-08-16T21:39:14.653Z</time>
      </trkpt>
      <trkpt lat="47.556519" lon="7.786031">
        <ele>269.244382</ele>
        <time>2021-08-16T21:39:17.982Z</time>
      </trkpt>
      <trkpt lat="47.556701" lon="7.786373">
        <ele>268.915560</ele>
        <time>2021-08-16T21:39:21.642Z</time>
      </trkpt>
      <trkpt lat="47.556762" lon="7.786626">
        <ele>268.712726</ele>
        <time>2021-08-16T21:39:23.787Z</time>
      </trkpt>
      <trkpt lat="47.556785" lon="7.786722">
        <ele>268.635817</ele>
        <time>2021-08-16T21:39:24.525Z</time>
      </trkpt>
      <trkpt lat="47.556807" lon="7.786849">
        <ele>268.536827</ele>
        <time>2021-08-16T21:39:25.505Z</time>
      </trkpt>
      <trkpt lat="47.556812" lon="7.787001">
        <ele>268.421934</ele>
        <time>2021-08-16T21:39:26.643Z</time>
      </trkpt>
      <trkpt lat="47.556783" lon="7.787207">
        <ele>268.263062</ele>
        <time>2021-08-16T21:39:28.204Z</time>
      </trkpt>
      <trkpt lat="47.556658" lon="7.787468">
        <ele>268.021435</ele>
        <time>2021-08-16T21:39:30.572Z</time>
      </trkpt>
      <trkpt lat="47.556539" lon="7.787710">
        <ele>267.863079</ele>
        <time>2021-08-16T21:39:32.781Z</time>
      </trkpt>
      <trkpt lat="47.556357" lon="7.788058">
        <ele>267.684306</ele>
        <time>2021-08-16T21:39:36.068Z</time>
      </trkpt>
      <trkpt lat="47.556249" lon="7.788270">
        <ele>267.576448</ele>
        <time>2021-08-16T21:39:38.048Z</time>
      </trkpt>
      <trkpt lat="47.556137" lon="7.788488">
        <ele>267.465194</ele>
        <time>2021-08-16T21:39:40.086Z</time>
      </trkpt>
      <trkpt lat="47.556111" lon="7.788537">
        <ele>267.439883</ele>
        <time>2021-08-16T21:39:40.528Z</time>
      </trkpt>
      <trkpt lat="47.556069" lon="7.788614">
        <ele>267.399681</ele>
        <time>2021-08-16T21:39:41.309Z</time>
      </trkpt>
      <trkpt lat="47.555936" lon="7.788828">
        <ele>267.281549</ele>
        <time>2021-08-16T21:39:43.621Z</time>
      </trkpt>
      <trkpt lat="47.555085" lon="7.789685">
        <ele>267.670868</ele>
        <time>2021-08-16T21:40:08.616Z</time>
      </trkpt>
      <trkpt lat="47.555062" lon="7.789726">
        <ele>267.759928</ele>
        <time>2021-08-16T21:40:09.772Z</time>
      </trkpt>
      <trkpt lat="47.555052" lon="7.789771">
        <ele>267.839070</ele>
        <time>2021-08-16T21:40:10.690Z</time>
      </trkpt>
      <trkpt lat="47.555031" lon="7.789894">
        <ele>268.051011</ele>
        <time>2021-08-16T21:40:13.475Z</time>
      </trkpt>
      <trkpt lat="47.554999" lon="7.790090">
        <ele>268.387868</ele>
        <time>2021-08-16T21:40:18.347Z</time>
      </trkpt>
      <trkpt lat="47.554865" lon="7.790678">
        <ele>269.424597</ele>
        <time>2021-08-16T21:40:32.479Z</time>
      </trkpt>
      <trkpt lat="47.554858" lon="7.790696">
        <ele>269.459300</ele>
        <time>2021-08-16T21:40:33.475Z</time>
      </trkpt>
      <trkpt lat="47.554788" lon="7.790844">
        <ele>269.761200</ele>
        <time>2021-08-16T21:40:39.055Z</time>
      </trkpt>
      <trkpt lat="47.554756" lon="7.790897">
        <ele>269.879995</ele>
        <time>2021-08-16T21:40:41.626Z</time>
      </trkpt>
      <trkpt lat="47.554911" lon="7.791459">
        <ele>270.894173</ele>
        <time>2021-08-16T21:40:54.588Z</time>
      </trkpt>
      <trkpt lat="47.555027" lon="7.791948">
        <ele>271.545637</ele>
        <time>2021-08-16T21:41:04.959Z</time>
      </trkpt>
      <trkpt lat="47.555085" lon="7.792163">
        <ele>271.747475</ele>
        <time>2021-08-16T21:41:09.611Z</time>
      </trkpt>
      <trkpt lat="47.555127" lon="7.792307">
        <ele>271.884224</ele>
        <time>2021-08-16T21:41:12.229Z</time>
      </trkpt>
      <trkpt lat="47.555237" lon="7.792734">
        <ele>272.282643</ele>
        <time>2021-08-16T21:41:20.427Z</time>
      </trkpt>
      <trkpt lat="47.555277" lon="7.793131">
        <ele>272.632550</ele>
        <time>2021-08-16T21:41:26.853Z</time>
      </trkpt>
      <trkpt lat="47.555274" lon="7.793423">
        <ele>272.887120</ele>
        <time>2021-08-16T21:41:31.141Z</time>
      </trkpt>
      <trkpt lat="47.555281" lon="7.793955">
        <ele>273.350962</ele>
        <time>2021-08-16T21:41:39.144Z</time>
      </trkpt>
      <trkpt lat="47.555282" lon="7.794033">
        <ele>273.418968</ele>
        <time>2021-08-16T21:41:40.357Z</time>
      </trkpt>
      <trkpt lat="47.555288" lon="7.794318">
        <ele>273.690127</ele>
        <time>2021-08-16T21:41:44.910Z</time>
      </trkpt>
      <trkpt lat="47.555288" lon="7.794496">
        <ele>273.952777</ele>
        <time>2021-08-16T21:41:47.610Z</time>
      </trkpt>
      <trkpt lat="47.555308" lon="7.794498">
        <ele>273.996605</ele>
        <time>2021-08-16T21:41:48.072Z</time>
      </trkpt>
      <trkpt lat="47.555432" lon="7.795493">
        <ele>275.489612</ele>
        <time>2021-08-16T21:42:05.422Z</time>
      </trkpt>
      <trkpt lat="47.555436" lon="7.795522">
        <ele>275.533288</ele>
        <time>2021-08-16T21:42:05.959Z</time>
      </trkpt>
      <trkpt lat="47.555438" lon="7.795535">
        <ele>275.552962</ele>
        <time>2021-08-16T21:42:06.208Z</time>
      </trkpt>
      <trkpt lat="47.555451" lon="7.795635">
        <ele>275.703231</ele>
        <time>2021-08-16T21:42:08.151Z</time>
      </trkpt>
      <trkpt lat="47.555456" lon="7.795684">
        <ele>275.776355</ele>
        <time>2021-08-16T21:42:09.299Z</time>
      </trkpt>
      <trkpt lat="47.555444" lon="7.795749">
        <ele>275.875790</ele>
        <time>2021-08-16T21:42:10.677Z</time>
      </trkpt>
      <trkpt lat="47.555454" lon="7.795902">
        <ele>276.102607</ele>
        <time>2021-08-16T21:42:13.503Z</time>
      </trkpt>
      <trkpt lat="47.555467" lon="7.795984">
        <ele>276.226897</ele>
        <time>2021-08-16T21:42:15.294Z</time>
      </trkpt>
      <trkpt lat="47.555492" lon="7.796158">
        <ele>276.489398</ele>
        <time>2021-08-16T21:42:18.433Z</time>
      </trkpt>
      <trkpt lat="47.555529" lon="7.796462">
        <ele>276.945204</ele>
        <time>2021-08-16T21:42:24.294Z</time>
      </trkpt>
      <trkpt lat="47.555544" lon="7.796747">
        <ele>277.367015</ele>
        <time>2021-08-16T21:42:30.227Z</time>
      </trkpt>
      <trkpt lat="47.555486" lon="7.796849">
        <ele>277.563824</ele>
        <time>2021-08-16T21:42:33.950Z</time>
      </trkpt>
      <trkpt lat="47.555263" lon="7.796971">
        <ele>278.355202</ele>
        <time>2021-08-16T21:42:41.911Z</time>
      </trkpt>
      <trkpt lat="47.555241" lon="7.796953">
        <ele>278.439070</ele>
        <time>2021-08-16T21:42:43.017Z</time>
      </trkpt>
      <trkpt lat="47.555102" lon="7.797022">
        <ele>278.928283</ele>
        <time>2021-08-16T21:42:47.794Z</time>
      </trkpt>
      <trkpt lat="47.555043" lon="7.797058">
        <ele>279.141219</ele>
        <time>2021-08-16T21:42:49.684Z</time>
      </trkpt>
      <trkpt lat="47.554934" lon="7.797124">
        <ele>279.534176</ele>
        <time>2021-08-16T21:42:52.900Z</time>
      </trkpt>
      <trkpt lat="47.554802" lon="7.797205">
        <ele>280.010971</ele>
        <time>2021-08-16T21:42:57.971Z</time>
      </trkpt>
      <trkpt lat="47.554702" lon="7.797265">
        <ele>280.371015</ele>
        <time>2021-08-16T21:43:00.967Z</time>
      </trkpt>
      <trkpt lat="47.554384" lon="7.797459">
        <ele>281.518681</ele>
        <time>2021-08-16T21:43:10.528Z</time>
      </trkpt>
      <trkpt lat="47.554256" lon="7.797539">
        <ele>281.982291</ele>
        <time>2021-08-16T21:43:13.569Z</time>
      </trkpt>
      <trkpt lat="47.554176" lon="7.797585">
        <ele>282.268666</ele>
        <time>2021-08-16T21:43:16.566Z</time>
      </trkpt>
      <trkpt lat="47.554176" lon="7.797585">
        <ele>282.268666</ele>
        <time>2021-08-16T21:43:16.569Z</time>
      </trkpt>
      <trkpt lat="47.554176" lon="7.797585">
        <ele>282.268666</ele>
        <time>2021-08-16T21:43:16.605Z</time>
      </trkpt>
      <trkpt lat="47.554225" lon="7.797729">
        <ele>282.631885</ele>
        <time>2021-08-16T21:43:19.730Z</time>
      </trkpt>
      <trkpt lat="47.554569" lon="7.798771">
        <ele>284.886126</ele>
        <time>2021-08-16T21:43:43.586Z</time>
      </trkpt>
      <trkpt lat="47.554580" lon="7.798805">
        <ele>284.952874</ele>
        <time>2021-08-16T21:43:44.171Z</time>
      </trkpt>
      <trkpt lat="47.554652" lon="7.799037">
        <ele>285.404917</ele>
        <time>2021-08-16T21:43:49.850Z</time>
      </trkpt>
      <trkpt lat="47.554785" lon="7.799447">
        <ele>286.210214</ele>
        <time>2021-08-16T21:43:59.062Z</time>
      </trkpt>
      <trkpt lat="47.554887" lon="7.799691">
        <ele>286.718307</ele>
        <time>2021-08-16T21:44:05.196Z</time>
      </trkpt>
      <trkpt lat="47.554919" lon="7.799767">
        <ele>286.876883</ele>
        <time>2021-08-16T21:44:06.708Z</time>
      </trkpt>
      <trkpt lat="47.555022" lon="7.799940">
        <ele>287.285277</ele>
        <time>2021-08-16T21:44:11.614Z</time>
      </trkpt>
      <trkpt lat="47.554155" lon="7.800510">
        <ele>289.868548</ele>
        <time>2021-08-16T21:44:41.057Z</time>
      </trkpt>
      <trkpt lat="47.553909" lon="7.800673">
        <ele>290.620739</ele>
        <time>2021-08-16T21:44:50.089Z</time>
      </trkpt>
      <trkpt lat="47.553850" lon="7.800751">
        <ele>290.841450</ele>
        <time>2021-08-16T21:44:52.441Z</time>
      </trkpt>
      <trkpt lat="47.553794" lon="7.800894">
        <ele>291.152905</ele>
        <time>2021-08-16T21:44:56.434Z</time>
      </trkpt>
      <trkpt lat="47.553782" lon="7.800961">
        <ele>291.283492</ele>
        <time>2021-08-16T21:44:58.026Z</time>
      </trkpt>
      <trkpt lat="47.553823" lon="7.801201">
        <ele>291.749874</ele>
        <time>2021-08-16T21:45:03.320Z</time>
      </trkpt>
      <trkpt lat="47.554367" lon="7.802333">
        <ele>293.892642</ele>
        <time>2021-08-16T21:45:31.977Z</time>
      </trkpt>
      <trkpt lat="47.554402" lon="7.802456">
        <ele>294.031320</ele>
        <time>2021-08-16T21:45:34.374Z</time>
      </trkpt>
      <trkpt lat="47.554459" lon="7.802666">
        <ele>294.266473</ele>
        <time>2021-08-16T21:45:38.402Z</time>
      </trkpt>
      <trkpt lat="47.554639" lon="7.803656">
        <ele>295.331651</ele>
        <time>2021-08-16T21:45:55.739Z</time>
      </trkpt>
      <trkpt lat="47.554726" lon="7.804275">
        <ele>295.988523</ele>
        <time>2021-08-16T21:46:05.944Z</time>
      </trkpt>
      <trkpt lat="47.554769" lon="7.804587">
        <ele>296.247243</ele>
        <time>2021-08-16T21:46:11.461Z</time>
      </trkpt>
      <trkpt lat="47.554808" lon="7.804930">
        <ele>296.500996</ele>
        <time>2021-08-16T21:46:16.961Z</time>
      </trkpt>
      <trkpt lat="47.554810" lon="7.805056">
        <ele>296.592941</ele>
        <time>2021-08-16T21:46:19.438Z</time>
      </trkpt>
      <trkpt lat="47.554810" lon="7.805056">
        <ele>296.592941</ele>
        <time>2021-08-16T21:46:19.444Z</time>
      </trkpt>
      <trkpt lat="47.554751" lon="7.805044">
        <ele>296.657315</ele>
        <time>2021-08-16T21:46:21.001Z</time>
      </trkpt>
      <trkpt lat="47.554683" lon="7.805120">
        <ele>296.749386</ele>
        <time>2021-08-16T21:46:23.109Z</time>
      </trkpt>
      <trkpt lat="47.554591" lon="7.805119">
        <ele>296.848837</ele>
        <time>2021-08-16T21:46:25.288Z</time>
      </trkpt>
      <trkpt lat="47.554162" lon="7.805088">
        <ele>297.313119</ele>
        <time>2021-08-16T21:46:36.237Z</time>
      </trkpt>
      <trkpt lat="47.553816" lon="7.805061">
        <ele>297.687649</ele>
        <time>2021-08-16T21:46:44.820Z</time>
      </trkpt>
      <trkpt lat="47.553565" lon="7.805008">
        <ele>297.961711</ele>
        <time>2021-08-16T21:46:51.017Z</time>
      </trkpt>
      <trkpt lat="47.553400" lon="7.804940">
        <ele>298.142974</ele>
        <time>2021-08-16T21:46:54.984Z</time>
      </trkpt>
      <trkpt lat="47.553326" lon="7.804924">
        <ele>298.221320</ele>
        <time>2021-08-16T21:46:56.717Z</time>
      </trkpt>
      <trkpt lat="47.553276" lon="7.804918">
        <ele>298.273873</ele>
        <time>2021-08-16T21:46:57.882Z</time>
      </trkpt>
      <trkpt lat="47.553211" lon="7.804952">
        <ele>298.346087</ele>
        <time>2021-08-16T21:46:59.344Z</time>
      </trkpt>
      <trkpt lat="47.552737" lon="7.804819">
        <ele>298.851489</ele>
        <time>2021-08-16T21:47:10.272Z</time>
      </trkpt>
      <trkpt lat="47.552499" lon="7.804766">
        <ele>299.103625</ele>
        <time>2021-08-16T21:47:16.435Z</time>
      </trkpt>
      <trkpt lat="47.552313" lon="7.804725">
        <ele>299.300629</ele>
        <time>2021-08-16T21:47:21.131Z</time>
      </trkpt>
      <trkpt lat="47.552281" lon="7.804747">
        <ele>299.337586</ele>
        <time>2021-08-16T21:47:22.101Z</time>
      </trkpt>
      <trkpt lat="47.552011" lon="7.804535">
        <ele>299.657709</ele>
        <time>2021-08-16T21:47:30.577Z</time>
      </trkpt>
      <trkpt lat="47.551855" lon="7.804609">
        <ele>299.829311</ele>
        <time>2021-08-16T21:47:34.393Z</time>
      </trkpt>
      <trkpt lat="47.551731" lon="7.804667">
        <ele>299.934564</ele>
        <time>2021-08-16T21:47:38.370Z</time>
      </trkpt>
      <trkpt lat="47.551709" lon="7.805000">
        <ele>300.048517</ele>
        <time>2021-08-16T21:47:42.704Z</time>
      </trkpt>
      <trkpt lat="47.551681" lon="7.805477">
        <ele>300.211584</ele>
        <time>2021-08-16T21:47:50.206Z</time>
      </trkpt>
      <trkpt lat="47.551673" lon="7.805995">
        <ele>300.388047</ele>
        <time>2021-08-16T21:47:58.101Z</time>
      </trkpt>
      <trkpt lat="47.551671" lon="7.806117">
        <ele>300.429610</ele>
        <time>2021-08-16T21:47:59.864Z</time>
      </trkpt>
      <trkpt lat="47.551651" lon="7.806246">
        <ele>300.474688</ele>
        <time>2021-08-16T21:48:02.763Z</time>
      </trkpt>
      <trkpt lat="47.551895" lon="7.806278">
        <ele>300.598294</ele>
        <time>2021-08-16T21:48:06.023Z</time>
      </trkpt>
      <trkpt lat="47.552015" lon="7.806307">
        <ele>300.659648</ele>
        <time>2021-08-16T21:48:08.967Z</time>
      </trkpt>
      <trkpt lat="47.552068" lon="7.806445">
        <ele>300.713723</ele>
        <time>2021-08-16T21:48:10.496Z</time>
      </trkpt>
      <trkpt lat="47.552081" lon="7.806544">
        <ele>300.748072</ele>
        <time>2021-08-16T21:48:11.269Z</time>
      </trkpt>
      <trkpt lat="47.552398" lon="7.808880">
        <ele>300.149472</ele>
        <time>2021-08-16T21:48:32.736Z</time>
      </trkpt>
      <trkpt lat="47.552566" lon="7.810386">
        <ele>299.598120</ele>
        <time>2021-08-16T21:48:46.251Z</time>
      </trkpt>
      <trkpt lat="47.552711" lon="7.812955">
        <ele>298.572956</ele>
        <time>2021-08-16T21:49:09.006Z</time>
      </trkpt>
      <trkpt lat="47.552844" lon="7.816432">
        <ele>297.433353</ele>
        <time>2021-08-16T21:49:39.423Z</time>
      </trkpt>
      <trkpt lat="47.552940" lon="7.819136">
        <ele>297.648088</ele>
        <time>2021-08-16T21:50:07.961Z</time>
      </trkpt>
      <trkpt lat="47.552948" lon="7.819358">
        <ele>297.700418</ele>
        <time>2021-08-16T21:50:10.681Z</time>
      </trkpt>
      <trkpt lat="47.552896" lon="7.820699">
        <ele>298.231125</ele>
        <time>2021-08-16T21:50:26.896Z</time>
      </trkpt>
      <trkpt lat="47.552567" lon="7.824508">
        <ele>300.216101</ele>
        <time>2021-08-16T21:51:13.775Z</time>
      </trkpt>
      <trkpt lat="47.552491" lon="7.827227">
        <ele>301.743211</ele>
        <time>2021-08-16T21:51:45.602Z</time>
      </trkpt>
      <trkpt lat="47.552515" lon="7.828094">
        <ele>302.373109</ele>
        <time>2021-08-16T21:51:57.735Z</time>
      </trkpt>
      <trkpt lat="47.552477" lon="7.828294">
        <ele>302.654108</ele>
        <time>2021-08-16T21:52:00.284Z</time>
      </trkpt>
      <trkpt lat="47.552421" lon="7.828481">
        <ele>302.930789</ele>
        <time>2021-08-16T21:52:03.389Z</time>
      </trkpt>
      <trkpt lat="47.552404" lon="7.828582">
        <ele>303.071568</ele>
        <time>2021-08-16T21:52:04.996Z</time>
      </trkpt>
      <trkpt lat="47.552416" lon="7.828822">
        <ele>303.397040</ele>
        <time>2021-08-16T21:52:08.166Z</time>
      </trkpt>
      <trkpt lat="47.552554" lon="7.829266">
        <ele>304.058131</ele>
        <time>2021-08-16T21:52:15.489Z</time>
      </trkpt>
      <trkpt lat="47.552569" lon="7.829493">
        <ele>304.366599</ele>
        <time>2021-08-16T21:52:19.253Z</time>
      </trkpt>
      <trkpt lat="47.552645" lon="7.830686">
        <ele>306.090976</ele>
        <time>2021-08-16T21:52:38.929Z</time>
      </trkpt>
      <trkpt lat="47.552690" lon="7.832598">
        <ele>309.862788</ele>
        <time>2021-08-16T21:53:14.086Z</time>
      </trkpt>
      <trkpt lat="47.552616" lon="7.832891">
        <ele>310.479560</ele>
        <time>2021-08-16T21:53:19.416Z</time>
      </trkpt>
      <trkpt lat="47.552556" lon="7.832977">
        <ele>310.723416</ele>
        <time>2021-08-16T21:53:22.149Z</time>
      </trkpt>
      <trkpt lat="47.552511" lon="7.833072">
        <ele>310.952235</ele>
        <time>2021-08-16T21:53:24.166Z</time>
      </trkpt>
      <trkpt lat="47.552467" lon="7.833198">
        <ele>311.200067</ele>
        <time>2021-08-16T21:53:26.556Z</time>
      </trkpt>
      <trkpt lat="47.552452" lon="7.833284">
        <ele>311.349513</ele>
        <time>2021-08-16T21:53:28.170Z</time>
      </trkpt>
      <trkpt lat="47.552655" lon="7.833704">
        <ele>312.218669</ele>
        <time>2021-08-16T21:53:37.438Z</time>
      </trkpt>
      <trkpt lat="47.552696" lon="7.833789">
        <ele>312.394449</ele>
        <time>2021-08-16T21:53:39.257Z</time>
      </trkpt>
      <trkpt lat="47.552700" lon="7.833938">
        <ele>312.645335</ele>
        <time>2021-08-16T21:53:42.183Z</time>
      </trkpt>
      <trkpt lat="47.552714" lon="7.835010">
        <ele>314.449283</ele>
        <time>2021-08-16T21:54:00.697Z</time>
      </trkpt>
      <trkpt lat="47.552719" lon="7.836790">
        <ele>316.695150</ele>
        <time>2021-08-16T21:54:26.073Z</time>
      </trkpt>
      <trkpt lat="47.552697" lon="7.838068">
        <ele>318.018107</ele>
        <time>2021-08-16T21:54:43.724Z</time>
      </trkpt>
      <trkpt lat="47.552699" lon="7.838092">
        <ele>318.043132</ele>
        <time>2021-08-16T21:54:44.136Z</time>
      </trkpt>
      <trkpt lat="47.552736" lon="7.838578">
        <ele>318.560158</ele>
        <time>2021-08-16T21:54:50.866Z</time>
      </trkpt>
      <trkpt lat="47.552802" lon="7.839009">
        <ele>319.034530</ele>
        <time>2021-08-16T21:54:57.108Z</time>
      </trkpt>
      <trkpt lat="47.552939" lon="7.839526">
        <ele>319.630691</ele>
        <time>2021-08-16T21:55:04.908Z</time>
      </trkpt>
      <trkpt lat="47.553231" lon="7.841529">
        <ele>321.704119</ele>
        <time>2021-08-16T21:55:35.096Z</time>
      </trkpt>
      <trkpt lat="47.553216" lon="7.841849">
        <ele>321.987580</ele>
        <time>2021-08-16T21:55:39.628Z</time>
      </trkpt>
      <trkpt lat="47.553123" lon="7.842222">
        <ele>322.338969</ele>
        <time>2021-08-16T21:55:44.871Z</time>
      </trkpt>
      <trkpt lat="47.553133" lon="7.842431">
        <ele>322.524124</ele>
        <time>2021-08-16T21:55:48.007Z</time>
      </trkpt>
      <trkpt lat="47.552833" lon="7.842495">
        <ele>322.920979</ele>
        <time>2021-08-16T21:55:55.313Z</time>
      </trkpt>
      <trkpt lat="47.552380" lon="7.842592">
        <ele>323.500535</ele>
        <time>2021-08-16T21:56:06.358Z</time>
      </trkpt>
      <trkpt lat="47.551922" lon="7.842704">
        <ele>323.860841</ele>
        <time>2021-08-16T21:56:16.921Z</time>
      </trkpt>
      <trkpt lat="47.551668" lon="7.842770">
        <ele>324.061004</ele>
        <time>2021-08-16T21:56:22.879Z</time>
      </trkpt>
      <trkpt lat="47.551454" lon="7.842815">
        <ele>324.228774</ele>
        <time>2021-08-16T21:56:27.561Z</time>
      </trkpt>
      <trkpt lat="47.551344" lon="7.844621">
        <ele>325.359676</ele>
        <time>2021-08-16T21:56:50.126Z</time>
      </trkpt>
      <trkpt lat="47.551205" lon="7.846694">
        <ele>327.088949</ele>
        <time>2021-08-16T21:57:18.188Z</time>
      </trkpt>
      <trkpt lat="47.551184" lon="7.847206">
        <ele>327.632266</ele>
        <time>2021-08-16T21:57:25.591Z</time>
      </trkpt>
      <trkpt lat="47.551196" lon="7.847517">
        <ele>327.962219</ele>
        <time>2021-08-16T21:57:30.163Z</time>
      </trkpt>
      <trkpt lat="47.551669" lon="7.848083">
        <ele>328.916387</ele>
        <time>2021-08-16T21:57:43.250Z</time>
      </trkpt>
      <trkpt lat="47.551242" lon="7.848702">
        <ele>329.853902</ele>
        <time>2021-08-16T21:57:55.844Z</time>
      </trkpt>
      <trkpt lat="47.550975" lon="7.849066">
        <ele>330.337405</ele>
        <time>2021-08-16T21:58:03.169Z</time>
      </trkpt>
      <trkpt lat="47.550810" lon="7.849346">
        <ele>330.666567</ele>
        <time>2021-08-16T21:58:09.575Z</time>
      </trkpt>
      <trkpt lat="47.550488" lon="7.850081">
        <ele>331.442541</ele>
        <time>2021-08-16T21:58:25.069Z</time>
      </trkpt>
      <trkpt lat="47.550333" lon="7.850434">
        <ele>331.815472</ele>
        <time>2021-08-16T21:58:32.409Z</time>
      </trkpt>
      <trkpt lat="47.550009" lon="7.851173">
        <ele>332.259262</ele>
        <time>2021-08-16T21:58:46.930Z</time>
      </trkpt>
      <trkpt lat="47.549652" lon="7.851969">
        <ele>332.259262</ele>
        <time>2021-08-16T21:59:01.516Z</time>
      </trkpt>
      <trkpt lat="47.549535" lon="7.852225">
        <ele>332.259262</ele>
        <time>2021-08-16T21:59:06.086Z</time>
      </trkpt>
      <trkpt lat="47.549334" lon="7.852675">
        <ele>332.259262</ele>
        <time>2021-08-16T21:59:13.870Z</time>
      </trkpt>
    </trkseg>
  </trk>
</gpx>